<?xml version="1.0" encoding="UTF-8" standalone="no" ?>
<gpx xmlns="http://www.topografix.com/GPX/1/1" xmlns:xsi="http://www.w3.org/2001/XMLSchema-instance" xsi:schemaLocation="http://www.topografix.com/GPX/1/1 http://www.topografix.com/GPX/1/1/gpx.xsd" version="1.1" creator="VisuGPX - https://www.visugpx.com">
  <metadata>
    <name>asnelles_ver_15,9</name>
  </metadata>
  <trk>
    <name><![CDATA[asnelles_ver_15,9]]></name>
    <extensions>
      <line xmlns="http://www.topografix.com/GPX/gpx_style/0/2">
        <width>3</width>
      </line>
    </extensions>
    <trkseg>
      <trkpt lat="49.34096" lon="-0.59018">
        <ele>4.5</ele>
        <time>2016-05-29T07:24:40.000Z</time>
      </trkpt>
      <trkpt lat="49.34096" lon="-0.59018">
        <ele>4.5</ele>
        <time>2016-05-29T07:24:41.000Z</time>
      </trkpt>
      <trkpt lat="49.341" lon="-0.59005">
        <ele>5.3</ele>
        <time>2016-05-29T07:25:33.000Z</time>
      </trkpt>
      <trkpt lat="49.34103" lon="-0.58991">
        <ele>4.9</ele>
        <time>2016-05-29T07:25:43.000Z</time>
      </trkpt>
      <trkpt lat="49.34106" lon="-0.58978">
        <ele>4.2</ele>
        <time>2016-05-29T07:25:54.000Z</time>
      </trkpt>
      <trkpt lat="49.34109" lon="-0.58964">
        <ele>3.9</ele>
        <time>2016-05-29T07:26:03.000Z</time>
      </trkpt>
      <trkpt lat="49.34111" lon="-0.5895">
        <ele>3.7</ele>
        <time>2016-05-29T07:26:10.000Z</time>
      </trkpt>
      <trkpt lat="49.34118" lon="-0.58941">
        <ele>3.5</ele>
        <time>2016-05-29T07:26:18.000Z</time>
      </trkpt>
      <trkpt lat="49.34123" lon="-0.58928">
        <ele>3.7</ele>
        <time>2016-05-29T07:26:26.000Z</time>
      </trkpt>
      <trkpt lat="49.34128" lon="-0.58917">
        <ele>4.6</ele>
        <time>2016-05-29T07:26:43.000Z</time>
      </trkpt>
      <trkpt lat="49.34135" lon="-0.58907">
        <ele>4.8</ele>
        <time>2016-05-29T07:26:55.000Z</time>
      </trkpt>
      <trkpt lat="49.3414" lon="-0.58895">
        <ele>4.9</ele>
        <time>2016-05-29T07:27:04.000Z</time>
      </trkpt>
      <trkpt lat="49.34144" lon="-0.58882">
        <ele>4.7</ele>
        <time>2016-05-29T07:27:13.000Z</time>
      </trkpt>
      <trkpt lat="49.34148" lon="-0.58869">
        <ele>5</ele>
        <time>2016-05-29T07:28:13.000Z</time>
      </trkpt>
      <trkpt lat="49.34154" lon="-0.58857">
        <ele>5.1</ele>
        <time>2016-05-29T07:28:21.000Z</time>
      </trkpt>
      <trkpt lat="49.34158" lon="-0.58844">
        <ele>5.3</ele>
        <time>2016-05-29T07:28:29.000Z</time>
      </trkpt>
      <trkpt lat="49.34162" lon="-0.58832">
        <ele>5</ele>
        <time>2016-05-29T07:28:37.000Z</time>
      </trkpt>
      <trkpt lat="49.34165" lon="-0.58818">
        <ele>4.8</ele>
        <time>2016-05-29T07:28:44.000Z</time>
      </trkpt>
      <trkpt lat="49.34167" lon="-0.58804">
        <ele>4.8</ele>
        <time>2016-05-29T07:28:51.000Z</time>
      </trkpt>
      <trkpt lat="49.3417" lon="-0.58791">
        <ele>5.1</ele>
        <time>2016-05-29T07:28:58.000Z</time>
      </trkpt>
      <trkpt lat="49.34172" lon="-0.58775">
        <ele>5.4</ele>
        <time>2016-05-29T07:29:08.000Z</time>
      </trkpt>
      <trkpt lat="49.34174" lon="-0.5876">
        <ele>5.4</ele>
        <time>2016-05-29T07:29:15.000Z</time>
      </trkpt>
      <trkpt lat="49.34176" lon="-0.58746">
        <ele>5.5</ele>
        <time>2016-05-29T07:29:21.000Z</time>
      </trkpt>
      <trkpt lat="49.34177" lon="-0.58731">
        <ele>5.3</ele>
        <time>2016-05-29T07:29:28.000Z</time>
      </trkpt>
      <trkpt lat="49.34179" lon="-0.58717">
        <ele>5.2</ele>
        <time>2016-05-29T07:29:35.000Z</time>
      </trkpt>
      <trkpt lat="49.34181" lon="-0.58704">
        <ele>5.7</ele>
        <time>2016-05-29T07:29:41.000Z</time>
      </trkpt>
      <trkpt lat="49.34185" lon="-0.5869">
        <ele>6.1</ele>
        <time>2016-05-29T07:29:48.000Z</time>
      </trkpt>
      <trkpt lat="49.34187" lon="-0.58677">
        <ele>6.3</ele>
        <time>2016-05-29T07:29:55.000Z</time>
      </trkpt>
      <trkpt lat="49.3419" lon="-0.58663">
        <ele>6.1</ele>
        <time>2016-05-29T07:30:02.000Z</time>
      </trkpt>
      <trkpt lat="49.34192" lon="-0.58649">
        <ele>6</ele>
        <time>2016-05-29T07:30:09.000Z</time>
      </trkpt>
      <trkpt lat="49.34195" lon="-0.58634">
        <ele>5.9</ele>
        <time>2016-05-29T07:30:16.000Z</time>
      </trkpt>
      <trkpt lat="49.34197" lon="-0.58619">
        <ele>5.8</ele>
        <time>2016-05-29T07:30:24.000Z</time>
      </trkpt>
      <trkpt lat="49.34199" lon="-0.58604">
        <ele>5.7</ele>
        <time>2016-05-29T07:30:32.000Z</time>
      </trkpt>
      <trkpt lat="49.34201" lon="-0.58589">
        <ele>5.6</ele>
        <time>2016-05-29T07:30:40.000Z</time>
      </trkpt>
      <trkpt lat="49.34204" lon="-0.58576">
        <ele>5.6</ele>
        <time>2016-05-29T07:30:47.000Z</time>
      </trkpt>
      <trkpt lat="49.34208" lon="-0.58562">
        <ele>5.7</ele>
        <time>2016-05-29T07:30:55.000Z</time>
      </trkpt>
      <trkpt lat="49.34209" lon="-0.58548">
        <ele>5.9</ele>
        <time>2016-05-29T07:31:03.000Z</time>
      </trkpt>
      <trkpt lat="49.34211" lon="-0.58533">
        <ele>5.9</ele>
        <time>2016-05-29T07:31:11.000Z</time>
      </trkpt>
      <trkpt lat="49.34209" lon="-0.58519">
        <ele>5.7</ele>
        <time>2016-05-29T07:31:18.000Z</time>
      </trkpt>
      <trkpt lat="49.34206" lon="-0.58504">
        <ele>5.4</ele>
        <time>2016-05-29T07:31:25.000Z</time>
      </trkpt>
      <trkpt lat="49.34203" lon="-0.5849">
        <ele>5.4</ele>
        <time>2016-05-29T07:31:32.000Z</time>
      </trkpt>
      <trkpt lat="49.34201" lon="-0.58477">
        <ele>5.4</ele>
        <time>2016-05-29T07:31:40.000Z</time>
      </trkpt>
      <trkpt lat="49.34197" lon="-0.58462">
        <ele>5.6</ele>
        <time>2016-05-29T07:31:48.000Z</time>
      </trkpt>
      <trkpt lat="49.3419" lon="-0.58455">
        <ele>5.2</ele>
        <time>2016-05-29T07:32:20.000Z</time>
      </trkpt>
      <trkpt lat="49.34189" lon="-0.58441">
        <ele>5.1</ele>
        <time>2016-05-29T07:32:50.000Z</time>
      </trkpt>
      <trkpt lat="49.34194" lon="-0.58429">
        <ele>5.4</ele>
        <time>2016-05-29T07:33:34.000Z</time>
      </trkpt>
      <trkpt lat="49.34197" lon="-0.58416">
        <ele>5.2</ele>
        <time>2016-05-29T07:33:46.000Z</time>
      </trkpt>
      <trkpt lat="49.34187" lon="-0.58415">
        <ele>5.5</ele>
        <time>2016-05-29T07:36:35.000Z</time>
      </trkpt>
      <trkpt lat="49.34191" lon="-0.58402">
        <ele>5.1</ele>
        <time>2016-05-29T07:38:38.000Z</time>
      </trkpt>
      <trkpt lat="49.34191" lon="-0.58387">
        <ele>5.3</ele>
        <time>2016-05-29T07:38:48.000Z</time>
      </trkpt>
      <trkpt lat="49.3419" lon="-0.58372">
        <ele>5.3</ele>
        <time>2016-05-29T07:38:56.000Z</time>
      </trkpt>
      <trkpt lat="49.34188" lon="-0.58358">
        <ele>5.2</ele>
        <time>2016-05-29T07:39:05.000Z</time>
      </trkpt>
      <trkpt lat="49.34187" lon="-0.58343">
        <ele>5.1</ele>
        <time>2016-05-29T07:39:13.000Z</time>
      </trkpt>
      <trkpt lat="49.34191" lon="-0.5833">
        <ele>5.1</ele>
        <time>2016-05-29T07:39:21.000Z</time>
      </trkpt>
      <trkpt lat="49.34194" lon="-0.58315">
        <ele>4.7</ele>
        <time>2016-05-29T07:39:29.000Z</time>
      </trkpt>
      <trkpt lat="49.34198" lon="-0.58302">
        <ele>4.4</ele>
        <time>2016-05-29T07:39:36.000Z</time>
      </trkpt>
      <trkpt lat="49.34202" lon="-0.58288">
        <ele>4.2</ele>
        <time>2016-05-29T07:39:44.000Z</time>
      </trkpt>
      <trkpt lat="49.34206" lon="-0.58274">
        <ele>4.2</ele>
        <time>2016-05-29T07:39:52.000Z</time>
      </trkpt>
      <trkpt lat="49.34209" lon="-0.58261">
        <ele>4.2</ele>
        <time>2016-05-29T07:40:00.000Z</time>
      </trkpt>
      <trkpt lat="49.34212" lon="-0.58246">
        <ele>4.2</ele>
        <time>2016-05-29T07:40:09.000Z</time>
      </trkpt>
      <trkpt lat="49.34216" lon="-0.58233">
        <ele>4.2</ele>
        <time>2016-05-29T07:40:17.000Z</time>
      </trkpt>
      <trkpt lat="49.34219" lon="-0.58219">
        <ele>4.2</ele>
        <time>2016-05-29T07:40:25.000Z</time>
      </trkpt>
      <trkpt lat="49.3422" lon="-0.58205">
        <ele>3.8</ele>
        <time>2016-05-29T07:40:34.000Z</time>
      </trkpt>
      <trkpt lat="49.34222" lon="-0.58191">
        <ele>3.4</ele>
        <time>2016-05-29T07:40:42.000Z</time>
      </trkpt>
      <trkpt lat="49.34225" lon="-0.58178">
        <ele>3.7</ele>
        <time>2016-05-29T07:40:51.000Z</time>
      </trkpt>
      <trkpt lat="49.34227" lon="-0.58162">
        <ele>3.4</ele>
        <time>2016-05-29T07:41:10.000Z</time>
      </trkpt>
      <trkpt lat="49.34228" lon="-0.58148">
        <ele>3.4</ele>
        <time>2016-05-29T07:41:17.000Z</time>
      </trkpt>
      <trkpt lat="49.3423" lon="-0.58133">
        <ele>3.5</ele>
        <time>2016-05-29T07:41:25.000Z</time>
      </trkpt>
      <trkpt lat="49.34233" lon="-0.58119">
        <ele>3.4</ele>
        <time>2016-05-29T07:41:33.000Z</time>
      </trkpt>
      <trkpt lat="49.34237" lon="-0.58105">
        <ele>3.7</ele>
        <time>2016-05-29T07:41:41.000Z</time>
      </trkpt>
      <trkpt lat="49.34242" lon="-0.58092">
        <ele>3.7</ele>
        <time>2016-05-29T07:41:49.000Z</time>
      </trkpt>
      <trkpt lat="49.34244" lon="-0.58078">
        <ele>3.7</ele>
        <time>2016-05-29T07:41:57.000Z</time>
      </trkpt>
      <trkpt lat="49.34247" lon="-0.58063">
        <ele>3.6</ele>
        <time>2016-05-29T07:42:05.000Z</time>
      </trkpt>
      <trkpt lat="49.34249" lon="-0.58049">
        <ele>3.4</ele>
        <time>2016-05-29T07:42:12.000Z</time>
      </trkpt>
      <trkpt lat="49.34251" lon="-0.58034">
        <ele>3.3</ele>
        <time>2016-05-29T07:42:20.000Z</time>
      </trkpt>
      <trkpt lat="49.34253" lon="-0.58018">
        <ele>3.2</ele>
        <time>2016-05-29T07:42:28.000Z</time>
      </trkpt>
      <trkpt lat="49.34255" lon="-0.58004">
        <ele>3.1</ele>
        <time>2016-05-29T07:42:36.000Z</time>
      </trkpt>
      <trkpt lat="49.34256" lon="-0.5799">
        <ele>2.9</ele>
        <time>2016-05-29T07:42:44.000Z</time>
      </trkpt>
      <trkpt lat="49.34251" lon="-0.57979">
        <ele>2.7</ele>
        <time>2016-05-29T07:42:57.000Z</time>
      </trkpt>
      <trkpt lat="49.34242" lon="-0.5798">
        <ele>3.9</ele>
        <time>2016-05-29T07:43:31.000Z</time>
      </trkpt>
      <trkpt lat="49.34244" lon="-0.57965">
        <ele>4.7</ele>
        <time>2016-05-29T07:44:09.000Z</time>
      </trkpt>
      <trkpt lat="49.34246" lon="-0.57952">
        <ele>4.9</ele>
        <time>2016-05-29T07:44:17.000Z</time>
      </trkpt>
      <trkpt lat="49.34249" lon="-0.57938">
        <ele>4.5</ele>
        <time>2016-05-29T07:44:25.000Z</time>
      </trkpt>
      <trkpt lat="49.34251" lon="-0.57924">
        <ele>4.6</ele>
        <time>2016-05-29T07:44:33.000Z</time>
      </trkpt>
      <trkpt lat="49.34254" lon="-0.5791">
        <ele>4.7</ele>
        <time>2016-05-29T07:44:41.000Z</time>
      </trkpt>
      <trkpt lat="49.34256" lon="-0.57895">
        <ele>4.5</ele>
        <time>2016-05-29T07:44:50.000Z</time>
      </trkpt>
      <trkpt lat="49.34258" lon="-0.57881">
        <ele>4.4</ele>
        <time>2016-05-29T07:44:58.000Z</time>
      </trkpt>
      <trkpt lat="49.3426" lon="-0.57867">
        <ele>4.6</ele>
        <time>2016-05-29T07:45:06.000Z</time>
      </trkpt>
      <trkpt lat="49.34263" lon="-0.57853">
        <ele>4.6</ele>
        <time>2016-05-29T07:45:13.000Z</time>
      </trkpt>
      <trkpt lat="49.34264" lon="-0.57839">
        <ele>4.6</ele>
        <time>2016-05-29T07:45:21.000Z</time>
      </trkpt>
      <trkpt lat="49.34266" lon="-0.57825">
        <ele>4.6</ele>
        <time>2016-05-29T07:45:29.000Z</time>
      </trkpt>
      <trkpt lat="49.34267" lon="-0.5781">
        <ele>4.6</ele>
        <time>2016-05-29T07:45:37.000Z</time>
      </trkpt>
      <trkpt lat="49.34269" lon="-0.57796">
        <ele>4.5</ele>
        <time>2016-05-29T07:45:45.000Z</time>
      </trkpt>
      <trkpt lat="49.34272" lon="-0.57782">
        <ele>4.4</ele>
        <time>2016-05-29T07:45:53.000Z</time>
      </trkpt>
      <trkpt lat="49.34275" lon="-0.57767">
        <ele>4.2</ele>
        <time>2016-05-29T07:46:00.000Z</time>
      </trkpt>
      <trkpt lat="49.34276" lon="-0.57753">
        <ele>4.1</ele>
        <time>2016-05-29T07:46:07.000Z</time>
      </trkpt>
      <trkpt lat="49.34279" lon="-0.57738">
        <ele>4.2</ele>
        <time>2016-05-29T07:46:15.000Z</time>
      </trkpt>
      <trkpt lat="49.34281" lon="-0.57724">
        <ele>4.3</ele>
        <time>2016-05-29T07:46:23.000Z</time>
      </trkpt>
      <trkpt lat="49.34283" lon="-0.57711">
        <ele>4.8</ele>
        <time>2016-05-29T07:46:32.000Z</time>
      </trkpt>
      <trkpt lat="49.34284" lon="-0.57697">
        <ele>5.1</ele>
        <time>2016-05-29T07:46:41.000Z</time>
      </trkpt>
      <trkpt lat="49.34285" lon="-0.57682">
        <ele>5.1</ele>
        <time>2016-05-29T07:46:49.000Z</time>
      </trkpt>
      <trkpt lat="49.34288" lon="-0.57669">
        <ele>5</ele>
        <time>2016-05-29T07:46:57.000Z</time>
      </trkpt>
      <trkpt lat="49.34289" lon="-0.57655">
        <ele>4.6</ele>
        <time>2016-05-29T07:47:06.000Z</time>
      </trkpt>
      <trkpt lat="49.34291" lon="-0.57639">
        <ele>4.6</ele>
        <time>2016-05-29T07:47:16.000Z</time>
      </trkpt>
      <trkpt lat="49.34292" lon="-0.57624">
        <ele>4.7</ele>
        <time>2016-05-29T07:47:25.000Z</time>
      </trkpt>
      <trkpt lat="49.34293" lon="-0.5761">
        <ele>4.8</ele>
        <time>2016-05-29T07:47:34.000Z</time>
      </trkpt>
      <trkpt lat="49.34294" lon="-0.57595">
        <ele>4.6</ele>
        <time>2016-05-29T07:47:43.000Z</time>
      </trkpt>
      <trkpt lat="49.34296" lon="-0.57582">
        <ele>4.4</ele>
        <time>2016-05-29T07:47:51.000Z</time>
      </trkpt>
      <trkpt lat="49.34297" lon="-0.57567">
        <ele>4.3</ele>
        <time>2016-05-29T07:48:01.000Z</time>
      </trkpt>
      <trkpt lat="49.34301" lon="-0.57553">
        <ele>4.2</ele>
        <time>2016-05-29T07:48:09.000Z</time>
      </trkpt>
      <trkpt lat="49.34304" lon="-0.57539">
        <ele>4.2</ele>
        <time>2016-05-29T07:48:17.000Z</time>
      </trkpt>
      <trkpt lat="49.34303" lon="-0.57524">
        <ele>4.2</ele>
        <time>2016-05-29T07:48:25.000Z</time>
      </trkpt>
      <trkpt lat="49.34304" lon="-0.57509">
        <ele>4.1</ele>
        <time>2016-05-29T07:48:33.000Z</time>
      </trkpt>
      <trkpt lat="49.34306" lon="-0.57495">
        <ele>4.2</ele>
        <time>2016-05-29T07:48:42.000Z</time>
      </trkpt>
      <trkpt lat="49.34309" lon="-0.57481">
        <ele>4.3</ele>
        <time>2016-05-29T07:48:51.000Z</time>
      </trkpt>
      <trkpt lat="49.34312" lon="-0.57466">
        <ele>4.8</ele>
        <time>2016-05-29T07:49:01.000Z</time>
      </trkpt>
      <trkpt lat="49.34315" lon="-0.57451">
        <ele>5</ele>
        <time>2016-05-29T07:49:09.000Z</time>
      </trkpt>
      <trkpt lat="49.34318" lon="-0.57437">
        <ele>4.7</ele>
        <time>2016-05-29T07:49:17.000Z</time>
      </trkpt>
      <trkpt lat="49.3432" lon="-0.57422">
        <ele>4.5</ele>
        <time>2016-05-29T07:49:25.000Z</time>
      </trkpt>
      <trkpt lat="49.34324" lon="-0.57409">
        <ele>4.4</ele>
        <time>2016-05-29T07:49:33.000Z</time>
      </trkpt>
      <trkpt lat="49.34327" lon="-0.57396">
        <ele>4.4</ele>
        <time>2016-05-29T07:49:41.000Z</time>
      </trkpt>
      <trkpt lat="49.34328" lon="-0.57381">
        <ele>4.5</ele>
        <time>2016-05-29T07:49:49.000Z</time>
      </trkpt>
      <trkpt lat="49.34329" lon="-0.57367">
        <ele>4.1</ele>
        <time>2016-05-29T07:49:57.000Z</time>
      </trkpt>
      <trkpt lat="49.3433" lon="-0.57352">
        <ele>3.8</ele>
        <time>2016-05-29T07:50:05.000Z</time>
      </trkpt>
      <trkpt lat="49.34334" lon="-0.57339">
        <ele>3.7</ele>
        <time>2016-05-29T07:50:12.000Z</time>
      </trkpt>
      <trkpt lat="49.34337" lon="-0.57326">
        <ele>3.7</ele>
        <time>2016-05-29T07:50:19.000Z</time>
      </trkpt>
      <trkpt lat="49.34337" lon="-0.57311">
        <ele>3.8</ele>
        <time>2016-05-29T07:50:27.000Z</time>
      </trkpt>
      <trkpt lat="49.3434" lon="-0.57297">
        <ele>4</ele>
        <time>2016-05-29T07:50:35.000Z</time>
      </trkpt>
      <trkpt lat="49.34343" lon="-0.57284">
        <ele>4.2</ele>
        <time>2016-05-29T07:50:44.000Z</time>
      </trkpt>
      <trkpt lat="49.34344" lon="-0.57269">
        <ele>4.4</ele>
        <time>2016-05-29T07:50:53.000Z</time>
      </trkpt>
      <trkpt lat="49.34339" lon="-0.57257">
        <ele>4.5</ele>
        <time>2016-05-29T07:51:05.000Z</time>
      </trkpt>
      <trkpt lat="49.34331" lon="-0.57251">
        <ele>5.1</ele>
        <time>2016-05-29T07:52:31.000Z</time>
      </trkpt>
      <trkpt lat="49.34321" lon="-0.57249">
        <ele>3.9</ele>
        <time>2016-05-29T07:53:14.000Z</time>
      </trkpt>
      <trkpt lat="49.34313" lon="-0.57255">
        <ele>3.8</ele>
        <time>2016-05-29T07:53:22.000Z</time>
      </trkpt>
      <trkpt lat="49.34303" lon="-0.57255">
        <ele>3.8</ele>
        <time>2016-05-29T07:53:29.000Z</time>
      </trkpt>
      <trkpt lat="49.34294" lon="-0.57256">
        <ele>3.9</ele>
        <time>2016-05-29T07:53:36.000Z</time>
      </trkpt>
      <trkpt lat="49.34284" lon="-0.57257">
        <ele>3.6</ele>
        <time>2016-05-29T07:53:44.000Z</time>
      </trkpt>
      <trkpt lat="49.34274" lon="-0.57257">
        <ele>3.5</ele>
        <time>2016-05-29T07:53:52.000Z</time>
      </trkpt>
      <trkpt lat="49.34265" lon="-0.57257">
        <ele>3.6</ele>
        <time>2016-05-29T07:53:59.000Z</time>
      </trkpt>
      <trkpt lat="49.34255" lon="-0.57256">
        <ele>3.6</ele>
        <time>2016-05-29T07:54:06.000Z</time>
      </trkpt>
      <trkpt lat="49.34245" lon="-0.57257">
        <ele>3.6</ele>
        <time>2016-05-29T07:54:13.000Z</time>
      </trkpt>
      <trkpt lat="49.34236" lon="-0.57255">
        <ele>3.5</ele>
        <time>2016-05-29T07:54:20.000Z</time>
      </trkpt>
      <trkpt lat="49.34226" lon="-0.57253">
        <ele>3.4</ele>
        <time>2016-05-29T07:54:27.000Z</time>
      </trkpt>
      <trkpt lat="49.34217" lon="-0.57252">
        <ele>3.2</ele>
        <time>2016-05-29T07:54:35.000Z</time>
      </trkpt>
      <trkpt lat="49.34208" lon="-0.57251">
        <ele>3</ele>
        <time>2016-05-29T07:54:44.000Z</time>
      </trkpt>
      <trkpt lat="49.34199" lon="-0.57251">
        <ele>2.7</ele>
        <time>2016-05-29T07:54:54.000Z</time>
      </trkpt>
      <trkpt lat="49.34189" lon="-0.5725">
        <ele>2.7</ele>
        <time>2016-05-29T07:55:04.000Z</time>
      </trkpt>
      <trkpt lat="49.3418" lon="-0.57245">
        <ele>2.9</ele>
        <time>2016-05-29T07:55:12.000Z</time>
      </trkpt>
      <trkpt lat="49.34173" lon="-0.57235">
        <ele>3</ele>
        <time>2016-05-29T07:55:21.000Z</time>
      </trkpt>
      <trkpt lat="49.34169" lon="-0.57222">
        <ele>3.2</ele>
        <time>2016-05-29T07:55:29.000Z</time>
      </trkpt>
      <trkpt lat="49.34166" lon="-0.57208">
        <ele>3.8</ele>
        <time>2016-05-29T07:55:37.000Z</time>
      </trkpt>
      <trkpt lat="49.34163" lon="-0.57195">
        <ele>3.8</ele>
        <time>2016-05-29T07:55:44.000Z</time>
      </trkpt>
      <trkpt lat="49.3416" lon="-0.57181">
        <ele>3.8</ele>
        <time>2016-05-29T07:55:51.000Z</time>
      </trkpt>
      <trkpt lat="49.34158" lon="-0.57166">
        <ele>3.8</ele>
        <time>2016-05-29T07:55:59.000Z</time>
      </trkpt>
      <trkpt lat="49.34159" lon="-0.57151">
        <ele>3.9</ele>
        <time>2016-05-29T07:56:07.000Z</time>
      </trkpt>
      <trkpt lat="49.34158" lon="-0.57137">
        <ele>4.1</ele>
        <time>2016-05-29T07:56:15.000Z</time>
      </trkpt>
      <trkpt lat="49.34157" lon="-0.57121">
        <ele>4.2</ele>
        <time>2016-05-29T07:56:24.000Z</time>
      </trkpt>
      <trkpt lat="49.34155" lon="-0.57107">
        <ele>4.2</ele>
        <time>2016-05-29T07:56:32.000Z</time>
      </trkpt>
      <trkpt lat="49.34151" lon="-0.57093">
        <ele>4.2</ele>
        <time>2016-05-29T07:56:39.000Z</time>
      </trkpt>
      <trkpt lat="49.34149" lon="-0.57077">
        <ele>4.2</ele>
        <time>2016-05-29T07:56:48.000Z</time>
      </trkpt>
      <trkpt lat="49.34145" lon="-0.57064">
        <ele>3.8</ele>
        <time>2016-05-29T07:56:55.000Z</time>
      </trkpt>
      <trkpt lat="49.34139" lon="-0.57052">
        <ele>3.8</ele>
        <time>2016-05-29T07:57:02.000Z</time>
      </trkpt>
      <trkpt lat="49.34132" lon="-0.57041">
        <ele>3.8</ele>
        <time>2016-05-29T07:57:09.000Z</time>
      </trkpt>
      <trkpt lat="49.34125" lon="-0.5703">
        <ele>3.8</ele>
        <time>2016-05-29T07:57:17.000Z</time>
      </trkpt>
      <trkpt lat="49.34117" lon="-0.57021">
        <ele>3.9</ele>
        <time>2016-05-29T07:57:25.000Z</time>
      </trkpt>
      <trkpt lat="49.34109" lon="-0.57012">
        <ele>3.9</ele>
        <time>2016-05-29T07:57:34.000Z</time>
      </trkpt>
      <trkpt lat="49.341" lon="-0.57005">
        <ele>3.9</ele>
        <time>2016-05-29T07:57:42.000Z</time>
      </trkpt>
      <trkpt lat="49.34093" lon="-0.56996">
        <ele>3.9</ele>
        <time>2016-05-29T07:57:49.000Z</time>
      </trkpt>
      <trkpt lat="49.34085" lon="-0.56989">
        <ele>3.9</ele>
        <time>2016-05-29T07:57:57.000Z</time>
      </trkpt>
      <trkpt lat="49.34076" lon="-0.56984">
        <ele>4</ele>
        <time>2016-05-29T07:58:05.000Z</time>
      </trkpt>
      <trkpt lat="49.34067" lon="-0.5698">
        <ele>4.1</ele>
        <time>2016-05-29T07:58:12.000Z</time>
      </trkpt>
      <trkpt lat="49.34058" lon="-0.56976">
        <ele>4.3</ele>
        <time>2016-05-29T07:58:19.000Z</time>
      </trkpt>
      <trkpt lat="49.34049" lon="-0.56974">
        <ele>4.4</ele>
        <time>2016-05-29T07:58:27.000Z</time>
      </trkpt>
      <trkpt lat="49.34039" lon="-0.56971">
        <ele>4.4</ele>
        <time>2016-05-29T07:58:35.000Z</time>
      </trkpt>
      <trkpt lat="49.3403" lon="-0.5697">
        <ele>4.4</ele>
        <time>2016-05-29T07:58:43.000Z</time>
      </trkpt>
      <trkpt lat="49.34021" lon="-0.56969">
        <ele>4.3</ele>
        <time>2016-05-29T07:58:51.000Z</time>
      </trkpt>
      <trkpt lat="49.34011" lon="-0.56968">
        <ele>4.2</ele>
        <time>2016-05-29T07:58:59.000Z</time>
      </trkpt>
      <trkpt lat="49.34001" lon="-0.56968">
        <ele>4.1</ele>
        <time>2016-05-29T07:59:07.000Z</time>
      </trkpt>
      <trkpt lat="49.33991" lon="-0.56967">
        <ele>4.2</ele>
        <time>2016-05-29T07:59:15.000Z</time>
      </trkpt>
      <trkpt lat="49.33982" lon="-0.56967">
        <ele>4.4</ele>
        <time>2016-05-29T07:59:23.000Z</time>
      </trkpt>
      <trkpt lat="49.33972" lon="-0.56966">
        <ele>4.4</ele>
        <time>2016-05-29T07:59:30.000Z</time>
      </trkpt>
      <trkpt lat="49.33963" lon="-0.56965">
        <ele>4.4</ele>
        <time>2016-05-29T07:59:39.000Z</time>
      </trkpt>
      <trkpt lat="49.33953" lon="-0.56966">
        <ele>4.5</ele>
        <time>2016-05-29T07:59:46.000Z</time>
      </trkpt>
      <trkpt lat="49.33943" lon="-0.56967">
        <ele>4.5</ele>
        <time>2016-05-29T07:59:52.000Z</time>
      </trkpt>
      <trkpt lat="49.33934" lon="-0.56965">
        <ele>4.5</ele>
        <time>2016-05-29T08:00:00.000Z</time>
      </trkpt>
      <trkpt lat="49.33924" lon="-0.56964">
        <ele>4.5</ele>
        <time>2016-05-29T08:00:08.000Z</time>
      </trkpt>
      <trkpt lat="49.33915" lon="-0.56964">
        <ele>4.5</ele>
        <time>2016-05-29T08:00:16.000Z</time>
      </trkpt>
      <trkpt lat="49.33905" lon="-0.56962">
        <ele>4.4</ele>
        <time>2016-05-29T08:00:23.000Z</time>
      </trkpt>
      <trkpt lat="49.33895" lon="-0.56962">
        <ele>4.3</ele>
        <time>2016-05-29T08:00:30.000Z</time>
      </trkpt>
      <trkpt lat="49.33885" lon="-0.56962">
        <ele>4.2</ele>
        <time>2016-05-29T08:00:38.000Z</time>
      </trkpt>
      <trkpt lat="49.33875" lon="-0.56964">
        <ele>4.3</ele>
        <time>2016-05-29T08:00:46.000Z</time>
      </trkpt>
      <trkpt lat="49.33866" lon="-0.56965">
        <ele>4.4</ele>
        <time>2016-05-29T08:00:54.000Z</time>
      </trkpt>
      <trkpt lat="49.33856" lon="-0.56964">
        <ele>4.5</ele>
        <time>2016-05-29T08:01:01.000Z</time>
      </trkpt>
      <trkpt lat="49.33847" lon="-0.56966">
        <ele>4.7</ele>
        <time>2016-05-29T08:01:09.000Z</time>
      </trkpt>
      <trkpt lat="49.33837" lon="-0.56969">
        <ele>4.8</ele>
        <time>2016-05-29T08:01:17.000Z</time>
      </trkpt>
      <trkpt lat="49.33828" lon="-0.56974">
        <ele>4.8</ele>
        <time>2016-05-29T08:01:26.000Z</time>
      </trkpt>
      <trkpt lat="49.33821" lon="-0.56983">
        <ele>5.1</ele>
        <time>2016-05-29T08:01:36.000Z</time>
      </trkpt>
      <trkpt lat="49.33816" lon="-0.56996">
        <ele>5.2</ele>
        <time>2016-05-29T08:01:44.000Z</time>
      </trkpt>
      <trkpt lat="49.33812" lon="-0.57009">
        <ele>5.4</ele>
        <time>2016-05-29T08:02:25.000Z</time>
      </trkpt>
      <trkpt lat="49.33808" lon="-0.57021">
        <ele>5.5</ele>
        <time>2016-05-29T08:02:36.000Z</time>
      </trkpt>
      <trkpt lat="49.338" lon="-0.57029">
        <ele>5.6</ele>
        <time>2016-05-29T08:02:43.000Z</time>
      </trkpt>
      <trkpt lat="49.33791" lon="-0.57034">
        <ele>5.7</ele>
        <time>2016-05-29T08:02:50.000Z</time>
      </trkpt>
      <trkpt lat="49.33782" lon="-0.57038">
        <ele>5.8</ele>
        <time>2016-05-29T08:02:58.000Z</time>
      </trkpt>
      <trkpt lat="49.33773" lon="-0.5704">
        <ele>5.8</ele>
        <time>2016-05-29T08:03:05.000Z</time>
      </trkpt>
      <trkpt lat="49.33763" lon="-0.57044">
        <ele>6.2</ele>
        <time>2016-05-29T08:03:13.000Z</time>
      </trkpt>
      <trkpt lat="49.33754" lon="-0.57047">
        <ele>6.5</ele>
        <time>2016-05-29T08:03:20.000Z</time>
      </trkpt>
      <trkpt lat="49.33744" lon="-0.57049">
        <ele>6.6</ele>
        <time>2016-05-29T08:03:27.000Z</time>
      </trkpt>
      <trkpt lat="49.33734" lon="-0.57051">
        <ele>6.8</ele>
        <time>2016-05-29T08:03:35.000Z</time>
      </trkpt>
      <trkpt lat="49.33725" lon="-0.57053">
        <ele>7.2</ele>
        <time>2016-05-29T08:03:43.000Z</time>
      </trkpt>
      <trkpt lat="49.33715" lon="-0.57055">
        <ele>7.2</ele>
        <time>2016-05-29T08:03:50.000Z</time>
      </trkpt>
      <trkpt lat="49.33706" lon="-0.57059">
        <ele>7.3</ele>
        <time>2016-05-29T08:03:57.000Z</time>
      </trkpt>
      <trkpt lat="49.33696" lon="-0.57062">
        <ele>7.5</ele>
        <time>2016-05-29T08:04:05.000Z</time>
      </trkpt>
      <trkpt lat="49.33687" lon="-0.57066">
        <ele>7.7</ele>
        <time>2016-05-29T08:04:13.000Z</time>
      </trkpt>
      <trkpt lat="49.33678" lon="-0.57069">
        <ele>7.9</ele>
        <time>2016-05-29T08:04:20.000Z</time>
      </trkpt>
      <trkpt lat="49.33668" lon="-0.57073">
        <ele>8.3</ele>
        <time>2016-05-29T08:04:28.000Z</time>
      </trkpt>
      <trkpt lat="49.33659" lon="-0.57076">
        <ele>8.5</ele>
        <time>2016-05-29T08:04:36.000Z</time>
      </trkpt>
      <trkpt lat="49.33649" lon="-0.57081">
        <ele>8.7</ele>
        <time>2016-05-29T08:04:45.000Z</time>
      </trkpt>
      <trkpt lat="49.3364" lon="-0.57084">
        <ele>9.3</ele>
        <time>2016-05-29T08:04:52.000Z</time>
      </trkpt>
      <trkpt lat="49.3363" lon="-0.57087">
        <ele>9.5</ele>
        <time>2016-05-29T08:05:00.000Z</time>
      </trkpt>
      <trkpt lat="49.3362" lon="-0.57091">
        <ele>9.7</ele>
        <time>2016-05-29T08:05:07.000Z</time>
      </trkpt>
      <trkpt lat="49.33611" lon="-0.57095">
        <ele>10.2</ele>
        <time>2016-05-29T08:05:15.000Z</time>
      </trkpt>
      <trkpt lat="49.33601" lon="-0.57097">
        <ele>10.6</ele>
        <time>2016-05-29T08:05:24.000Z</time>
      </trkpt>
      <trkpt lat="49.33591" lon="-0.57099">
        <ele>10.7</ele>
        <time>2016-05-29T08:05:32.000Z</time>
      </trkpt>
      <trkpt lat="49.33581" lon="-0.57103">
        <ele>10.5</ele>
        <time>2016-05-29T08:05:40.000Z</time>
      </trkpt>
      <trkpt lat="49.33573" lon="-0.57109">
        <ele>10.7</ele>
        <time>2016-05-29T08:05:48.000Z</time>
      </trkpt>
      <trkpt lat="49.33564" lon="-0.57112">
        <ele>11.2</ele>
        <time>2016-05-29T08:05:55.000Z</time>
      </trkpt>
      <trkpt lat="49.33555" lon="-0.57116">
        <ele>11.5</ele>
        <time>2016-05-29T08:06:03.000Z</time>
      </trkpt>
      <trkpt lat="49.33545" lon="-0.5712">
        <ele>12</ele>
        <time>2016-05-29T08:06:11.000Z</time>
      </trkpt>
      <trkpt lat="49.33536" lon="-0.57124">
        <ele>12.3</ele>
        <time>2016-05-29T08:06:19.000Z</time>
      </trkpt>
      <trkpt lat="49.33527" lon="-0.57127">
        <ele>12.5</ele>
        <time>2016-05-29T08:06:26.000Z</time>
      </trkpt>
      <trkpt lat="49.33518" lon="-0.5713">
        <ele>12.6</ele>
        <time>2016-05-29T08:06:33.000Z</time>
      </trkpt>
      <trkpt lat="49.33509" lon="-0.57134">
        <ele>12.8</ele>
        <time>2016-05-29T08:06:40.000Z</time>
      </trkpt>
      <trkpt lat="49.335" lon="-0.57138">
        <ele>12.9</ele>
        <time>2016-05-29T08:06:48.000Z</time>
      </trkpt>
      <trkpt lat="49.3349" lon="-0.57144">
        <ele>13.1</ele>
        <time>2016-05-29T08:06:57.000Z</time>
      </trkpt>
      <trkpt lat="49.33481" lon="-0.57148">
        <ele>13.1</ele>
        <time>2016-05-29T08:07:05.000Z</time>
      </trkpt>
      <trkpt lat="49.33472" lon="-0.57153">
        <ele>13.2</ele>
        <time>2016-05-29T08:07:13.000Z</time>
      </trkpt>
      <trkpt lat="49.33462" lon="-0.57159">
        <ele>13.1</ele>
        <time>2016-05-29T08:07:21.000Z</time>
      </trkpt>
      <trkpt lat="49.33454" lon="-0.57163">
        <ele>13.2</ele>
        <time>2016-05-29T08:07:28.000Z</time>
      </trkpt>
      <trkpt lat="49.33444" lon="-0.57167">
        <ele>13.8</ele>
        <time>2016-05-29T08:07:36.000Z</time>
      </trkpt>
      <trkpt lat="49.33435" lon="-0.5717">
        <ele>14.1</ele>
        <time>2016-05-29T08:07:43.000Z</time>
      </trkpt>
      <trkpt lat="49.33426" lon="-0.57174">
        <ele>14.1</ele>
        <time>2016-05-29T08:07:50.000Z</time>
      </trkpt>
      <trkpt lat="49.33417" lon="-0.57179">
        <ele>14.1</ele>
        <time>2016-05-29T08:07:57.000Z</time>
      </trkpt>
      <trkpt lat="49.33407" lon="-0.57184">
        <ele>14.2</ele>
        <time>2016-05-29T08:08:05.000Z</time>
      </trkpt>
      <trkpt lat="49.33398" lon="-0.57189">
        <ele>14.3</ele>
        <time>2016-05-29T08:08:13.000Z</time>
      </trkpt>
      <trkpt lat="49.33388" lon="-0.57193">
        <ele>14.4</ele>
        <time>2016-05-29T08:08:21.000Z</time>
      </trkpt>
      <trkpt lat="49.33379" lon="-0.57197">
        <ele>14.3</ele>
        <time>2016-05-29T08:08:29.000Z</time>
      </trkpt>
      <trkpt lat="49.3337" lon="-0.57202">
        <ele>14.4</ele>
        <time>2016-05-29T08:08:38.000Z</time>
      </trkpt>
      <trkpt lat="49.33361" lon="-0.57206">
        <ele>14.5</ele>
        <time>2016-05-29T08:08:47.000Z</time>
      </trkpt>
      <trkpt lat="49.33352" lon="-0.57209">
        <ele>14.6</ele>
        <time>2016-05-29T08:08:54.000Z</time>
      </trkpt>
      <trkpt lat="49.33342" lon="-0.57213">
        <ele>14.8</ele>
        <time>2016-05-29T08:09:02.000Z</time>
      </trkpt>
      <trkpt lat="49.33333" lon="-0.57217">
        <ele>15.2</ele>
        <time>2016-05-29T08:09:09.000Z</time>
      </trkpt>
      <trkpt lat="49.33324" lon="-0.57221">
        <ele>15.3</ele>
        <time>2016-05-29T08:09:16.000Z</time>
      </trkpt>
      <trkpt lat="49.33315" lon="-0.57226">
        <ele>15.5</ele>
        <time>2016-05-29T08:09:24.000Z</time>
      </trkpt>
      <trkpt lat="49.33306" lon="-0.57231">
        <ele>15.6</ele>
        <time>2016-05-29T08:09:32.000Z</time>
      </trkpt>
      <trkpt lat="49.33297" lon="-0.57237">
        <ele>15.8</ele>
        <time>2016-05-29T08:09:40.000Z</time>
      </trkpt>
      <trkpt lat="49.33288" lon="-0.57242">
        <ele>16</ele>
        <time>2016-05-29T08:09:48.000Z</time>
      </trkpt>
      <trkpt lat="49.33279" lon="-0.57247">
        <ele>16.1</ele>
        <time>2016-05-29T08:09:55.000Z</time>
      </trkpt>
      <trkpt lat="49.3327" lon="-0.57253">
        <ele>16.3</ele>
        <time>2016-05-29T08:10:03.000Z</time>
      </trkpt>
      <trkpt lat="49.33262" lon="-0.57259">
        <ele>16.4</ele>
        <time>2016-05-29T08:10:10.000Z</time>
      </trkpt>
      <trkpt lat="49.33252" lon="-0.57265">
        <ele>16.7</ele>
        <time>2016-05-29T08:10:18.000Z</time>
      </trkpt>
      <trkpt lat="49.33243" lon="-0.57272">
        <ele>16.8</ele>
        <time>2016-05-29T08:10:26.000Z</time>
      </trkpt>
      <trkpt lat="49.33235" lon="-0.57277">
        <ele>16.8</ele>
        <time>2016-05-29T08:10:33.000Z</time>
      </trkpt>
      <trkpt lat="49.33227" lon="-0.57283">
        <ele>16.7</ele>
        <time>2016-05-29T08:10:40.000Z</time>
      </trkpt>
      <trkpt lat="49.33218" lon="-0.57289">
        <ele>16.6</ele>
        <time>2016-05-29T08:10:47.000Z</time>
      </trkpt>
      <trkpt lat="49.3321" lon="-0.57296">
        <ele>16.7</ele>
        <time>2016-05-29T08:10:55.000Z</time>
      </trkpt>
      <trkpt lat="49.33202" lon="-0.57303">
        <ele>16.9</ele>
        <time>2016-05-29T08:11:03.000Z</time>
      </trkpt>
      <trkpt lat="49.33193" lon="-0.5731">
        <ele>17</ele>
        <time>2016-05-29T08:11:11.000Z</time>
      </trkpt>
      <trkpt lat="49.33184" lon="-0.57316">
        <ele>17</ele>
        <time>2016-05-29T08:11:19.000Z</time>
      </trkpt>
      <trkpt lat="49.33176" lon="-0.57324">
        <ele>17</ele>
        <time>2016-05-29T08:11:27.000Z</time>
      </trkpt>
      <trkpt lat="49.33167" lon="-0.5733">
        <ele>17.1</ele>
        <time>2016-05-29T08:11:35.000Z</time>
      </trkpt>
      <trkpt lat="49.33158" lon="-0.57335">
        <ele>17.2</ele>
        <time>2016-05-29T08:11:43.000Z</time>
      </trkpt>
      <trkpt lat="49.33152" lon="-0.57323">
        <ele>17.5</ele>
        <time>2016-05-29T08:13:38.000Z</time>
      </trkpt>
      <trkpt lat="49.3315" lon="-0.5731">
        <ele>17</ele>
        <time>2016-05-29T08:13:49.000Z</time>
      </trkpt>
      <trkpt lat="49.33147" lon="-0.57296">
        <ele>16.7</ele>
        <time>2016-05-29T08:13:58.000Z</time>
      </trkpt>
      <trkpt lat="49.33143" lon="-0.57282">
        <ele>16.7</ele>
        <time>2016-05-29T08:14:07.000Z</time>
      </trkpt>
      <trkpt lat="49.3314" lon="-0.57269">
        <ele>16.8</ele>
        <time>2016-05-29T08:14:15.000Z</time>
      </trkpt>
      <trkpt lat="49.33136" lon="-0.57255">
        <ele>16.8</ele>
        <time>2016-05-29T08:14:24.000Z</time>
      </trkpt>
      <trkpt lat="49.33133" lon="-0.57241">
        <ele>16.4</ele>
        <time>2016-05-29T08:14:33.000Z</time>
      </trkpt>
      <trkpt lat="49.33131" lon="-0.57227">
        <ele>16.4</ele>
        <time>2016-05-29T08:14:41.000Z</time>
      </trkpt>
      <trkpt lat="49.33128" lon="-0.57213">
        <ele>16.1</ele>
        <time>2016-05-29T08:14:50.000Z</time>
      </trkpt>
      <trkpt lat="49.33124" lon="-0.57198">
        <ele>16</ele>
        <time>2016-05-29T08:14:59.000Z</time>
      </trkpt>
      <trkpt lat="49.33122" lon="-0.57183">
        <ele>16.2</ele>
        <time>2016-05-29T08:15:07.000Z</time>
      </trkpt>
      <trkpt lat="49.33119" lon="-0.5717">
        <ele>16.3</ele>
        <time>2016-05-29T08:15:15.000Z</time>
      </trkpt>
      <trkpt lat="49.33115" lon="-0.57157">
        <ele>16.8</ele>
        <time>2016-05-29T08:15:22.000Z</time>
      </trkpt>
      <trkpt lat="49.33112" lon="-0.57142">
        <ele>16.9</ele>
        <time>2016-05-29T08:15:30.000Z</time>
      </trkpt>
      <trkpt lat="49.3311" lon="-0.57127">
        <ele>16.6</ele>
        <time>2016-05-29T08:15:38.000Z</time>
      </trkpt>
      <trkpt lat="49.33107" lon="-0.57113">
        <ele>16.4</ele>
        <time>2016-05-29T08:15:46.000Z</time>
      </trkpt>
      <trkpt lat="49.33105" lon="-0.57099">
        <ele>16.2</ele>
        <time>2016-05-29T08:15:54.000Z</time>
      </trkpt>
      <trkpt lat="49.33102" lon="-0.57086">
        <ele>16.1</ele>
        <time>2016-05-29T08:16:01.000Z</time>
      </trkpt>
      <trkpt lat="49.33099" lon="-0.57072">
        <ele>16.4</ele>
        <time>2016-05-29T08:16:08.000Z</time>
      </trkpt>
      <trkpt lat="49.33096" lon="-0.57057">
        <ele>16.4</ele>
        <time>2016-05-29T08:16:16.000Z</time>
      </trkpt>
      <trkpt lat="49.33093" lon="-0.57042">
        <ele>16.3</ele>
        <time>2016-05-29T08:16:24.000Z</time>
      </trkpt>
      <trkpt lat="49.3309" lon="-0.57029">
        <ele>16.2</ele>
        <time>2016-05-29T08:16:31.000Z</time>
      </trkpt>
      <trkpt lat="49.33087" lon="-0.57016">
        <ele>16.2</ele>
        <time>2016-05-29T08:16:38.000Z</time>
      </trkpt>
      <trkpt lat="49.33084" lon="-0.57001">
        <ele>16.1</ele>
        <time>2016-05-29T08:16:46.000Z</time>
      </trkpt>
      <trkpt lat="49.33081" lon="-0.56987">
        <ele>16.1</ele>
        <time>2016-05-29T08:16:53.000Z</time>
      </trkpt>
      <trkpt lat="49.33079" lon="-0.56972">
        <ele>16.1</ele>
        <time>2016-05-29T08:17:01.000Z</time>
      </trkpt>
      <trkpt lat="49.33076" lon="-0.56958">
        <ele>16</ele>
        <time>2016-05-29T08:17:09.000Z</time>
      </trkpt>
      <trkpt lat="49.33074" lon="-0.56944">
        <ele>15.8</ele>
        <time>2016-05-29T08:17:17.000Z</time>
      </trkpt>
      <trkpt lat="49.3307" lon="-0.5693">
        <ele>15.8</ele>
        <time>2016-05-29T08:17:25.000Z</time>
      </trkpt>
      <trkpt lat="49.33067" lon="-0.56917">
        <ele>15.8</ele>
        <time>2016-05-29T08:17:33.000Z</time>
      </trkpt>
      <trkpt lat="49.33065" lon="-0.56903">
        <ele>15.4</ele>
        <time>2016-05-29T08:17:40.000Z</time>
      </trkpt>
      <trkpt lat="49.33063" lon="-0.56888">
        <ele>15.1</ele>
        <time>2016-05-29T08:17:48.000Z</time>
      </trkpt>
      <trkpt lat="49.33061" lon="-0.56873">
        <ele>14.7</ele>
        <time>2016-05-29T08:17:57.000Z</time>
      </trkpt>
      <trkpt lat="49.3306" lon="-0.56859">
        <ele>14.5</ele>
        <time>2016-05-29T08:18:06.000Z</time>
      </trkpt>
      <trkpt lat="49.33061" lon="-0.56845">
        <ele>14.4</ele>
        <time>2016-05-29T08:18:23.000Z</time>
      </trkpt>
      <trkpt lat="49.33057" lon="-0.56831">
        <ele>14.3</ele>
        <time>2016-05-29T08:19:11.000Z</time>
      </trkpt>
      <trkpt lat="49.33055" lon="-0.56818">
        <ele>14.5</ele>
        <time>2016-05-29T08:19:19.000Z</time>
      </trkpt>
      <trkpt lat="49.33051" lon="-0.56805">
        <ele>14.5</ele>
        <time>2016-05-29T08:19:26.000Z</time>
      </trkpt>
      <trkpt lat="49.33048" lon="-0.56791">
        <ele>14.4</ele>
        <time>2016-05-29T08:19:34.000Z</time>
      </trkpt>
      <trkpt lat="49.33046" lon="-0.56776">
        <ele>14.2</ele>
        <time>2016-05-29T08:19:42.000Z</time>
      </trkpt>
      <trkpt lat="49.3304" lon="-0.56765">
        <ele>13.9</ele>
        <time>2016-05-29T08:19:50.000Z</time>
      </trkpt>
      <trkpt lat="49.33034" lon="-0.56754">
        <ele>13.6</ele>
        <time>2016-05-29T08:19:57.000Z</time>
      </trkpt>
      <trkpt lat="49.33028" lon="-0.56744">
        <ele>13.5</ele>
        <time>2016-05-29T08:20:04.000Z</time>
      </trkpt>
      <trkpt lat="49.33021" lon="-0.56734">
        <ele>13.3</ele>
        <time>2016-05-29T08:20:12.000Z</time>
      </trkpt>
      <trkpt lat="49.33014" lon="-0.56725">
        <ele>12.9</ele>
        <time>2016-05-29T08:20:21.000Z</time>
      </trkpt>
      <trkpt lat="49.33007" lon="-0.56715">
        <ele>12.6</ele>
        <time>2016-05-29T08:20:30.000Z</time>
      </trkpt>
      <trkpt lat="49.33001" lon="-0.56705">
        <ele>12.4</ele>
        <time>2016-05-29T08:20:41.000Z</time>
      </trkpt>
      <trkpt lat="49.32993" lon="-0.56694">
        <ele>12.5</ele>
        <time>2016-05-29T08:20:51.000Z</time>
      </trkpt>
      <trkpt lat="49.32986" lon="-0.56683">
        <ele>12.6</ele>
        <time>2016-05-29T08:20:59.000Z</time>
      </trkpt>
      <trkpt lat="49.32979" lon="-0.56673">
        <ele>12.7</ele>
        <time>2016-05-29T08:21:07.000Z</time>
      </trkpt>
      <trkpt lat="49.32971" lon="-0.56663">
        <ele>12.7</ele>
        <time>2016-05-29T08:21:15.000Z</time>
      </trkpt>
      <trkpt lat="49.32964" lon="-0.56653">
        <ele>12.5</ele>
        <time>2016-05-29T08:21:23.000Z</time>
      </trkpt>
      <trkpt lat="49.32957" lon="-0.56642">
        <ele>12.6</ele>
        <time>2016-05-29T08:21:30.000Z</time>
      </trkpt>
      <trkpt lat="49.3295" lon="-0.56632">
        <ele>12.4</ele>
        <time>2016-05-29T08:21:37.000Z</time>
      </trkpt>
      <trkpt lat="49.32943" lon="-0.56623">
        <ele>12</ele>
        <time>2016-05-29T08:21:44.000Z</time>
      </trkpt>
      <trkpt lat="49.32937" lon="-0.56611">
        <ele>11.5</ele>
        <time>2016-05-29T08:21:53.000Z</time>
      </trkpt>
      <trkpt lat="49.32932" lon="-0.566">
        <ele>11.3</ele>
        <time>2016-05-29T08:22:02.000Z</time>
      </trkpt>
      <trkpt lat="49.32926" lon="-0.56589">
        <ele>11.1</ele>
        <time>2016-05-29T08:22:09.000Z</time>
      </trkpt>
      <trkpt lat="49.32922" lon="-0.56575">
        <ele>11</ele>
        <time>2016-05-29T08:22:16.000Z</time>
      </trkpt>
      <trkpt lat="49.32918" lon="-0.56562">
        <ele>11</ele>
        <time>2016-05-29T08:22:24.000Z</time>
      </trkpt>
      <trkpt lat="49.32914" lon="-0.56548">
        <ele>11</ele>
        <time>2016-05-29T08:22:31.000Z</time>
      </trkpt>
      <trkpt lat="49.32911" lon="-0.56535">
        <ele>11.3</ele>
        <time>2016-05-29T08:22:38.000Z</time>
      </trkpt>
      <trkpt lat="49.3291" lon="-0.56521">
        <ele>11.6</ele>
        <time>2016-05-29T08:22:45.000Z</time>
      </trkpt>
      <trkpt lat="49.3291" lon="-0.56507">
        <ele>11.8</ele>
        <time>2016-05-29T08:22:56.000Z</time>
      </trkpt>
      <trkpt lat="49.3291" lon="-0.56492">
        <ele>11.9</ele>
        <time>2016-05-29T08:23:04.000Z</time>
      </trkpt>
      <trkpt lat="49.3291" lon="-0.56477">
        <ele>11.7</ele>
        <time>2016-05-29T08:23:13.000Z</time>
      </trkpt>
      <trkpt lat="49.32911" lon="-0.56463">
        <ele>11.5</ele>
        <time>2016-05-29T08:23:21.000Z</time>
      </trkpt>
      <trkpt lat="49.32909" lon="-0.56449">
        <ele>11.5</ele>
        <time>2016-05-29T08:23:29.000Z</time>
      </trkpt>
      <trkpt lat="49.32907" lon="-0.56436">
        <ele>12.2</ele>
        <time>2016-05-29T08:23:36.000Z</time>
      </trkpt>
      <trkpt lat="49.32904" lon="-0.56421">
        <ele>12.3</ele>
        <time>2016-05-29T08:23:44.000Z</time>
      </trkpt>
      <trkpt lat="49.32902" lon="-0.56407">
        <ele>12.4</ele>
        <time>2016-05-29T08:23:52.000Z</time>
      </trkpt>
      <trkpt lat="49.329" lon="-0.56393">
        <ele>13.3</ele>
        <time>2016-05-29T08:24:02.000Z</time>
      </trkpt>
      <trkpt lat="49.32897" lon="-0.56379">
        <ele>13.8</ele>
        <time>2016-05-29T08:24:13.000Z</time>
      </trkpt>
      <trkpt lat="49.32894" lon="-0.56366">
        <ele>13.8</ele>
        <time>2016-05-29T08:24:23.000Z</time>
      </trkpt>
      <trkpt lat="49.32892" lon="-0.56352">
        <ele>14</ele>
        <time>2016-05-29T08:24:31.000Z</time>
      </trkpt>
      <trkpt lat="49.32889" lon="-0.56338">
        <ele>14.3</ele>
        <time>2016-05-29T08:24:40.000Z</time>
      </trkpt>
      <trkpt lat="49.32884" lon="-0.56326">
        <ele>14.7</ele>
        <time>2016-05-29T08:24:47.000Z</time>
      </trkpt>
      <trkpt lat="49.3288" lon="-0.56314">
        <ele>15.1</ele>
        <time>2016-05-29T08:24:53.000Z</time>
      </trkpt>
      <trkpt lat="49.32876" lon="-0.563">
        <ele>15.5</ele>
        <time>2016-05-29T08:25:00.000Z</time>
      </trkpt>
      <trkpt lat="49.32874" lon="-0.56286">
        <ele>15.5</ele>
        <time>2016-05-29T08:25:07.000Z</time>
      </trkpt>
      <trkpt lat="49.3287" lon="-0.56272">
        <ele>15.9</ele>
        <time>2016-05-29T08:25:14.000Z</time>
      </trkpt>
      <trkpt lat="49.32868" lon="-0.56258">
        <ele>16.4</ele>
        <time>2016-05-29T08:25:22.000Z</time>
      </trkpt>
      <trkpt lat="49.32865" lon="-0.56244">
        <ele>17.1</ele>
        <time>2016-05-29T08:25:30.000Z</time>
      </trkpt>
      <trkpt lat="49.32863" lon="-0.5623">
        <ele>17.7</ele>
        <time>2016-05-29T08:25:38.000Z</time>
      </trkpt>
      <trkpt lat="49.32861" lon="-0.56216">
        <ele>18.3</ele>
        <time>2016-05-29T08:25:44.000Z</time>
      </trkpt>
      <trkpt lat="49.32859" lon="-0.56202">
        <ele>18.7</ele>
        <time>2016-05-29T08:25:52.000Z</time>
      </trkpt>
      <trkpt lat="49.32856" lon="-0.56187">
        <ele>19.3</ele>
        <time>2016-05-29T08:26:00.000Z</time>
      </trkpt>
      <trkpt lat="49.32852" lon="-0.56173">
        <ele>19.7</ele>
        <time>2016-05-29T08:26:07.000Z</time>
      </trkpt>
      <trkpt lat="49.32849" lon="-0.56158">
        <ele>19.9</ele>
        <time>2016-05-29T08:26:15.000Z</time>
      </trkpt>
      <trkpt lat="49.32848" lon="-0.56144">
        <ele>20.2</ele>
        <time>2016-05-29T08:26:22.000Z</time>
      </trkpt>
      <trkpt lat="49.32846" lon="-0.5613">
        <ele>20.6</ele>
        <time>2016-05-29T08:26:29.000Z</time>
      </trkpt>
      <trkpt lat="49.32844" lon="-0.56117">
        <ele>20.9</ele>
        <time>2016-05-29T08:26:36.000Z</time>
      </trkpt>
      <trkpt lat="49.32843" lon="-0.56102">
        <ele>21.3</ele>
        <time>2016-05-29T08:26:44.000Z</time>
      </trkpt>
      <trkpt lat="49.32842" lon="-0.56087">
        <ele>21.5</ele>
        <time>2016-05-29T08:26:52.000Z</time>
      </trkpt>
      <trkpt lat="49.3284" lon="-0.56072">
        <ele>22</ele>
        <time>2016-05-29T08:27:00.000Z</time>
      </trkpt>
      <trkpt lat="49.32837" lon="-0.56057">
        <ele>22.2</ele>
        <time>2016-05-29T08:27:08.000Z</time>
      </trkpt>
      <trkpt lat="49.32834" lon="-0.56043">
        <ele>22.8</ele>
        <time>2016-05-29T08:27:16.000Z</time>
      </trkpt>
      <trkpt lat="49.32833" lon="-0.56029">
        <ele>23.4</ele>
        <time>2016-05-29T08:27:23.000Z</time>
      </trkpt>
      <trkpt lat="49.32831" lon="-0.56016">
        <ele>23.9</ele>
        <time>2016-05-29T08:27:30.000Z</time>
      </trkpt>
      <trkpt lat="49.32829" lon="-0.56001">
        <ele>24.3</ele>
        <time>2016-05-29T08:27:38.000Z</time>
      </trkpt>
      <trkpt lat="49.32826" lon="-0.55987">
        <ele>25</ele>
        <time>2016-05-29T08:27:47.000Z</time>
      </trkpt>
      <trkpt lat="49.32822" lon="-0.55974">
        <ele>25.8</ele>
        <time>2016-05-29T08:27:55.000Z</time>
      </trkpt>
      <trkpt lat="49.32818" lon="-0.5596">
        <ele>26.2</ele>
        <time>2016-05-29T08:28:03.000Z</time>
      </trkpt>
      <trkpt lat="49.32815" lon="-0.55946">
        <ele>26.6</ele>
        <time>2016-05-29T08:28:11.000Z</time>
      </trkpt>
      <trkpt lat="49.32811" lon="-0.55933">
        <ele>27.3</ele>
        <time>2016-05-29T08:28:19.000Z</time>
      </trkpt>
      <trkpt lat="49.32807" lon="-0.55919">
        <ele>27.9</ele>
        <time>2016-05-29T08:28:27.000Z</time>
      </trkpt>
      <trkpt lat="49.32804" lon="-0.55905">
        <ele>28.7</ele>
        <time>2016-05-29T08:28:35.000Z</time>
      </trkpt>
      <trkpt lat="49.328" lon="-0.55891">
        <ele>29.2</ele>
        <time>2016-05-29T08:28:43.000Z</time>
      </trkpt>
      <trkpt lat="49.32794" lon="-0.55878">
        <ele>29.1</ele>
        <time>2016-05-29T08:28:52.000Z</time>
      </trkpt>
      <trkpt lat="49.3279" lon="-0.55864">
        <ele>29.5</ele>
        <time>2016-05-29T08:29:01.000Z</time>
      </trkpt>
      <trkpt lat="49.32786" lon="-0.55851">
        <ele>30.1</ele>
        <time>2016-05-29T08:29:09.000Z</time>
      </trkpt>
      <trkpt lat="49.32781" lon="-0.55838">
        <ele>30.8</ele>
        <time>2016-05-29T08:29:18.000Z</time>
      </trkpt>
      <trkpt lat="49.32776" lon="-0.55826">
        <ele>31.5</ele>
        <time>2016-05-29T08:29:26.000Z</time>
      </trkpt>
      <trkpt lat="49.32771" lon="-0.55814">
        <ele>32.1</ele>
        <time>2016-05-29T08:29:34.000Z</time>
      </trkpt>
      <trkpt lat="49.32767" lon="-0.55801">
        <ele>32.7</ele>
        <time>2016-05-29T08:29:42.000Z</time>
      </trkpt>
      <trkpt lat="49.32762" lon="-0.55789">
        <ele>33.3</ele>
        <time>2016-05-29T08:29:50.000Z</time>
      </trkpt>
      <trkpt lat="49.32758" lon="-0.55777">
        <ele>34.2</ele>
        <time>2016-05-29T08:29:58.000Z</time>
      </trkpt>
      <trkpt lat="49.32753" lon="-0.55764">
        <ele>34.7</ele>
        <time>2016-05-29T08:30:07.000Z</time>
      </trkpt>
      <trkpt lat="49.32748" lon="-0.55752">
        <ele>35.4</ele>
        <time>2016-05-29T08:30:15.000Z</time>
      </trkpt>
      <trkpt lat="49.32744" lon="-0.55739">
        <ele>36.5</ele>
        <time>2016-05-29T08:30:23.000Z</time>
      </trkpt>
      <trkpt lat="49.3274" lon="-0.55725">
        <ele>37.4</ele>
        <time>2016-05-29T08:30:31.000Z</time>
      </trkpt>
      <trkpt lat="49.32736" lon="-0.55712">
        <ele>38.8</ele>
        <time>2016-05-29T08:30:40.000Z</time>
      </trkpt>
      <trkpt lat="49.32733" lon="-0.55698">
        <ele>39.7</ele>
        <time>2016-05-29T08:30:48.000Z</time>
      </trkpt>
      <trkpt lat="49.32729" lon="-0.55685">
        <ele>40.5</ele>
        <time>2016-05-29T08:30:56.000Z</time>
      </trkpt>
      <trkpt lat="49.32726" lon="-0.55672">
        <ele>41.4</ele>
        <time>2016-05-29T08:31:04.000Z</time>
      </trkpt>
      <trkpt lat="49.32722" lon="-0.5566">
        <ele>42.6</ele>
        <time>2016-05-29T08:31:13.000Z</time>
      </trkpt>
      <trkpt lat="49.32717" lon="-0.55647">
        <ele>44.3</ele>
        <time>2016-05-29T08:38:48.000Z</time>
      </trkpt>
      <trkpt lat="49.32711" lon="-0.55637">
        <ele>44.4</ele>
        <time>2016-05-29T08:39:25.000Z</time>
      </trkpt>
      <trkpt lat="49.32719" lon="-0.55628">
        <ele>44.8</ele>
        <time>2016-05-29T08:40:03.000Z</time>
      </trkpt>
      <trkpt lat="49.32723" lon="-0.55615">
        <ele>45.1</ele>
        <time>2016-05-29T08:40:13.000Z</time>
      </trkpt>
      <trkpt lat="49.32728" lon="-0.55602">
        <ele>45.4</ele>
        <time>2016-05-29T08:40:22.000Z</time>
      </trkpt>
      <trkpt lat="49.32733" lon="-0.55589">
        <ele>45.6</ele>
        <time>2016-05-29T08:40:31.000Z</time>
      </trkpt>
      <trkpt lat="49.32737" lon="-0.55576">
        <ele>45.7</ele>
        <time>2016-05-29T08:40:40.000Z</time>
      </trkpt>
      <trkpt lat="49.32743" lon="-0.55563">
        <ele>45.8</ele>
        <time>2016-05-29T08:40:48.000Z</time>
      </trkpt>
      <trkpt lat="49.32748" lon="-0.55552">
        <ele>46</ele>
        <time>2016-05-29T08:40:55.000Z</time>
      </trkpt>
      <trkpt lat="49.32753" lon="-0.5554">
        <ele>46</ele>
        <time>2016-05-29T08:41:02.000Z</time>
      </trkpt>
      <trkpt lat="49.32759" lon="-0.55528">
        <ele>46.1</ele>
        <time>2016-05-29T08:41:09.000Z</time>
      </trkpt>
      <trkpt lat="49.32764" lon="-0.55516">
        <ele>46.2</ele>
        <time>2016-05-29T08:41:17.000Z</time>
      </trkpt>
      <trkpt lat="49.32769" lon="-0.55504">
        <ele>46.5</ele>
        <time>2016-05-29T08:41:24.000Z</time>
      </trkpt>
      <trkpt lat="49.32775" lon="-0.55492">
        <ele>47</ele>
        <time>2016-05-29T08:41:32.000Z</time>
      </trkpt>
      <trkpt lat="49.3278" lon="-0.55479">
        <ele>47.5</ele>
        <time>2016-05-29T08:41:40.000Z</time>
      </trkpt>
      <trkpt lat="49.32786" lon="-0.55467">
        <ele>47.8</ele>
        <time>2016-05-29T08:41:47.000Z</time>
      </trkpt>
      <trkpt lat="49.32791" lon="-0.55454">
        <ele>48</ele>
        <time>2016-05-29T08:41:55.000Z</time>
      </trkpt>
      <trkpt lat="49.32796" lon="-0.55441">
        <ele>48.3</ele>
        <time>2016-05-29T08:42:03.000Z</time>
      </trkpt>
      <trkpt lat="49.32801" lon="-0.55429">
        <ele>48.7</ele>
        <time>2016-05-29T08:42:10.000Z</time>
      </trkpt>
      <trkpt lat="49.32805" lon="-0.55416">
        <ele>49.1</ele>
        <time>2016-05-29T08:42:17.000Z</time>
      </trkpt>
      <trkpt lat="49.32809" lon="-0.55403">
        <ele>49.4</ele>
        <time>2016-05-29T08:42:24.000Z</time>
      </trkpt>
      <trkpt lat="49.32812" lon="-0.55389">
        <ele>49.8</ele>
        <time>2016-05-29T08:42:32.000Z</time>
      </trkpt>
      <trkpt lat="49.32814" lon="-0.55375">
        <ele>50.1</ele>
        <time>2016-05-29T08:42:39.000Z</time>
      </trkpt>
      <trkpt lat="49.32817" lon="-0.55362">
        <ele>50.4</ele>
        <time>2016-05-29T08:42:46.000Z</time>
      </trkpt>
      <trkpt lat="49.32819" lon="-0.55347">
        <ele>50.9</ele>
        <time>2016-05-29T08:42:54.000Z</time>
      </trkpt>
      <trkpt lat="49.32821" lon="-0.55332">
        <ele>51.2</ele>
        <time>2016-05-29T08:43:01.000Z</time>
      </trkpt>
      <trkpt lat="49.32822" lon="-0.55319">
        <ele>51.4</ele>
        <time>2016-05-29T08:43:08.000Z</time>
      </trkpt>
      <trkpt lat="49.32823" lon="-0.55305">
        <ele>51.6</ele>
        <time>2016-05-29T08:43:15.000Z</time>
      </trkpt>
      <trkpt lat="49.32824" lon="-0.55291">
        <ele>51.8</ele>
        <time>2016-05-29T08:43:22.000Z</time>
      </trkpt>
      <trkpt lat="49.32823" lon="-0.55276">
        <ele>51.8</ele>
        <time>2016-05-29T08:43:29.000Z</time>
      </trkpt>
      <trkpt lat="49.32824" lon="-0.55262">
        <ele>51.9</ele>
        <time>2016-05-29T08:43:36.000Z</time>
      </trkpt>
      <trkpt lat="49.32823" lon="-0.55247">
        <ele>51.6</ele>
        <time>2016-05-29T08:43:44.000Z</time>
      </trkpt>
      <trkpt lat="49.32822" lon="-0.55232">
        <ele>51.5</ele>
        <time>2016-05-29T08:43:52.000Z</time>
      </trkpt>
      <trkpt lat="49.32822" lon="-0.55218">
        <ele>51.5</ele>
        <time>2016-05-29T08:43:59.000Z</time>
      </trkpt>
      <trkpt lat="49.32821" lon="-0.55204">
        <ele>51.5</ele>
        <time>2016-05-29T08:44:06.000Z</time>
      </trkpt>
      <trkpt lat="49.3282" lon="-0.55189">
        <ele>51.5</ele>
        <time>2016-05-29T08:44:13.000Z</time>
      </trkpt>
      <trkpt lat="49.3282" lon="-0.55174">
        <ele>51.4</ele>
        <time>2016-05-29T08:44:21.000Z</time>
      </trkpt>
      <trkpt lat="49.32819" lon="-0.55158">
        <ele>51.3</ele>
        <time>2016-05-29T08:44:29.000Z</time>
      </trkpt>
      <trkpt lat="49.32819" lon="-0.55143">
        <ele>51.6</ele>
        <time>2016-05-29T08:44:36.000Z</time>
      </trkpt>
      <trkpt lat="49.32818" lon="-0.55129">
        <ele>51.7</ele>
        <time>2016-05-29T08:44:43.000Z</time>
      </trkpt>
      <trkpt lat="49.32816" lon="-0.55114">
        <ele>51.7</ele>
        <time>2016-05-29T08:44:50.000Z</time>
      </trkpt>
      <trkpt lat="49.32814" lon="-0.551">
        <ele>51.8</ele>
        <time>2016-05-29T08:44:57.000Z</time>
      </trkpt>
      <trkpt lat="49.32813" lon="-0.55084">
        <ele>51.8</ele>
        <time>2016-05-29T08:45:05.000Z</time>
      </trkpt>
      <trkpt lat="49.32811" lon="-0.5507">
        <ele>51.6</ele>
        <time>2016-05-29T08:45:13.000Z</time>
      </trkpt>
      <trkpt lat="49.32809" lon="-0.55056">
        <ele>51.6</ele>
        <time>2016-05-29T08:45:20.000Z</time>
      </trkpt>
      <trkpt lat="49.32808" lon="-0.55041">
        <ele>51.5</ele>
        <time>2016-05-29T08:45:28.000Z</time>
      </trkpt>
      <trkpt lat="49.32806" lon="-0.55025">
        <ele>51.5</ele>
        <time>2016-05-29T08:45:36.000Z</time>
      </trkpt>
      <trkpt lat="49.32806" lon="-0.55011">
        <ele>51.5</ele>
        <time>2016-05-29T08:45:43.000Z</time>
      </trkpt>
      <trkpt lat="49.32805" lon="-0.54996">
        <ele>51.4</ele>
        <time>2016-05-29T08:45:51.000Z</time>
      </trkpt>
      <trkpt lat="49.32804" lon="-0.54981">
        <ele>51.3</ele>
        <time>2016-05-29T08:45:58.000Z</time>
      </trkpt>
      <trkpt lat="49.32803" lon="-0.54967">
        <ele>51.3</ele>
        <time>2016-05-29T08:46:05.000Z</time>
      </trkpt>
      <trkpt lat="49.32803" lon="-0.54953">
        <ele>51.4</ele>
        <time>2016-05-29T08:46:12.000Z</time>
      </trkpt>
      <trkpt lat="49.32802" lon="-0.54938">
        <ele>51.4</ele>
        <time>2016-05-29T08:46:19.000Z</time>
      </trkpt>
      <trkpt lat="49.32802" lon="-0.54924">
        <ele>51.7</ele>
        <time>2016-05-29T08:46:26.000Z</time>
      </trkpt>
      <trkpt lat="49.32802" lon="-0.5491">
        <ele>51.8</ele>
        <time>2016-05-29T08:46:33.000Z</time>
      </trkpt>
      <trkpt lat="49.32801" lon="-0.54895">
        <ele>51.9</ele>
        <time>2016-05-29T08:46:41.000Z</time>
      </trkpt>
      <trkpt lat="49.32802" lon="-0.5488">
        <ele>51.7</ele>
        <time>2016-05-29T08:46:48.000Z</time>
      </trkpt>
      <trkpt lat="49.32803" lon="-0.54865">
        <ele>51.5</ele>
        <time>2016-05-29T08:46:55.000Z</time>
      </trkpt>
      <trkpt lat="49.32804" lon="-0.5485">
        <ele>51.4</ele>
        <time>2016-05-29T08:47:02.000Z</time>
      </trkpt>
      <trkpt lat="49.32804" lon="-0.54834">
        <ele>51.3</ele>
        <time>2016-05-29T08:47:09.000Z</time>
      </trkpt>
      <trkpt lat="49.32805" lon="-0.54819">
        <ele>51.4</ele>
        <time>2016-05-29T08:47:16.000Z</time>
      </trkpt>
      <trkpt lat="49.32807" lon="-0.54805">
        <ele>51.5</ele>
        <time>2016-05-29T08:47:23.000Z</time>
      </trkpt>
      <trkpt lat="49.32808" lon="-0.5479">
        <ele>51.5</ele>
        <time>2016-05-29T08:47:30.000Z</time>
      </trkpt>
      <trkpt lat="49.3281" lon="-0.54776">
        <ele>51.3</ele>
        <time>2016-05-29T08:47:37.000Z</time>
      </trkpt>
      <trkpt lat="49.32812" lon="-0.54761">
        <ele>51.1</ele>
        <time>2016-05-29T08:47:44.000Z</time>
      </trkpt>
      <trkpt lat="49.32814" lon="-0.54747">
        <ele>51</ele>
        <time>2016-05-29T08:47:51.000Z</time>
      </trkpt>
      <trkpt lat="49.32816" lon="-0.54733">
        <ele>51</ele>
        <time>2016-05-29T08:47:58.000Z</time>
      </trkpt>
      <trkpt lat="49.32818" lon="-0.54719">
        <ele>50.6</ele>
        <time>2016-05-29T08:48:05.000Z</time>
      </trkpt>
      <trkpt lat="49.32819" lon="-0.54704">
        <ele>50.4</ele>
        <time>2016-05-29T08:48:12.000Z</time>
      </trkpt>
      <trkpt lat="49.32821" lon="-0.54691">
        <ele>50.2</ele>
        <time>2016-05-29T08:48:19.000Z</time>
      </trkpt>
      <trkpt lat="49.32823" lon="-0.54675">
        <ele>50.1</ele>
        <time>2016-05-29T08:48:27.000Z</time>
      </trkpt>
      <trkpt lat="49.32825" lon="-0.54662">
        <ele>50.1</ele>
        <time>2016-05-29T08:48:34.000Z</time>
      </trkpt>
      <trkpt lat="49.32827" lon="-0.54648">
        <ele>50</ele>
        <time>2016-05-29T08:48:41.000Z</time>
      </trkpt>
      <trkpt lat="49.32829" lon="-0.54632">
        <ele>50</ele>
        <time>2016-05-29T08:48:48.000Z</time>
      </trkpt>
      <trkpt lat="49.32832" lon="-0.54619">
        <ele>49.9</ele>
        <time>2016-05-29T08:48:55.000Z</time>
      </trkpt>
      <trkpt lat="49.32834" lon="-0.54603">
        <ele>49.8</ele>
        <time>2016-05-29T08:49:03.000Z</time>
      </trkpt>
      <trkpt lat="49.32836" lon="-0.5459">
        <ele>49.6</ele>
        <time>2016-05-29T08:49:10.000Z</time>
      </trkpt>
      <trkpt lat="49.32838" lon="-0.54575">
        <ele>49.4</ele>
        <time>2016-05-29T08:49:18.000Z</time>
      </trkpt>
      <trkpt lat="49.32841" lon="-0.5456">
        <ele>49.5</ele>
        <time>2016-05-29T08:49:26.000Z</time>
      </trkpt>
      <trkpt lat="49.32846" lon="-0.54549">
        <ele>49</ele>
        <time>2016-05-29T08:49:44.000Z</time>
      </trkpt>
      <trkpt lat="49.32854" lon="-0.54542">
        <ele>49.1</ele>
        <time>2016-05-29T08:50:17.000Z</time>
      </trkpt>
      <trkpt lat="49.32863" lon="-0.54538">
        <ele>48.9</ele>
        <time>2016-05-29T08:50:30.000Z</time>
      </trkpt>
      <trkpt lat="49.32872" lon="-0.54533">
        <ele>48.7</ele>
        <time>2016-05-29T08:50:38.000Z</time>
      </trkpt>
      <trkpt lat="49.32882" lon="-0.54527">
        <ele>48.8</ele>
        <time>2016-05-29T08:50:46.000Z</time>
      </trkpt>
      <trkpt lat="49.32891" lon="-0.54522">
        <ele>48.8</ele>
        <time>2016-05-29T08:50:53.000Z</time>
      </trkpt>
      <trkpt lat="49.329" lon="-0.54517">
        <ele>48.8</ele>
        <time>2016-05-29T08:51:00.000Z</time>
      </trkpt>
      <trkpt lat="49.32908" lon="-0.54511">
        <ele>48.7</ele>
        <time>2016-05-29T08:51:07.000Z</time>
      </trkpt>
      <trkpt lat="49.32917" lon="-0.54506">
        <ele>48.3</ele>
        <time>2016-05-29T08:51:14.000Z</time>
      </trkpt>
      <trkpt lat="49.32926" lon="-0.54502">
        <ele>48</ele>
        <time>2016-05-29T08:51:22.000Z</time>
      </trkpt>
      <trkpt lat="49.32935" lon="-0.54498">
        <ele>47.8</ele>
        <time>2016-05-29T08:51:29.000Z</time>
      </trkpt>
      <trkpt lat="49.32944" lon="-0.54494">
        <ele>47.7</ele>
        <time>2016-05-29T08:51:36.000Z</time>
      </trkpt>
      <trkpt lat="49.32953" lon="-0.54489">
        <ele>47.6</ele>
        <time>2016-05-29T08:51:44.000Z</time>
      </trkpt>
      <trkpt lat="49.32962" lon="-0.54485">
        <ele>47.5</ele>
        <time>2016-05-29T08:51:51.000Z</time>
      </trkpt>
      <trkpt lat="49.32972" lon="-0.5448">
        <ele>47.5</ele>
        <time>2016-05-29T08:51:59.000Z</time>
      </trkpt>
      <trkpt lat="49.32981" lon="-0.54477">
        <ele>47.6</ele>
        <time>2016-05-29T08:52:06.000Z</time>
      </trkpt>
      <trkpt lat="49.3299" lon="-0.54472">
        <ele>47.6</ele>
        <time>2016-05-29T08:52:13.000Z</time>
      </trkpt>
      <trkpt lat="49.32999" lon="-0.54467">
        <ele>47.6</ele>
        <time>2016-05-29T08:52:21.000Z</time>
      </trkpt>
      <trkpt lat="49.33008" lon="-0.54462">
        <ele>47.5</ele>
        <time>2016-05-29T08:52:28.000Z</time>
      </trkpt>
      <trkpt lat="49.33017" lon="-0.54457">
        <ele>47.5</ele>
        <time>2016-05-29T08:52:35.000Z</time>
      </trkpt>
      <trkpt lat="49.33026" lon="-0.54452">
        <ele>47.5</ele>
        <time>2016-05-29T08:52:42.000Z</time>
      </trkpt>
      <trkpt lat="49.33035" lon="-0.54448">
        <ele>47.3</ele>
        <time>2016-05-29T08:52:49.000Z</time>
      </trkpt>
      <trkpt lat="49.33043" lon="-0.54443">
        <ele>47.3</ele>
        <time>2016-05-29T08:52:56.000Z</time>
      </trkpt>
      <trkpt lat="49.33052" lon="-0.54438">
        <ele>47.1</ele>
        <time>2016-05-29T08:53:03.000Z</time>
      </trkpt>
      <trkpt lat="49.33062" lon="-0.54433">
        <ele>46.9</ele>
        <time>2016-05-29T08:53:11.000Z</time>
      </trkpt>
      <trkpt lat="49.33071" lon="-0.54427">
        <ele>46.8</ele>
        <time>2016-05-29T08:53:19.000Z</time>
      </trkpt>
      <trkpt lat="49.3308" lon="-0.54422">
        <ele>46.8</ele>
        <time>2016-05-29T08:53:26.000Z</time>
      </trkpt>
      <trkpt lat="49.33089" lon="-0.54417">
        <ele>46.8</ele>
        <time>2016-05-29T08:53:33.000Z</time>
      </trkpt>
      <trkpt lat="49.33099" lon="-0.54411">
        <ele>46.9</ele>
        <time>2016-05-29T08:53:41.000Z</time>
      </trkpt>
      <trkpt lat="49.33107" lon="-0.54407">
        <ele>47</ele>
        <time>2016-05-29T08:53:48.000Z</time>
      </trkpt>
      <trkpt lat="49.33116" lon="-0.54403">
        <ele>47</ele>
        <time>2016-05-29T08:53:55.000Z</time>
      </trkpt>
      <trkpt lat="49.33125" lon="-0.54399">
        <ele>47</ele>
        <time>2016-05-29T08:54:02.000Z</time>
      </trkpt>
      <trkpt lat="49.33134" lon="-0.54394">
        <ele>46.9</ele>
        <time>2016-05-29T08:54:09.000Z</time>
      </trkpt>
      <trkpt lat="49.33143" lon="-0.54389">
        <ele>46.9</ele>
        <time>2016-05-29T08:54:17.000Z</time>
      </trkpt>
      <trkpt lat="49.33152" lon="-0.54385">
        <ele>46.8</ele>
        <time>2016-05-29T08:54:25.000Z</time>
      </trkpt>
      <trkpt lat="49.33162" lon="-0.5438">
        <ele>46.8</ele>
        <time>2016-05-29T08:54:33.000Z</time>
      </trkpt>
      <trkpt lat="49.33171" lon="-0.54376">
        <ele>46.4</ele>
        <time>2016-05-29T08:54:40.000Z</time>
      </trkpt>
      <trkpt lat="49.3318" lon="-0.54371">
        <ele>46.4</ele>
        <time>2016-05-29T08:54:48.000Z</time>
      </trkpt>
      <trkpt lat="49.33189" lon="-0.54366">
        <ele>46.6</ele>
        <time>2016-05-29T08:54:56.000Z</time>
      </trkpt>
      <trkpt lat="49.33199" lon="-0.54362">
        <ele>46.6</ele>
        <time>2016-05-29T08:55:04.000Z</time>
      </trkpt>
      <trkpt lat="49.33208" lon="-0.54358">
        <ele>46.7</ele>
        <time>2016-05-29T08:55:12.000Z</time>
      </trkpt>
      <trkpt lat="49.33217" lon="-0.54353">
        <ele>46.8</ele>
        <time>2016-05-29T08:55:19.000Z</time>
      </trkpt>
      <trkpt lat="49.33226" lon="-0.54347">
        <ele>46.9</ele>
        <time>2016-05-29T08:55:27.000Z</time>
      </trkpt>
      <trkpt lat="49.33234" lon="-0.54343">
        <ele>47.1</ele>
        <time>2016-05-29T08:55:34.000Z</time>
      </trkpt>
      <trkpt lat="49.33244" lon="-0.54337">
        <ele>47.2</ele>
        <time>2016-05-29T08:55:42.000Z</time>
      </trkpt>
      <trkpt lat="49.33252" lon="-0.54331">
        <ele>47.1</ele>
        <time>2016-05-29T08:55:50.000Z</time>
      </trkpt>
      <trkpt lat="49.33261" lon="-0.54327">
        <ele>47.2</ele>
        <time>2016-05-29T08:55:57.000Z</time>
      </trkpt>
      <trkpt lat="49.3327" lon="-0.54321">
        <ele>47.2</ele>
        <time>2016-05-29T08:56:06.000Z</time>
      </trkpt>
      <trkpt lat="49.33278" lon="-0.54316">
        <ele>46.7</ele>
        <time>2016-05-29T08:56:20.000Z</time>
      </trkpt>
      <trkpt lat="49.33281" lon="-0.54329">
        <ele>45.5</ele>
        <time>2016-05-29T08:59:13.000Z</time>
      </trkpt>
      <trkpt lat="49.33284" lon="-0.54344">
        <ele>45.9</ele>
        <time>2016-05-29T08:59:22.000Z</time>
      </trkpt>
      <trkpt lat="49.33285" lon="-0.54359">
        <ele>46</ele>
        <time>2016-05-29T08:59:30.000Z</time>
      </trkpt>
      <trkpt lat="49.33286" lon="-0.54374">
        <ele>46.1</ele>
        <time>2016-05-29T08:59:38.000Z</time>
      </trkpt>
      <trkpt lat="49.33287" lon="-0.54388">
        <ele>46.3</ele>
        <time>2016-05-29T08:59:46.000Z</time>
      </trkpt>
      <trkpt lat="49.33289" lon="-0.54403">
        <ele>46.1</ele>
        <time>2016-05-29T08:59:55.000Z</time>
      </trkpt>
      <trkpt lat="49.3329" lon="-0.54418">
        <ele>46</ele>
        <time>2016-05-29T09:00:03.000Z</time>
      </trkpt>
      <trkpt lat="49.33292" lon="-0.54433">
        <ele>46.1</ele>
        <time>2016-05-29T09:00:11.000Z</time>
      </trkpt>
      <trkpt lat="49.33293" lon="-0.54447">
        <ele>46.2</ele>
        <time>2016-05-29T09:00:18.000Z</time>
      </trkpt>
      <trkpt lat="49.33294" lon="-0.54462">
        <ele>46.3</ele>
        <time>2016-05-29T09:00:25.000Z</time>
      </trkpt>
      <trkpt lat="49.33298" lon="-0.54476">
        <ele>46.6</ele>
        <time>2016-05-29T09:00:34.000Z</time>
      </trkpt>
      <trkpt lat="49.33307" lon="-0.54479">
        <ele>46.7</ele>
        <time>2016-05-29T09:00:42.000Z</time>
      </trkpt>
      <trkpt lat="49.33316" lon="-0.5448">
        <ele>46.7</ele>
        <time>2016-05-29T09:00:49.000Z</time>
      </trkpt>
      <trkpt lat="49.33325" lon="-0.54481">
        <ele>46.4</ele>
        <time>2016-05-29T09:00:57.000Z</time>
      </trkpt>
      <trkpt lat="49.33335" lon="-0.54482">
        <ele>45.9</ele>
        <time>2016-05-29T09:01:05.000Z</time>
      </trkpt>
      <trkpt lat="49.33344" lon="-0.54483">
        <ele>45.8</ele>
        <time>2016-05-29T09:01:12.000Z</time>
      </trkpt>
      <trkpt lat="49.33353" lon="-0.54484">
        <ele>45.8</ele>
        <time>2016-05-29T09:01:19.000Z</time>
      </trkpt>
      <trkpt lat="49.33362" lon="-0.54484">
        <ele>45.6</ele>
        <time>2016-05-29T09:01:26.000Z</time>
      </trkpt>
      <trkpt lat="49.33371" lon="-0.54486">
        <ele>45.4</ele>
        <time>2016-05-29T09:01:33.000Z</time>
      </trkpt>
      <trkpt lat="49.3338" lon="-0.54487">
        <ele>45.3</ele>
        <time>2016-05-29T09:01:40.000Z</time>
      </trkpt>
      <trkpt lat="49.3339" lon="-0.54488">
        <ele>45.2</ele>
        <time>2016-05-29T09:01:47.000Z</time>
      </trkpt>
      <trkpt lat="49.33399" lon="-0.54489">
        <ele>45.3</ele>
        <time>2016-05-29T09:01:54.000Z</time>
      </trkpt>
      <trkpt lat="49.33408" lon="-0.5449">
        <ele>45.5</ele>
        <time>2016-05-29T09:02:01.000Z</time>
      </trkpt>
      <trkpt lat="49.33418" lon="-0.54489">
        <ele>45.4</ele>
        <time>2016-05-29T09:02:08.000Z</time>
      </trkpt>
      <trkpt lat="49.33427" lon="-0.5449">
        <ele>45.4</ele>
        <time>2016-05-29T09:02:15.000Z</time>
      </trkpt>
      <trkpt lat="49.33436" lon="-0.54491">
        <ele>45.5</ele>
        <time>2016-05-29T09:02:23.000Z</time>
      </trkpt>
      <trkpt lat="49.33445" lon="-0.54493">
        <ele>45.4</ele>
        <time>2016-05-29T09:02:30.000Z</time>
      </trkpt>
      <trkpt lat="49.33454" lon="-0.54493">
        <ele>45.4</ele>
        <time>2016-05-29T09:02:37.000Z</time>
      </trkpt>
      <trkpt lat="49.33463" lon="-0.54494">
        <ele>45.3</ele>
        <time>2016-05-29T09:02:44.000Z</time>
      </trkpt>
      <trkpt lat="49.33473" lon="-0.54495">
        <ele>45</ele>
        <time>2016-05-29T09:02:51.000Z</time>
      </trkpt>
      <trkpt lat="49.33482" lon="-0.54497">
        <ele>44.9</ele>
        <time>2016-05-29T09:02:58.000Z</time>
      </trkpt>
      <trkpt lat="49.33491" lon="-0.54498">
        <ele>45</ele>
        <time>2016-05-29T09:03:05.000Z</time>
      </trkpt>
      <trkpt lat="49.33501" lon="-0.54499">
        <ele>44.9</ele>
        <time>2016-05-29T09:03:13.000Z</time>
      </trkpt>
      <trkpt lat="49.3351" lon="-0.54498">
        <ele>44.7</ele>
        <time>2016-05-29T09:03:20.000Z</time>
      </trkpt>
      <trkpt lat="49.33519" lon="-0.545">
        <ele>44.9</ele>
        <time>2016-05-29T09:03:27.000Z</time>
      </trkpt>
      <trkpt lat="49.33528" lon="-0.54499">
        <ele>44.9</ele>
        <time>2016-05-29T09:03:34.000Z</time>
      </trkpt>
      <trkpt lat="49.33537" lon="-0.545">
        <ele>44.5</ele>
        <time>2016-05-29T09:03:41.000Z</time>
      </trkpt>
      <trkpt lat="49.33547" lon="-0.54501">
        <ele>43.9</ele>
        <time>2016-05-29T09:03:49.000Z</time>
      </trkpt>
      <trkpt lat="49.33556" lon="-0.54502">
        <ele>43.6</ele>
        <time>2016-05-29T09:03:56.000Z</time>
      </trkpt>
      <trkpt lat="49.33565" lon="-0.54501">
        <ele>43.5</ele>
        <time>2016-05-29T09:04:04.000Z</time>
      </trkpt>
      <trkpt lat="49.33575" lon="-0.54502">
        <ele>43.5</ele>
        <time>2016-05-29T09:04:12.000Z</time>
      </trkpt>
      <trkpt lat="49.33584" lon="-0.54504">
        <ele>43.4</ele>
        <time>2016-05-29T09:04:20.000Z</time>
      </trkpt>
      <trkpt lat="49.33593" lon="-0.54505">
        <ele>43.2</ele>
        <time>2016-05-29T09:04:27.000Z</time>
      </trkpt>
      <trkpt lat="49.33603" lon="-0.54505">
        <ele>43</ele>
        <time>2016-05-29T09:04:35.000Z</time>
      </trkpt>
      <trkpt lat="49.33613" lon="-0.54506">
        <ele>42.8</ele>
        <time>2016-05-29T09:04:43.000Z</time>
      </trkpt>
      <trkpt lat="49.33622" lon="-0.54507">
        <ele>42.9</ele>
        <time>2016-05-29T09:04:50.000Z</time>
      </trkpt>
      <trkpt lat="49.33632" lon="-0.54509">
        <ele>42.6</ele>
        <time>2016-05-29T09:04:57.000Z</time>
      </trkpt>
      <trkpt lat="49.33642" lon="-0.5451">
        <ele>42.4</ele>
        <time>2016-05-29T09:05:04.000Z</time>
      </trkpt>
      <trkpt lat="49.33652" lon="-0.54511">
        <ele>42.2</ele>
        <time>2016-05-29T09:05:12.000Z</time>
      </trkpt>
      <trkpt lat="49.33662" lon="-0.54512">
        <ele>42.1</ele>
        <time>2016-05-29T09:05:20.000Z</time>
      </trkpt>
      <trkpt lat="49.33672" lon="-0.54513">
        <ele>42</ele>
        <time>2016-05-29T09:05:28.000Z</time>
      </trkpt>
      <trkpt lat="49.33682" lon="-0.54515">
        <ele>41.6</ele>
        <time>2016-05-29T09:05:37.000Z</time>
      </trkpt>
      <trkpt lat="49.33691" lon="-0.54517">
        <ele>41.4</ele>
        <time>2016-05-29T09:05:45.000Z</time>
      </trkpt>
      <trkpt lat="49.33701" lon="-0.54518">
        <ele>41.2</ele>
        <time>2016-05-29T09:05:54.000Z</time>
      </trkpt>
      <trkpt lat="49.3371" lon="-0.54521">
        <ele>41</ele>
        <time>2016-05-29T09:06:03.000Z</time>
      </trkpt>
      <trkpt lat="49.33719" lon="-0.54525">
        <ele>40.4</ele>
        <time>2016-05-29T09:06:23.000Z</time>
      </trkpt>
      <trkpt lat="49.33728" lon="-0.5452">
        <ele>40</ele>
        <time>2016-05-29T09:06:35.000Z</time>
      </trkpt>
      <trkpt lat="49.3373" lon="-0.54506">
        <ele>39.4</ele>
        <time>2016-05-29T09:06:44.000Z</time>
      </trkpt>
      <trkpt lat="49.33731" lon="-0.54491">
        <ele>39.1</ele>
        <time>2016-05-29T09:06:52.000Z</time>
      </trkpt>
      <trkpt lat="49.33732" lon="-0.54476">
        <ele>39.1</ele>
        <time>2016-05-29T09:07:01.000Z</time>
      </trkpt>
      <trkpt lat="49.33732" lon="-0.54462">
        <ele>39</ele>
        <time>2016-05-29T09:07:09.000Z</time>
      </trkpt>
      <trkpt lat="49.33732" lon="-0.54446">
        <ele>38.8</ele>
        <time>2016-05-29T09:07:17.000Z</time>
      </trkpt>
      <trkpt lat="49.33733" lon="-0.54431">
        <ele>38.8</ele>
        <time>2016-05-29T09:07:25.000Z</time>
      </trkpt>
      <trkpt lat="49.33734" lon="-0.54417">
        <ele>38.7</ele>
        <time>2016-05-29T09:07:33.000Z</time>
      </trkpt>
      <trkpt lat="49.33735" lon="-0.54403">
        <ele>38.7</ele>
        <time>2016-05-29T09:07:41.000Z</time>
      </trkpt>
      <trkpt lat="49.33736" lon="-0.54389">
        <ele>38.7</ele>
        <time>2016-05-29T09:07:49.000Z</time>
      </trkpt>
      <trkpt lat="49.33737" lon="-0.54374">
        <ele>38.6</ele>
        <time>2016-05-29T09:07:57.000Z</time>
      </trkpt>
      <trkpt lat="49.33738" lon="-0.5436">
        <ele>38.7</ele>
        <time>2016-05-29T09:08:05.000Z</time>
      </trkpt>
      <trkpt lat="49.33739" lon="-0.54345">
        <ele>38.8</ele>
        <time>2016-05-29T09:08:13.000Z</time>
      </trkpt>
      <trkpt lat="49.3374" lon="-0.54331">
        <ele>38.9</ele>
        <time>2016-05-29T09:08:21.000Z</time>
      </trkpt>
      <trkpt lat="49.33741" lon="-0.54316">
        <ele>38.9</ele>
        <time>2016-05-29T09:08:29.000Z</time>
      </trkpt>
      <trkpt lat="49.33742" lon="-0.54302">
        <ele>38.9</ele>
        <time>2016-05-29T09:08:37.000Z</time>
      </trkpt>
      <trkpt lat="49.33743" lon="-0.54288">
        <ele>39</ele>
        <time>2016-05-29T09:08:45.000Z</time>
      </trkpt>
      <trkpt lat="49.33745" lon="-0.54273">
        <ele>39.1</ele>
        <time>2016-05-29T09:08:53.000Z</time>
      </trkpt>
      <trkpt lat="49.33746" lon="-0.54258">
        <ele>39.2</ele>
        <time>2016-05-29T09:09:01.000Z</time>
      </trkpt>
      <trkpt lat="49.33748" lon="-0.54244">
        <ele>39.3</ele>
        <time>2016-05-29T09:09:09.000Z</time>
      </trkpt>
      <trkpt lat="49.33748" lon="-0.54229">
        <ele>39.4</ele>
        <time>2016-05-29T09:09:17.000Z</time>
      </trkpt>
      <trkpt lat="49.33749" lon="-0.54215">
        <ele>39.4</ele>
        <time>2016-05-29T09:09:25.000Z</time>
      </trkpt>
      <trkpt lat="49.3375" lon="-0.54201">
        <ele>39.3</ele>
        <time>2016-05-29T09:09:33.000Z</time>
      </trkpt>
      <trkpt lat="49.3375" lon="-0.54187">
        <ele>39.1</ele>
        <time>2016-05-29T09:09:41.000Z</time>
      </trkpt>
      <trkpt lat="49.33751" lon="-0.54172">
        <ele>39</ele>
        <time>2016-05-29T09:09:49.000Z</time>
      </trkpt>
      <trkpt lat="49.33753" lon="-0.54157">
        <ele>39.1</ele>
        <time>2016-05-29T09:09:57.000Z</time>
      </trkpt>
      <trkpt lat="49.33754" lon="-0.54142">
        <ele>39.2</ele>
        <time>2016-05-29T09:10:05.000Z</time>
      </trkpt>
      <trkpt lat="49.33755" lon="-0.54128">
        <ele>39</ele>
        <time>2016-05-29T09:10:12.000Z</time>
      </trkpt>
      <trkpt lat="49.33757" lon="-0.54115">
        <ele>39</ele>
        <time>2016-05-29T09:10:19.000Z</time>
      </trkpt>
      <trkpt lat="49.33758" lon="-0.54099">
        <ele>38.9</ele>
        <time>2016-05-29T09:10:27.000Z</time>
      </trkpt>
      <trkpt lat="49.33759" lon="-0.54084">
        <ele>38.9</ele>
        <time>2016-05-29T09:10:35.000Z</time>
      </trkpt>
      <trkpt lat="49.3376" lon="-0.54069">
        <ele>39</ele>
        <time>2016-05-29T09:10:43.000Z</time>
      </trkpt>
      <trkpt lat="49.33762" lon="-0.54056">
        <ele>39.3</ele>
        <time>2016-05-29T09:10:50.000Z</time>
      </trkpt>
      <trkpt lat="49.33764" lon="-0.54041">
        <ele>39.3</ele>
        <time>2016-05-29T09:10:58.000Z</time>
      </trkpt>
      <trkpt lat="49.33765" lon="-0.54026">
        <ele>39.3</ele>
        <time>2016-05-29T09:11:06.000Z</time>
      </trkpt>
      <trkpt lat="49.33766" lon="-0.54012">
        <ele>39.1</ele>
        <time>2016-05-29T09:11:14.000Z</time>
      </trkpt>
      <trkpt lat="49.33768" lon="-0.53999">
        <ele>38.9</ele>
        <time>2016-05-29T09:11:22.000Z</time>
      </trkpt>
      <trkpt lat="49.3377" lon="-0.53984">
        <ele>38.7</ele>
        <time>2016-05-29T09:11:31.000Z</time>
      </trkpt>
      <trkpt lat="49.33772" lon="-0.5397">
        <ele>38.7</ele>
        <time>2016-05-29T09:11:41.000Z</time>
      </trkpt>
      <trkpt lat="49.33776" lon="-0.53957">
        <ele>38.1</ele>
        <time>2016-05-29T09:14:52.000Z</time>
      </trkpt>
      <trkpt lat="49.33777" lon="-0.53942">
        <ele>37.7</ele>
        <time>2016-05-29T09:15:01.000Z</time>
      </trkpt>
      <trkpt lat="49.33777" lon="-0.53926">
        <ele>37.5</ele>
        <time>2016-05-29T09:15:10.000Z</time>
      </trkpt>
      <trkpt lat="49.3378" lon="-0.53912">
        <ele>37.7</ele>
        <time>2016-05-29T09:15:18.000Z</time>
      </trkpt>
      <trkpt lat="49.33781" lon="-0.53898">
        <ele>37.8</ele>
        <time>2016-05-29T09:15:25.000Z</time>
      </trkpt>
      <trkpt lat="49.33783" lon="-0.53882">
        <ele>37.7</ele>
        <time>2016-05-29T09:15:32.000Z</time>
      </trkpt>
      <trkpt lat="49.33785" lon="-0.53867">
        <ele>37.7</ele>
        <time>2016-05-29T09:15:39.000Z</time>
      </trkpt>
      <trkpt lat="49.33785" lon="-0.53852">
        <ele>37.7</ele>
        <time>2016-05-29T09:15:46.000Z</time>
      </trkpt>
      <trkpt lat="49.33787" lon="-0.53838">
        <ele>38</ele>
        <time>2016-05-29T09:15:53.000Z</time>
      </trkpt>
      <trkpt lat="49.33789" lon="-0.53822">
        <ele>38.1</ele>
        <time>2016-05-29T09:16:00.000Z</time>
      </trkpt>
      <trkpt lat="49.33789" lon="-0.53808">
        <ele>38.2</ele>
        <time>2016-05-29T09:16:07.000Z</time>
      </trkpt>
      <trkpt lat="49.3379" lon="-0.53794">
        <ele>38.3</ele>
        <time>2016-05-29T09:16:14.000Z</time>
      </trkpt>
      <trkpt lat="49.33791" lon="-0.5378">
        <ele>38.3</ele>
        <time>2016-05-29T09:16:21.000Z</time>
      </trkpt>
      <trkpt lat="49.33792" lon="-0.53765">
        <ele>38.4</ele>
        <time>2016-05-29T09:16:29.000Z</time>
      </trkpt>
      <trkpt lat="49.33793" lon="-0.53749">
        <ele>38.4</ele>
        <time>2016-05-29T09:16:37.000Z</time>
      </trkpt>
      <trkpt lat="49.33795" lon="-0.53735">
        <ele>38.4</ele>
        <time>2016-05-29T09:16:44.000Z</time>
      </trkpt>
      <trkpt lat="49.33796" lon="-0.53721">
        <ele>38.4</ele>
        <time>2016-05-29T09:16:51.000Z</time>
      </trkpt>
      <trkpt lat="49.33797" lon="-0.53707">
        <ele>38.3</ele>
        <time>2016-05-29T09:16:58.000Z</time>
      </trkpt>
      <trkpt lat="49.33798" lon="-0.53692">
        <ele>38.2</ele>
        <time>2016-05-29T09:17:05.000Z</time>
      </trkpt>
      <trkpt lat="49.33799" lon="-0.53678">
        <ele>38.1</ele>
        <time>2016-05-29T09:17:12.000Z</time>
      </trkpt>
      <trkpt lat="49.33799" lon="-0.53664">
        <ele>37.6</ele>
        <time>2016-05-29T09:17:19.000Z</time>
      </trkpt>
      <trkpt lat="49.33799" lon="-0.53649">
        <ele>37.5</ele>
        <time>2016-05-29T09:17:26.000Z</time>
      </trkpt>
      <trkpt lat="49.33798" lon="-0.53634">
        <ele>37.5</ele>
        <time>2016-05-29T09:17:33.000Z</time>
      </trkpt>
      <trkpt lat="49.33796" lon="-0.53619">
        <ele>37.5</ele>
        <time>2016-05-29T09:17:40.000Z</time>
      </trkpt>
      <trkpt lat="49.33794" lon="-0.53605">
        <ele>37.2</ele>
        <time>2016-05-29T09:17:47.000Z</time>
      </trkpt>
      <trkpt lat="49.33791" lon="-0.53591">
        <ele>37</ele>
        <time>2016-05-29T09:17:55.000Z</time>
      </trkpt>
      <trkpt lat="49.33789" lon="-0.53577">
        <ele>36.9</ele>
        <time>2016-05-29T09:18:02.000Z</time>
      </trkpt>
      <trkpt lat="49.33787" lon="-0.53563">
        <ele>36.9</ele>
        <time>2016-05-29T09:18:09.000Z</time>
      </trkpt>
      <trkpt lat="49.33785" lon="-0.53549">
        <ele>36.7</ele>
        <time>2016-05-29T09:18:17.000Z</time>
      </trkpt>
      <trkpt lat="49.33784" lon="-0.53534">
        <ele>36.4</ele>
        <time>2016-05-29T09:18:25.000Z</time>
      </trkpt>
      <trkpt lat="49.33783" lon="-0.5352">
        <ele>36</ele>
        <time>2016-05-29T09:18:32.000Z</time>
      </trkpt>
      <trkpt lat="49.33782" lon="-0.53505">
        <ele>35.8</ele>
        <time>2016-05-29T09:18:40.000Z</time>
      </trkpt>
      <trkpt lat="49.3378" lon="-0.53491">
        <ele>35.8</ele>
        <time>2016-05-29T09:18:47.000Z</time>
      </trkpt>
      <trkpt lat="49.33779" lon="-0.53477">
        <ele>35.9</ele>
        <time>2016-05-29T09:18:54.000Z</time>
      </trkpt>
      <trkpt lat="49.33779" lon="-0.53462">
        <ele>35.7</ele>
        <time>2016-05-29T09:19:01.000Z</time>
      </trkpt>
      <trkpt lat="49.33778" lon="-0.53448">
        <ele>35.5</ele>
        <time>2016-05-29T09:19:08.000Z</time>
      </trkpt>
      <trkpt lat="49.33778" lon="-0.53433">
        <ele>35.3</ele>
        <time>2016-05-29T09:19:15.000Z</time>
      </trkpt>
      <trkpt lat="49.33777" lon="-0.53419">
        <ele>35.2</ele>
        <time>2016-05-29T09:19:22.000Z</time>
      </trkpt>
      <trkpt lat="49.33775" lon="-0.53405">
        <ele>35.2</ele>
        <time>2016-05-29T09:19:29.000Z</time>
      </trkpt>
      <trkpt lat="49.33774" lon="-0.5339">
        <ele>35</ele>
        <time>2016-05-29T09:19:36.000Z</time>
      </trkpt>
      <trkpt lat="49.33772" lon="-0.53377">
        <ele>34.9</ele>
        <time>2016-05-29T09:19:43.000Z</time>
      </trkpt>
      <trkpt lat="49.3377" lon="-0.53362">
        <ele>34.8</ele>
        <time>2016-05-29T09:19:50.000Z</time>
      </trkpt>
      <trkpt lat="49.33768" lon="-0.53347">
        <ele>34.6</ele>
        <time>2016-05-29T09:19:58.000Z</time>
      </trkpt>
      <trkpt lat="49.33767" lon="-0.53333">
        <ele>34.5</ele>
        <time>2016-05-29T09:20:06.000Z</time>
      </trkpt>
      <trkpt lat="49.33765" lon="-0.53318">
        <ele>34.4</ele>
        <time>2016-05-29T09:20:14.000Z</time>
      </trkpt>
      <trkpt lat="49.33764" lon="-0.53302">
        <ele>34.1</ele>
        <time>2016-05-29T09:20:22.000Z</time>
      </trkpt>
      <trkpt lat="49.33763" lon="-0.53289">
        <ele>33.9</ele>
        <time>2016-05-29T09:20:30.000Z</time>
      </trkpt>
      <trkpt lat="49.33762" lon="-0.53275">
        <ele>33.8</ele>
        <time>2016-05-29T09:20:39.000Z</time>
      </trkpt>
      <trkpt lat="49.33762" lon="-0.53261">
        <ele>33.9</ele>
        <time>2016-05-29T09:20:46.000Z</time>
      </trkpt>
      <trkpt lat="49.33761" lon="-0.53246">
        <ele>33.9</ele>
        <time>2016-05-29T09:20:54.000Z</time>
      </trkpt>
      <trkpt lat="49.33762" lon="-0.53231">
        <ele>33.8</ele>
        <time>2016-05-29T09:21:03.000Z</time>
      </trkpt>
      <trkpt lat="49.33763" lon="-0.53216">
        <ele>33.4</ele>
        <time>2016-05-29T09:21:11.000Z</time>
      </trkpt>
      <trkpt lat="49.33764" lon="-0.53202">
        <ele>33</ele>
        <time>2016-05-29T09:21:19.000Z</time>
      </trkpt>
      <trkpt lat="49.33765" lon="-0.53186">
        <ele>32.8</ele>
        <time>2016-05-29T09:21:27.000Z</time>
      </trkpt>
      <trkpt lat="49.33767" lon="-0.53173">
        <ele>32.5</ele>
        <time>2016-05-29T09:21:34.000Z</time>
      </trkpt>
      <trkpt lat="49.33767" lon="-0.53159">
        <ele>32.6</ele>
        <time>2016-05-29T09:21:41.000Z</time>
      </trkpt>
      <trkpt lat="49.33767" lon="-0.53143">
        <ele>32.7</ele>
        <time>2016-05-29T09:21:49.000Z</time>
      </trkpt>
      <trkpt lat="49.33767" lon="-0.53128">
        <ele>32.6</ele>
        <time>2016-05-29T09:21:57.000Z</time>
      </trkpt>
      <trkpt lat="49.33768" lon="-0.53113">
        <ele>32.4</ele>
        <time>2016-05-29T09:22:04.000Z</time>
      </trkpt>
      <trkpt lat="49.33768" lon="-0.53097">
        <ele>32.1</ele>
        <time>2016-05-29T09:22:12.000Z</time>
      </trkpt>
      <trkpt lat="49.33767" lon="-0.53082">
        <ele>31.8</ele>
        <time>2016-05-29T09:22:20.000Z</time>
      </trkpt>
      <trkpt lat="49.33767" lon="-0.53067">
        <ele>31.6</ele>
        <time>2016-05-29T09:22:28.000Z</time>
      </trkpt>
      <trkpt lat="49.33767" lon="-0.53052">
        <ele>31.4</ele>
        <time>2016-05-29T09:22:35.000Z</time>
      </trkpt>
      <trkpt lat="49.33767" lon="-0.53038">
        <ele>31.3</ele>
        <time>2016-05-29T09:22:43.000Z</time>
      </trkpt>
      <trkpt lat="49.33767" lon="-0.53022">
        <ele>31.1</ele>
        <time>2016-05-29T09:22:51.000Z</time>
      </trkpt>
      <trkpt lat="49.33767" lon="-0.53009">
        <ele>31.2</ele>
        <time>2016-05-29T09:22:58.000Z</time>
      </trkpt>
      <trkpt lat="49.33768" lon="-0.52993">
        <ele>30.9</ele>
        <time>2016-05-29T09:23:06.000Z</time>
      </trkpt>
      <trkpt lat="49.33769" lon="-0.52979">
        <ele>30.4</ele>
        <time>2016-05-29T09:23:13.000Z</time>
      </trkpt>
      <trkpt lat="49.33768" lon="-0.52964">
        <ele>30.7</ele>
        <time>2016-05-29T09:23:21.000Z</time>
      </trkpt>
      <trkpt lat="49.33769" lon="-0.52951">
        <ele>30.7</ele>
        <time>2016-05-29T09:23:28.000Z</time>
      </trkpt>
      <trkpt lat="49.3377" lon="-0.52937">
        <ele>30.6</ele>
        <time>2016-05-29T09:23:35.000Z</time>
      </trkpt>
      <trkpt lat="49.33769" lon="-0.52922">
        <ele>30.3</ele>
        <time>2016-05-29T09:23:43.000Z</time>
      </trkpt>
      <trkpt lat="49.33768" lon="-0.52907">
        <ele>29.9</ele>
        <time>2016-05-29T09:23:50.000Z</time>
      </trkpt>
      <trkpt lat="49.33767" lon="-0.52893">
        <ele>29.6</ele>
        <time>2016-05-29T09:23:57.000Z</time>
      </trkpt>
      <trkpt lat="49.33768" lon="-0.52879">
        <ele>29.7</ele>
        <time>2016-05-29T09:24:04.000Z</time>
      </trkpt>
      <trkpt lat="49.33767" lon="-0.52863">
        <ele>29.8</ele>
        <time>2016-05-29T09:24:12.000Z</time>
      </trkpt>
      <trkpt lat="49.33767" lon="-0.52848">
        <ele>29.7</ele>
        <time>2016-05-29T09:24:20.000Z</time>
      </trkpt>
      <trkpt lat="49.33766" lon="-0.52834">
        <ele>29.6</ele>
        <time>2016-05-29T09:24:28.000Z</time>
      </trkpt>
      <trkpt lat="49.33767" lon="-0.52819">
        <ele>29.1</ele>
        <time>2016-05-29T09:24:37.000Z</time>
      </trkpt>
      <trkpt lat="49.33767" lon="-0.52805">
        <ele>28.9</ele>
        <time>2016-05-29T09:24:46.000Z</time>
      </trkpt>
      <trkpt lat="49.33768" lon="-0.52791">
        <ele>28.8</ele>
        <time>2016-05-29T09:24:55.000Z</time>
      </trkpt>
      <trkpt lat="49.33769" lon="-0.52776">
        <ele>29</ele>
        <time>2016-05-29T09:25:04.000Z</time>
      </trkpt>
      <trkpt lat="49.3377" lon="-0.52762">
        <ele>29.3</ele>
        <time>2016-05-29T09:25:13.000Z</time>
      </trkpt>
      <trkpt lat="49.3377" lon="-0.52748">
        <ele>29.4</ele>
        <time>2016-05-29T09:25:22.000Z</time>
      </trkpt>
      <trkpt lat="49.33771" lon="-0.52733">
        <ele>29.3</ele>
        <time>2016-05-29T09:25:31.000Z</time>
      </trkpt>
      <trkpt lat="49.33771" lon="-0.52718">
        <ele>29.1</ele>
        <time>2016-05-29T09:25:42.000Z</time>
      </trkpt>
      <trkpt lat="49.33771" lon="-0.52704">
        <ele>28.6</ele>
        <time>2016-05-29T09:26:11.000Z</time>
      </trkpt>
      <trkpt lat="49.33773" lon="-0.52691">
        <ele>27.5</ele>
        <time>2016-05-29T09:27:47.000Z</time>
      </trkpt>
      <trkpt lat="49.33776" lon="-0.52677">
        <ele>27.7</ele>
        <time>2016-05-29T09:27:58.000Z</time>
      </trkpt>
      <trkpt lat="49.33777" lon="-0.52662">
        <ele>27.7</ele>
        <time>2016-05-29T09:28:07.000Z</time>
      </trkpt>
      <trkpt lat="49.33779" lon="-0.52648">
        <ele>27.7</ele>
        <time>2016-05-29T09:28:16.000Z</time>
      </trkpt>
      <trkpt lat="49.33779" lon="-0.52634">
        <ele>27.7</ele>
        <time>2016-05-29T09:28:24.000Z</time>
      </trkpt>
      <trkpt lat="49.3378" lon="-0.5262">
        <ele>27.8</ele>
        <time>2016-05-29T09:28:32.000Z</time>
      </trkpt>
      <trkpt lat="49.33779" lon="-0.52605">
        <ele>27.8</ele>
        <time>2016-05-29T09:28:41.000Z</time>
      </trkpt>
      <trkpt lat="49.33777" lon="-0.52591">
        <ele>27.7</ele>
        <time>2016-05-29T09:28:49.000Z</time>
      </trkpt>
      <trkpt lat="49.33779" lon="-0.52576">
        <ele>27.6</ele>
        <time>2016-05-29T09:28:57.000Z</time>
      </trkpt>
      <trkpt lat="49.33779" lon="-0.52562">
        <ele>27.5</ele>
        <time>2016-05-29T09:29:05.000Z</time>
      </trkpt>
      <trkpt lat="49.3378" lon="-0.52547">
        <ele>27.4</ele>
        <time>2016-05-29T09:29:15.000Z</time>
      </trkpt>
      <trkpt lat="49.33781" lon="-0.52533">
        <ele>27.4</ele>
        <time>2016-05-29T09:29:23.000Z</time>
      </trkpt>
      <trkpt lat="49.33781" lon="-0.52519">
        <ele>27.5</ele>
        <time>2016-05-29T09:29:33.000Z</time>
      </trkpt>
      <trkpt lat="49.33782" lon="-0.52505">
        <ele>27.5</ele>
        <time>2016-05-29T09:29:42.000Z</time>
      </trkpt>
      <trkpt lat="49.33782" lon="-0.5249">
        <ele>27.4</ele>
        <time>2016-05-29T09:29:51.000Z</time>
      </trkpt>
      <trkpt lat="49.33783" lon="-0.52475">
        <ele>27.3</ele>
        <time>2016-05-29T09:29:59.000Z</time>
      </trkpt>
      <trkpt lat="49.33781" lon="-0.5246">
        <ele>27.1</ele>
        <time>2016-05-29T09:30:07.000Z</time>
      </trkpt>
      <trkpt lat="49.33782" lon="-0.52445">
        <ele>27.3</ele>
        <time>2016-05-29T09:30:15.000Z</time>
      </trkpt>
      <trkpt lat="49.33782" lon="-0.52431">
        <ele>27.4</ele>
        <time>2016-05-29T09:30:23.000Z</time>
      </trkpt>
      <trkpt lat="49.33783" lon="-0.52416">
        <ele>27.2</ele>
        <time>2016-05-29T09:30:32.000Z</time>
      </trkpt>
      <trkpt lat="49.33787" lon="-0.52402">
        <ele>27.1</ele>
        <time>2016-05-29T09:30:40.000Z</time>
      </trkpt>
      <trkpt lat="49.3379" lon="-0.52389">
        <ele>26.9</ele>
        <time>2016-05-29T09:30:48.000Z</time>
      </trkpt>
      <trkpt lat="49.33788" lon="-0.52375">
        <ele>26.9</ele>
        <time>2016-05-29T09:31:04.000Z</time>
      </trkpt>
      <trkpt lat="49.33781" lon="-0.52365">
        <ele>26.9</ele>
        <time>2016-05-29T09:31:30.000Z</time>
      </trkpt>
      <trkpt lat="49.33779" lon="-0.52352">
        <ele>26.9</ele>
        <time>2016-05-29T09:31:38.000Z</time>
      </trkpt>
      <trkpt lat="49.33779" lon="-0.52337">
        <ele>26.9</ele>
        <time>2016-05-29T09:31:47.000Z</time>
      </trkpt>
      <trkpt lat="49.33783" lon="-0.52323">
        <ele>27.2</ele>
        <time>2016-05-29T09:31:55.000Z</time>
      </trkpt>
      <trkpt lat="49.33787" lon="-0.5231">
        <ele>27.3</ele>
        <time>2016-05-29T09:32:01.000Z</time>
      </trkpt>
      <trkpt lat="49.33789" lon="-0.52296">
        <ele>27.4</ele>
        <time>2016-05-29T09:32:09.000Z</time>
      </trkpt>
      <trkpt lat="49.33789" lon="-0.52281">
        <ele>27.5</ele>
        <time>2016-05-29T09:32:18.000Z</time>
      </trkpt>
      <trkpt lat="49.3379" lon="-0.52266">
        <ele>27.5</ele>
        <time>2016-05-29T09:32:26.000Z</time>
      </trkpt>
      <trkpt lat="49.33793" lon="-0.52252">
        <ele>27.5</ele>
        <time>2016-05-29T09:32:35.000Z</time>
      </trkpt>
      <trkpt lat="49.33797" lon="-0.52239">
        <ele>27.5</ele>
        <time>2016-05-29T09:32:43.000Z</time>
      </trkpt>
      <trkpt lat="49.33801" lon="-0.52226">
        <ele>27.3</ele>
        <time>2016-05-29T09:32:51.000Z</time>
      </trkpt>
      <trkpt lat="49.33804" lon="-0.52211">
        <ele>27.3</ele>
        <time>2016-05-29T09:32:59.000Z</time>
      </trkpt>
      <trkpt lat="49.33806" lon="-0.52197">
        <ele>27.2</ele>
        <time>2016-05-29T09:33:06.000Z</time>
      </trkpt>
      <trkpt lat="49.33809" lon="-0.52183">
        <ele>27.1</ele>
        <time>2016-05-29T09:33:14.000Z</time>
      </trkpt>
      <trkpt lat="49.33813" lon="-0.52169">
        <ele>27.2</ele>
        <time>2016-05-29T09:33:21.000Z</time>
      </trkpt>
      <trkpt lat="49.33815" lon="-0.52156">
        <ele>27.3</ele>
        <time>2016-05-29T09:33:28.000Z</time>
      </trkpt>
      <trkpt lat="49.33819" lon="-0.52141">
        <ele>27.3</ele>
        <time>2016-05-29T09:33:36.000Z</time>
      </trkpt>
      <trkpt lat="49.33822" lon="-0.52128">
        <ele>27.3</ele>
        <time>2016-05-29T09:33:44.000Z</time>
      </trkpt>
      <trkpt lat="49.33826" lon="-0.52114">
        <ele>27.3</ele>
        <time>2016-05-29T09:33:52.000Z</time>
      </trkpt>
      <trkpt lat="49.33829" lon="-0.521">
        <ele>27.2</ele>
        <time>2016-05-29T09:34:00.000Z</time>
      </trkpt>
      <trkpt lat="49.33832" lon="-0.52086">
        <ele>26.9</ele>
        <time>2016-05-29T09:34:08.000Z</time>
      </trkpt>
      <trkpt lat="49.33834" lon="-0.52072">
        <ele>26.8</ele>
        <time>2016-05-29T09:34:16.000Z</time>
      </trkpt>
      <trkpt lat="49.33836" lon="-0.52058">
        <ele>26.7</ele>
        <time>2016-05-29T09:34:24.000Z</time>
      </trkpt>
      <trkpt lat="49.33837" lon="-0.52044">
        <ele>26.7</ele>
        <time>2016-05-29T09:34:33.000Z</time>
      </trkpt>
      <trkpt lat="49.33839" lon="-0.52029">
        <ele>27</ele>
        <time>2016-05-29T09:34:40.000Z</time>
      </trkpt>
      <trkpt lat="49.33841" lon="-0.52014">
        <ele>27.6</ele>
        <time>2016-05-29T09:34:47.000Z</time>
      </trkpt>
      <trkpt lat="49.33844" lon="-0.52">
        <ele>28</ele>
        <time>2016-05-29T09:34:54.000Z</time>
      </trkpt>
      <trkpt lat="49.33846" lon="-0.51987">
        <ele>28.5</ele>
        <time>2016-05-29T09:35:01.000Z</time>
      </trkpt>
      <trkpt lat="49.33849" lon="-0.51973">
        <ele>28.6</ele>
        <time>2016-05-29T09:35:08.000Z</time>
      </trkpt>
      <trkpt lat="49.33852" lon="-0.51959">
        <ele>28.5</ele>
        <time>2016-05-29T09:35:15.000Z</time>
      </trkpt>
      <trkpt lat="49.33854" lon="-0.51946">
        <ele>28.5</ele>
        <time>2016-05-29T09:35:22.000Z</time>
      </trkpt>
      <trkpt lat="49.33857" lon="-0.51932">
        <ele>28.5</ele>
        <time>2016-05-29T09:35:29.000Z</time>
      </trkpt>
      <trkpt lat="49.3386" lon="-0.51918">
        <ele>28.4</ele>
        <time>2016-05-29T09:35:37.000Z</time>
      </trkpt>
      <trkpt lat="49.33864" lon="-0.51904">
        <ele>28.2</ele>
        <time>2016-05-29T09:35:45.000Z</time>
      </trkpt>
      <trkpt lat="49.33867" lon="-0.5189">
        <ele>27.9</ele>
        <time>2016-05-29T09:35:53.000Z</time>
      </trkpt>
      <trkpt lat="49.33869" lon="-0.51875">
        <ele>27.7</ele>
        <time>2016-05-29T09:36:00.000Z</time>
      </trkpt>
      <trkpt lat="49.3387" lon="-0.51862">
        <ele>27.5</ele>
        <time>2016-05-29T09:36:07.000Z</time>
      </trkpt>
      <trkpt lat="49.33873" lon="-0.51848">
        <ele>27.3</ele>
        <time>2016-05-29T09:36:14.000Z</time>
      </trkpt>
      <trkpt lat="49.33875" lon="-0.51833">
        <ele>27.2</ele>
        <time>2016-05-29T09:36:22.000Z</time>
      </trkpt>
      <trkpt lat="49.33877" lon="-0.51818">
        <ele>27.2</ele>
        <time>2016-05-29T09:36:29.000Z</time>
      </trkpt>
      <trkpt lat="49.33879" lon="-0.51804">
        <ele>26.7</ele>
        <time>2016-05-29T09:36:36.000Z</time>
      </trkpt>
      <trkpt lat="49.3388" lon="-0.5179">
        <ele>26.3</ele>
        <time>2016-05-29T09:36:43.000Z</time>
      </trkpt>
      <trkpt lat="49.33878" lon="-0.51775">
        <ele>25.8</ele>
        <time>2016-05-29T09:36:50.000Z</time>
      </trkpt>
      <trkpt lat="49.33878" lon="-0.5176">
        <ele>25.4</ele>
        <time>2016-05-29T09:36:58.000Z</time>
      </trkpt>
      <trkpt lat="49.33876" lon="-0.51745">
        <ele>24.8</ele>
        <time>2016-05-29T09:37:05.000Z</time>
      </trkpt>
      <trkpt lat="49.33874" lon="-0.5173">
        <ele>24.2</ele>
        <time>2016-05-29T09:37:12.000Z</time>
      </trkpt>
      <trkpt lat="49.33871" lon="-0.51716">
        <ele>23.6</ele>
        <time>2016-05-29T09:37:19.000Z</time>
      </trkpt>
      <trkpt lat="49.33868" lon="-0.51701">
        <ele>22.9</ele>
        <time>2016-05-29T09:37:26.000Z</time>
      </trkpt>
      <trkpt lat="49.33866" lon="-0.51687">
        <ele>22</ele>
        <time>2016-05-29T09:37:33.000Z</time>
      </trkpt>
      <trkpt lat="49.33865" lon="-0.51673">
        <ele>21.1</ele>
        <time>2016-05-29T09:37:40.000Z</time>
      </trkpt>
      <trkpt lat="49.33861" lon="-0.5166">
        <ele>20.4</ele>
        <time>2016-05-29T09:37:48.000Z</time>
      </trkpt>
      <trkpt lat="49.33857" lon="-0.51647">
        <ele>19.9</ele>
        <time>2016-05-29T09:37:56.000Z</time>
      </trkpt>
      <trkpt lat="49.33853" lon="-0.51634">
        <ele>19.6</ele>
        <time>2016-05-29T09:38:04.000Z</time>
      </trkpt>
      <trkpt lat="49.33848" lon="-0.51621">
        <ele>18.6</ele>
        <time>2016-05-29T09:38:12.000Z</time>
      </trkpt>
      <trkpt lat="49.33844" lon="-0.51608">
        <ele>18</ele>
        <time>2016-05-29T09:38:19.000Z</time>
      </trkpt>
      <trkpt lat="49.33839" lon="-0.51596">
        <ele>17.6</ele>
        <time>2016-05-29T09:38:25.000Z</time>
      </trkpt>
      <trkpt lat="49.33834" lon="-0.51583">
        <ele>16.2</ele>
        <time>2016-05-29T09:38:35.000Z</time>
      </trkpt>
      <trkpt lat="49.3383" lon="-0.5157">
        <ele>14.8</ele>
        <time>2016-05-29T09:38:46.000Z</time>
      </trkpt>
      <trkpt lat="49.33827" lon="-0.51557">
        <ele>13.4</ele>
        <time>2016-05-29T09:39:13.000Z</time>
      </trkpt>
      <trkpt lat="49.33824" lon="-0.51543">
        <ele>12.5</ele>
        <time>2016-05-29T09:40:27.000Z</time>
      </trkpt>
      <trkpt lat="49.3382" lon="-0.5153">
        <ele>12</ele>
        <time>2016-05-29T09:40:35.000Z</time>
      </trkpt>
      <trkpt lat="49.3382" lon="-0.51515">
        <ele>10.7</ele>
        <time>2016-05-29T09:41:01.000Z</time>
      </trkpt>
      <trkpt lat="49.33822" lon="-0.51501">
        <ele>10.6</ele>
        <time>2016-05-29T09:41:11.000Z</time>
      </trkpt>
      <trkpt lat="49.33824" lon="-0.51486">
        <ele>10.5</ele>
        <time>2016-05-29T09:41:19.000Z</time>
      </trkpt>
      <trkpt lat="49.33827" lon="-0.51471">
        <ele>10.5</ele>
        <time>2016-05-29T09:41:28.000Z</time>
      </trkpt>
      <trkpt lat="49.33831" lon="-0.51457">
        <ele>10.5</ele>
        <time>2016-05-29T09:41:36.000Z</time>
      </trkpt>
      <trkpt lat="49.33834" lon="-0.51444">
        <ele>10.6</ele>
        <time>2016-05-29T09:41:44.000Z</time>
      </trkpt>
      <trkpt lat="49.33831" lon="-0.5143">
        <ele>10.9</ele>
        <time>2016-05-29T09:41:54.000Z</time>
      </trkpt>
      <trkpt lat="49.33824" lon="-0.51418">
        <ele>11.7</ele>
        <time>2016-05-29T09:42:04.000Z</time>
      </trkpt>
      <trkpt lat="49.33816" lon="-0.51412">
        <ele>12.7</ele>
        <time>2016-05-29T09:42:12.000Z</time>
      </trkpt>
      <trkpt lat="49.33807" lon="-0.51405">
        <ele>13.5</ele>
        <time>2016-05-29T09:42:20.000Z</time>
      </trkpt>
      <trkpt lat="49.33799" lon="-0.51398">
        <ele>14.5</ele>
        <time>2016-05-29T09:42:27.000Z</time>
      </trkpt>
      <trkpt lat="49.33791" lon="-0.5139">
        <ele>15.9</ele>
        <time>2016-05-29T09:42:35.000Z</time>
      </trkpt>
      <trkpt lat="49.33783" lon="-0.51382">
        <ele>16.9</ele>
        <time>2016-05-29T09:42:42.000Z</time>
      </trkpt>
      <trkpt lat="49.33776" lon="-0.51371">
        <ele>18.3</ele>
        <time>2016-05-29T09:42:51.000Z</time>
      </trkpt>
      <trkpt lat="49.3377" lon="-0.5136">
        <ele>19.9</ele>
        <time>2016-05-29T09:43:00.000Z</time>
      </trkpt>
      <trkpt lat="49.33763" lon="-0.51348">
        <ele>21.3</ele>
        <time>2016-05-29T09:43:10.000Z</time>
      </trkpt>
      <trkpt lat="49.33758" lon="-0.51335">
        <ele>22.2</ele>
        <time>2016-05-29T09:43:19.000Z</time>
      </trkpt>
      <trkpt lat="49.33752" lon="-0.51324">
        <ele>22.9</ele>
        <time>2016-05-29T09:43:27.000Z</time>
      </trkpt>
      <trkpt lat="49.33747" lon="-0.51312">
        <ele>23.3</ele>
        <time>2016-05-29T09:43:36.000Z</time>
      </trkpt>
      <trkpt lat="49.33741" lon="-0.513">
        <ele>23.8</ele>
        <time>2016-05-29T09:43:45.000Z</time>
      </trkpt>
      <trkpt lat="49.33735" lon="-0.51288">
        <ele>24.6</ele>
        <time>2016-05-29T09:43:54.000Z</time>
      </trkpt>
      <trkpt lat="49.3373" lon="-0.51276">
        <ele>25.4</ele>
        <time>2016-05-29T09:44:04.000Z</time>
      </trkpt>
      <trkpt lat="49.33725" lon="-0.51264">
        <ele>26</ele>
        <time>2016-05-29T09:44:13.000Z</time>
      </trkpt>
      <trkpt lat="49.33719" lon="-0.5125">
        <ele>26.4</ele>
        <time>2016-05-29T09:44:23.000Z</time>
      </trkpt>
      <trkpt lat="49.33714" lon="-0.51238">
        <ele>26.5</ele>
        <time>2016-05-29T09:44:33.000Z</time>
      </trkpt>
      <trkpt lat="49.33708" lon="-0.51227">
        <ele>26.8</ele>
        <time>2016-05-29T09:44:46.000Z</time>
      </trkpt>
      <trkpt lat="49.33713" lon="-0.51213">
        <ele>27.6</ele>
        <time>2016-05-29T09:47:46.000Z</time>
      </trkpt>
      <trkpt lat="49.33719" lon="-0.51201">
        <ele>27.7</ele>
        <time>2016-05-29T09:47:55.000Z</time>
      </trkpt>
      <trkpt lat="49.33727" lon="-0.51192">
        <ele>27.8</ele>
        <time>2016-05-29T09:48:04.000Z</time>
      </trkpt>
      <trkpt lat="49.33734" lon="-0.51182">
        <ele>27.8</ele>
        <time>2016-05-29T09:48:11.000Z</time>
      </trkpt>
      <trkpt lat="49.33741" lon="-0.51172">
        <ele>27.6</ele>
        <time>2016-05-29T09:48:18.000Z</time>
      </trkpt>
      <trkpt lat="49.33747" lon="-0.51162">
        <ele>27.9</ele>
        <time>2016-05-29T09:48:26.000Z</time>
      </trkpt>
      <trkpt lat="49.33754" lon="-0.51151">
        <ele>28.1</ele>
        <time>2016-05-29T09:48:35.000Z</time>
      </trkpt>
      <trkpt lat="49.33762" lon="-0.5114">
        <ele>28.1</ele>
        <time>2016-05-29T09:48:43.000Z</time>
      </trkpt>
      <trkpt lat="49.33768" lon="-0.5113">
        <ele>27.9</ele>
        <time>2016-05-29T09:48:50.000Z</time>
      </trkpt>
      <trkpt lat="49.33776" lon="-0.5112">
        <ele>27.8</ele>
        <time>2016-05-29T09:48:57.000Z</time>
      </trkpt>
      <trkpt lat="49.33783" lon="-0.51111">
        <ele>27.8</ele>
        <time>2016-05-29T09:49:04.000Z</time>
      </trkpt>
      <trkpt lat="49.33791" lon="-0.51102">
        <ele>27.6</ele>
        <time>2016-05-29T09:49:11.000Z</time>
      </trkpt>
      <trkpt lat="49.33799" lon="-0.51093">
        <ele>27.4</ele>
        <time>2016-05-29T09:49:18.000Z</time>
      </trkpt>
      <trkpt lat="49.33806" lon="-0.51083">
        <ele>27.1</ele>
        <time>2016-05-29T09:49:25.000Z</time>
      </trkpt>
      <trkpt lat="49.33814" lon="-0.51073">
        <ele>26.9</ele>
        <time>2016-05-29T09:49:32.000Z</time>
      </trkpt>
      <trkpt lat="49.33822" lon="-0.51063">
        <ele>26.7</ele>
        <time>2016-05-29T09:49:39.000Z</time>
      </trkpt>
      <trkpt lat="49.33828" lon="-0.51053">
        <ele>26.5</ele>
        <time>2016-05-29T09:49:47.000Z</time>
      </trkpt>
      <trkpt lat="49.33835" lon="-0.51043">
        <ele>26.3</ele>
        <time>2016-05-29T09:49:55.000Z</time>
      </trkpt>
      <trkpt lat="49.33841" lon="-0.51033">
        <ele>26.1</ele>
        <time>2016-05-29T09:50:02.000Z</time>
      </trkpt>
      <trkpt lat="49.33848" lon="-0.51021">
        <ele>25.9</ele>
        <time>2016-05-29T09:50:10.000Z</time>
      </trkpt>
      <trkpt lat="49.33854" lon="-0.51008">
        <ele>25.9</ele>
        <time>2016-05-29T09:50:18.000Z</time>
      </trkpt>
      <trkpt lat="49.3386" lon="-0.50996">
        <ele>25.7</ele>
        <time>2016-05-29T09:50:26.000Z</time>
      </trkpt>
      <trkpt lat="49.33867" lon="-0.50986">
        <ele>25.4</ele>
        <time>2016-05-29T09:50:33.000Z</time>
      </trkpt>
      <trkpt lat="49.33873" lon="-0.50975">
        <ele>25.1</ele>
        <time>2016-05-29T09:50:40.000Z</time>
      </trkpt>
      <trkpt lat="49.3388" lon="-0.50964">
        <ele>24.9</ele>
        <time>2016-05-29T09:50:47.000Z</time>
      </trkpt>
      <trkpt lat="49.33888" lon="-0.50954">
        <ele>24.6</ele>
        <time>2016-05-29T09:50:54.000Z</time>
      </trkpt>
      <trkpt lat="49.33896" lon="-0.50945">
        <ele>24.5</ele>
        <time>2016-05-29T09:51:01.000Z</time>
      </trkpt>
      <trkpt lat="49.33903" lon="-0.50937">
        <ele>24.4</ele>
        <time>2016-05-29T09:51:08.000Z</time>
      </trkpt>
      <trkpt lat="49.33912" lon="-0.5093">
        <ele>24.1</ele>
        <time>2016-05-29T09:51:14.000Z</time>
      </trkpt>
      <trkpt lat="49.3392" lon="-0.50924">
        <ele>23.7</ele>
        <time>2016-05-29T09:51:20.000Z</time>
      </trkpt>
      <trkpt lat="49.33928" lon="-0.50917">
        <ele>22.9</ele>
        <time>2016-05-29T09:51:26.000Z</time>
      </trkpt>
      <trkpt lat="49.33936" lon="-0.50909">
        <ele>22.3</ele>
        <time>2016-05-29T09:51:33.000Z</time>
      </trkpt>
      <trkpt lat="49.33943" lon="-0.509">
        <ele>21.4</ele>
        <time>2016-05-29T09:51:41.000Z</time>
      </trkpt>
      <trkpt lat="49.3395" lon="-0.5089">
        <ele>20.8</ele>
        <time>2016-05-29T09:51:50.000Z</time>
      </trkpt>
      <trkpt lat="49.33957" lon="-0.50881">
        <ele>19.6</ele>
        <time>2016-05-29T09:51:59.000Z</time>
      </trkpt>
      <trkpt lat="49.33966" lon="-0.50874">
        <ele>18.2</ele>
        <time>2016-05-29T09:52:06.000Z</time>
      </trkpt>
      <trkpt lat="49.33973" lon="-0.50865">
        <ele>17.1</ele>
        <time>2016-05-29T09:52:15.000Z</time>
      </trkpt>
      <trkpt lat="49.33981" lon="-0.50856">
        <ele>15.9</ele>
        <time>2016-05-29T09:52:23.000Z</time>
      </trkpt>
      <trkpt lat="49.33989" lon="-0.50848">
        <ele>15</ele>
        <time>2016-05-29T09:52:31.000Z</time>
      </trkpt>
      <trkpt lat="49.33996" lon="-0.50838">
        <ele>14</ele>
        <time>2016-05-29T09:52:40.000Z</time>
      </trkpt>
      <trkpt lat="49.34004" lon="-0.50828">
        <ele>12.8</ele>
        <time>2016-05-29T09:52:48.000Z</time>
      </trkpt>
      <trkpt lat="49.3401" lon="-0.50818">
        <ele>11.7</ele>
        <time>2016-05-29T09:52:56.000Z</time>
      </trkpt>
      <trkpt lat="49.34017" lon="-0.50809">
        <ele>10.1</ele>
        <time>2016-05-29T09:53:07.000Z</time>
      </trkpt>
      <trkpt lat="49.34025" lon="-0.50801">
        <ele>9.3</ele>
        <time>2016-05-29T09:53:17.000Z</time>
      </trkpt>
      <trkpt lat="49.34032" lon="-0.50791">
        <ele>8.4</ele>
        <time>2016-05-29T09:53:24.000Z</time>
      </trkpt>
      <trkpt lat="49.3404" lon="-0.50781">
        <ele>7.7</ele>
        <time>2016-05-29T09:53:31.000Z</time>
      </trkpt>
      <trkpt lat="49.34049" lon="-0.50775">
        <ele>7.2</ele>
        <time>2016-05-29T09:53:37.000Z</time>
      </trkpt>
      <trkpt lat="49.34058" lon="-0.5077">
        <ele>6.1</ele>
        <time>2016-05-29T09:53:48.000Z</time>
      </trkpt>
      <trkpt lat="49.34067" lon="-0.50769">
        <ele>3.7</ele>
        <time>2016-05-29T09:55:24.000Z</time>
      </trkpt>
      <trkpt lat="49.34072" lon="-0.50782">
        <ele>3.7</ele>
        <time>2016-05-29T09:55:34.000Z</time>
      </trkpt>
      <trkpt lat="49.34076" lon="-0.50794">
        <ele>3.6</ele>
        <time>2016-05-29T09:55:44.000Z</time>
      </trkpt>
      <trkpt lat="49.3408" lon="-0.50807">
        <ele>3.6</ele>
        <time>2016-05-29T09:55:53.000Z</time>
      </trkpt>
      <trkpt lat="49.34081" lon="-0.50821">
        <ele>3.4</ele>
        <time>2016-05-29T09:56:00.000Z</time>
      </trkpt>
      <trkpt lat="49.34085" lon="-0.50834">
        <ele>3.2</ele>
        <time>2016-05-29T09:56:08.000Z</time>
      </trkpt>
      <trkpt lat="49.34086" lon="-0.50848">
        <ele>3</ele>
        <time>2016-05-29T09:56:17.000Z</time>
      </trkpt>
      <trkpt lat="49.34091" lon="-0.5086">
        <ele>2.7</ele>
        <time>2016-05-29T09:56:26.000Z</time>
      </trkpt>
      <trkpt lat="49.34099" lon="-0.50868">
        <ele>2.5</ele>
        <time>2016-05-29T09:56:35.000Z</time>
      </trkpt>
      <trkpt lat="49.34108" lon="-0.50871">
        <ele>2.4</ele>
        <time>2016-05-29T09:56:43.000Z</time>
      </trkpt>
      <trkpt lat="49.34117" lon="-0.50868">
        <ele>2.3</ele>
        <time>2016-05-29T09:56:53.000Z</time>
      </trkpt>
      <trkpt lat="49.34126" lon="-0.50859">
        <ele>2.2</ele>
        <time>2016-05-29T09:57:03.000Z</time>
      </trkpt>
      <trkpt lat="49.34134" lon="-0.50853">
        <ele>1.9</ele>
        <time>2016-05-29T09:57:13.000Z</time>
      </trkpt>
      <trkpt lat="49.34143" lon="-0.50848">
        <ele>1.6</ele>
        <time>2016-05-29T09:57:28.000Z</time>
      </trkpt>
      <trkpt lat="49.34151" lon="-0.50839">
        <ele>1.7</ele>
        <time>2016-05-29T09:57:36.000Z</time>
      </trkpt>
      <trkpt lat="49.34158" lon="-0.50828">
        <ele>1.7</ele>
        <time>2016-05-29T09:57:44.000Z</time>
      </trkpt>
      <trkpt lat="49.34165" lon="-0.50819">
        <ele>1.8</ele>
        <time>2016-05-29T09:57:51.000Z</time>
      </trkpt>
      <trkpt lat="49.34172" lon="-0.50808">
        <ele>1.6</ele>
        <time>2016-05-29T09:58:00.000Z</time>
      </trkpt>
      <trkpt lat="49.34179" lon="-0.50797">
        <ele>1.5</ele>
        <time>2016-05-29T09:58:08.000Z</time>
      </trkpt>
      <trkpt lat="49.34188" lon="-0.50789">
        <ele>1.4</ele>
        <time>2016-05-29T09:58:15.000Z</time>
      </trkpt>
      <trkpt lat="49.34195" lon="-0.50779">
        <ele>1.5</ele>
        <time>2016-05-29T09:58:22.000Z</time>
      </trkpt>
      <trkpt lat="49.34203" lon="-0.5077">
        <ele>1.6</ele>
        <time>2016-05-29T09:58:30.000Z</time>
      </trkpt>
      <trkpt lat="49.34211" lon="-0.50761">
        <ele>1.6</ele>
        <time>2016-05-29T09:58:39.000Z</time>
      </trkpt>
      <trkpt lat="49.34218" lon="-0.50751">
        <ele>1.3</ele>
        <time>2016-05-29T09:58:50.000Z</time>
      </trkpt>
      <trkpt lat="49.34225" lon="-0.50741">
        <ele>1.2</ele>
        <time>2016-05-29T09:59:00.000Z</time>
      </trkpt>
      <trkpt lat="49.34233" lon="-0.50733">
        <ele>1.1</ele>
        <time>2016-05-29T09:59:08.000Z</time>
      </trkpt>
      <trkpt lat="49.34241" lon="-0.50725">
        <ele>1.1</ele>
        <time>2016-05-29T09:59:16.000Z</time>
      </trkpt>
      <trkpt lat="49.34249" lon="-0.50717">
        <ele>1</ele>
        <time>2016-05-29T09:59:26.000Z</time>
      </trkpt>
      <trkpt lat="49.34258" lon="-0.50723">
        <ele>1.2</ele>
        <time>2016-05-29T10:00:00.000Z</time>
      </trkpt>
      <trkpt lat="49.34266" lon="-0.50714">
        <ele>1.3</ele>
        <time>2016-05-29T10:00:14.000Z</time>
      </trkpt>
      <trkpt lat="49.34272" lon="-0.50702">
        <ele>1.2</ele>
        <time>2016-05-29T10:00:23.000Z</time>
      </trkpt>
      <trkpt lat="49.3428" lon="-0.50693">
        <ele>1</ele>
        <time>2016-05-29T10:00:32.000Z</time>
      </trkpt>
      <trkpt lat="49.34288" lon="-0.50686">
        <ele>0.9</ele>
        <time>2016-05-29T10:00:40.000Z</time>
      </trkpt>
      <trkpt lat="49.34297" lon="-0.50682">
        <ele>0.8</ele>
        <time>2016-05-29T10:00:48.000Z</time>
      </trkpt>
      <trkpt lat="49.34305" lon="-0.50676">
        <ele>0.8</ele>
        <time>2016-05-29T10:00:56.000Z</time>
      </trkpt>
      <trkpt lat="49.34314" lon="-0.50668">
        <ele>1</ele>
        <time>2016-05-29T10:01:05.000Z</time>
      </trkpt>
      <trkpt lat="49.34322" lon="-0.50661">
        <ele>1.1</ele>
        <time>2016-05-29T10:01:13.000Z</time>
      </trkpt>
      <trkpt lat="49.34331" lon="-0.50655">
        <ele>1</ele>
        <time>2016-05-29T10:01:21.000Z</time>
      </trkpt>
      <trkpt lat="49.34339" lon="-0.50647">
        <ele>0.9</ele>
        <time>2016-05-29T10:01:29.000Z</time>
      </trkpt>
      <trkpt lat="49.34347" lon="-0.5064">
        <ele>0.6</ele>
        <time>2016-05-29T10:01:36.000Z</time>
      </trkpt>
      <trkpt lat="49.34355" lon="-0.50633">
        <ele>0.7</ele>
        <time>2016-05-29T10:01:44.000Z</time>
      </trkpt>
      <trkpt lat="49.34363" lon="-0.50625">
        <ele>0.7</ele>
        <time>2016-05-29T10:01:54.000Z</time>
      </trkpt>
      <trkpt lat="49.34371" lon="-0.50617">
        <ele>1</ele>
        <time>2016-05-29T10:02:04.000Z</time>
      </trkpt>
      <trkpt lat="49.34379" lon="-0.5061">
        <ele>0.8</ele>
        <time>2016-05-29T10:04:31.000Z</time>
      </trkpt>
      <trkpt lat="49.34388" lon="-0.50607">
        <ele>0.8</ele>
        <time>2016-05-29T10:04:42.000Z</time>
      </trkpt>
      <trkpt lat="49.34379" lon="-0.5061">
        <ele>1.1</ele>
        <time>2016-05-29T10:05:00.000Z</time>
      </trkpt>
      <trkpt lat="49.34372" lon="-0.506">
        <ele>0.9</ele>
        <time>2016-05-29T10:05:15.000Z</time>
      </trkpt>
      <trkpt lat="49.34378" lon="-0.5061">
        <ele>0.2</ele>
        <time>2016-05-29T10:07:17.000Z</time>
      </trkpt>
      <trkpt lat="49.34387" lon="-0.50614">
        <ele>0.3</ele>
        <time>2016-05-29T10:07:24.000Z</time>
      </trkpt>
      <trkpt lat="49.34395" lon="-0.50621">
        <ele>0.5</ele>
        <time>2016-05-29T10:07:31.000Z</time>
      </trkpt>
      <trkpt lat="49.34399" lon="-0.50635">
        <ele>0.8</ele>
        <time>2016-05-29T10:07:38.000Z</time>
      </trkpt>
      <trkpt lat="49.34404" lon="-0.50649">
        <ele>0.6</ele>
        <time>2016-05-29T10:07:45.000Z</time>
      </trkpt>
      <trkpt lat="49.34409" lon="-0.50662">
        <ele>0.7</ele>
        <time>2016-05-29T10:07:52.000Z</time>
      </trkpt>
      <trkpt lat="49.3441" lon="-0.50676">
        <ele>0.9</ele>
        <time>2016-05-29T10:07:58.000Z</time>
      </trkpt>
      <trkpt lat="49.34411" lon="-0.50692">
        <ele>0.9</ele>
        <time>2016-05-29T10:08:05.000Z</time>
      </trkpt>
      <trkpt lat="49.34413" lon="-0.50707">
        <ele>1.1</ele>
        <time>2016-05-29T10:08:12.000Z</time>
      </trkpt>
      <trkpt lat="49.34414" lon="-0.50722">
        <ele>1.2</ele>
        <time>2016-05-29T10:08:18.000Z</time>
      </trkpt>
      <trkpt lat="49.34415" lon="-0.50736">
        <ele>1.2</ele>
        <time>2016-05-29T10:08:24.000Z</time>
      </trkpt>
      <trkpt lat="49.34416" lon="-0.5075">
        <ele>1.2</ele>
        <time>2016-05-29T10:08:30.000Z</time>
      </trkpt>
      <trkpt lat="49.34417" lon="-0.50765">
        <ele>1.7</ele>
        <time>2016-05-29T10:08:37.000Z</time>
      </trkpt>
      <trkpt lat="49.34418" lon="-0.50781">
        <ele>1.7</ele>
        <time>2016-05-29T10:08:44.000Z</time>
      </trkpt>
      <trkpt lat="49.34421" lon="-0.50795">
        <ele>1.4</ele>
        <time>2016-05-29T10:08:51.000Z</time>
      </trkpt>
      <trkpt lat="49.34423" lon="-0.5081">
        <ele>1.2</ele>
        <time>2016-05-29T10:08:58.000Z</time>
      </trkpt>
      <trkpt lat="49.34425" lon="-0.50824">
        <ele>1.4</ele>
        <time>2016-05-29T10:09:05.000Z</time>
      </trkpt>
      <trkpt lat="49.34427" lon="-0.50839">
        <ele>1.5</ele>
        <time>2016-05-29T10:09:12.000Z</time>
      </trkpt>
      <trkpt lat="49.34428" lon="-0.50853">
        <ele>1.5</ele>
        <time>2016-05-29T10:09:18.000Z</time>
      </trkpt>
      <trkpt lat="49.34429" lon="-0.50869">
        <ele>1.4</ele>
        <time>2016-05-29T10:09:25.000Z</time>
      </trkpt>
      <trkpt lat="49.34431" lon="-0.50883">
        <ele>1.3</ele>
        <time>2016-05-29T10:09:32.000Z</time>
      </trkpt>
      <trkpt lat="49.34433" lon="-0.50897">
        <ele>1.3</ele>
        <time>2016-05-29T10:09:39.000Z</time>
      </trkpt>
      <trkpt lat="49.34434" lon="-0.50912">
        <ele>1.3</ele>
        <time>2016-05-29T10:09:46.000Z</time>
      </trkpt>
      <trkpt lat="49.34435" lon="-0.50927">
        <ele>1.3</ele>
        <time>2016-05-29T10:09:53.000Z</time>
      </trkpt>
      <trkpt lat="49.34437" lon="-0.50942">
        <ele>1.2</ele>
        <time>2016-05-29T10:10:00.000Z</time>
      </trkpt>
      <trkpt lat="49.34438" lon="-0.50957">
        <ele>1.5</ele>
        <time>2016-05-29T10:10:07.000Z</time>
      </trkpt>
      <trkpt lat="49.3444" lon="-0.50973">
        <ele>1.6</ele>
        <time>2016-05-29T10:10:14.000Z</time>
      </trkpt>
      <trkpt lat="49.34442" lon="-0.50988">
        <ele>1.7</ele>
        <time>2016-05-29T10:10:21.000Z</time>
      </trkpt>
      <trkpt lat="49.34444" lon="-0.51003">
        <ele>1.9</ele>
        <time>2016-05-29T10:10:29.000Z</time>
      </trkpt>
      <trkpt lat="49.34446" lon="-0.51018">
        <ele>1.9</ele>
        <time>2016-05-29T10:10:36.000Z</time>
      </trkpt>
      <trkpt lat="49.34448" lon="-0.51033">
        <ele>1.9</ele>
        <time>2016-05-29T10:10:43.000Z</time>
      </trkpt>
      <trkpt lat="49.34449" lon="-0.51047">
        <ele>1.9</ele>
        <time>2016-05-29T10:10:50.000Z</time>
      </trkpt>
      <trkpt lat="49.34451" lon="-0.51063">
        <ele>1.8</ele>
        <time>2016-05-29T10:10:57.000Z</time>
      </trkpt>
      <trkpt lat="49.34453" lon="-0.51078">
        <ele>1.6</ele>
        <time>2016-05-29T10:11:05.000Z</time>
      </trkpt>
      <trkpt lat="49.34455" lon="-0.51093">
        <ele>1.6</ele>
        <time>2016-05-29T10:11:12.000Z</time>
      </trkpt>
      <trkpt lat="49.34455" lon="-0.51109">
        <ele>1.6</ele>
        <time>2016-05-29T10:11:19.000Z</time>
      </trkpt>
      <trkpt lat="49.34457" lon="-0.51124">
        <ele>1.7</ele>
        <time>2016-05-29T10:11:26.000Z</time>
      </trkpt>
      <trkpt lat="49.34458" lon="-0.51138">
        <ele>1.8</ele>
        <time>2016-05-29T10:11:32.000Z</time>
      </trkpt>
      <trkpt lat="49.34459" lon="-0.51152">
        <ele>1.9</ele>
        <time>2016-05-29T10:11:38.000Z</time>
      </trkpt>
      <trkpt lat="49.34461" lon="-0.51168">
        <ele>2</ele>
        <time>2016-05-29T10:11:45.000Z</time>
      </trkpt>
      <trkpt lat="49.34462" lon="-0.51182">
        <ele>2</ele>
        <time>2016-05-29T10:11:51.000Z</time>
      </trkpt>
      <trkpt lat="49.34464" lon="-0.51197">
        <ele>2</ele>
        <time>2016-05-29T10:11:58.000Z</time>
      </trkpt>
      <trkpt lat="49.34466" lon="-0.51212">
        <ele>1.7</ele>
        <time>2016-05-29T10:12:05.000Z</time>
      </trkpt>
      <trkpt lat="49.34468" lon="-0.51227">
        <ele>1.5</ele>
        <time>2016-05-29T10:12:13.000Z</time>
      </trkpt>
      <trkpt lat="49.34469" lon="-0.51241">
        <ele>1.3</ele>
        <time>2016-05-29T10:12:21.000Z</time>
      </trkpt>
      <trkpt lat="49.34471" lon="-0.51256">
        <ele>1.3</ele>
        <time>2016-05-29T10:12:29.000Z</time>
      </trkpt>
      <trkpt lat="49.34472" lon="-0.5127">
        <ele>1.2</ele>
        <time>2016-05-29T10:12:37.000Z</time>
      </trkpt>
      <trkpt lat="49.34474" lon="-0.51285">
        <ele>0.8</ele>
        <time>2016-05-29T10:12:46.000Z</time>
      </trkpt>
      <trkpt lat="49.34477" lon="-0.51299">
        <ele>0.9</ele>
        <time>2016-05-29T10:12:54.000Z</time>
      </trkpt>
      <trkpt lat="49.34478" lon="-0.51313">
        <ele>1.1</ele>
        <time>2016-05-29T10:13:01.000Z</time>
      </trkpt>
      <trkpt lat="49.3448" lon="-0.51327">
        <ele>1.3</ele>
        <time>2016-05-29T10:13:08.000Z</time>
      </trkpt>
      <trkpt lat="49.34483" lon="-0.51341">
        <ele>1.2</ele>
        <time>2016-05-29T10:13:16.000Z</time>
      </trkpt>
      <trkpt lat="49.34484" lon="-0.51356">
        <ele>1.1</ele>
        <time>2016-05-29T10:13:24.000Z</time>
      </trkpt>
      <trkpt lat="49.34486" lon="-0.51371">
        <ele>1.4</ele>
        <time>2016-05-29T10:13:32.000Z</time>
      </trkpt>
      <trkpt lat="49.34488" lon="-0.51386">
        <ele>1.6</ele>
        <time>2016-05-29T10:13:39.000Z</time>
      </trkpt>
      <trkpt lat="49.34489" lon="-0.51401">
        <ele>1.5</ele>
        <time>2016-05-29T10:13:47.000Z</time>
      </trkpt>
      <trkpt lat="49.34489" lon="-0.51416">
        <ele>1.4</ele>
        <time>2016-05-29T10:13:55.000Z</time>
      </trkpt>
      <trkpt lat="49.34491" lon="-0.51431">
        <ele>1.5</ele>
        <time>2016-05-29T10:14:03.000Z</time>
      </trkpt>
      <trkpt lat="49.34492" lon="-0.51444">
        <ele>1.6</ele>
        <time>2016-05-29T10:14:10.000Z</time>
      </trkpt>
      <trkpt lat="49.34494" lon="-0.51459">
        <ele>1.6</ele>
        <time>2016-05-29T10:14:18.000Z</time>
      </trkpt>
      <trkpt lat="49.34495" lon="-0.51474">
        <ele>1.7</ele>
        <time>2016-05-29T10:14:26.000Z</time>
      </trkpt>
      <trkpt lat="49.34493" lon="-0.51487">
        <ele>1.3</ele>
        <time>2016-05-29T10:15:02.000Z</time>
      </trkpt>
      <trkpt lat="49.34487" lon="-0.51498">
        <ele>1.4</ele>
        <time>2016-05-29T10:15:11.000Z</time>
      </trkpt>
      <trkpt lat="49.34492" lon="-0.51511">
        <ele>0.9</ele>
        <time>2016-05-29T10:15:50.000Z</time>
      </trkpt>
      <trkpt lat="49.34497" lon="-0.51522">
        <ele>0.8</ele>
        <time>2016-05-29T10:16:02.000Z</time>
      </trkpt>
      <trkpt lat="49.34491" lon="-0.51511">
        <ele>0.2</ele>
        <time>2016-05-29T10:18:57.000Z</time>
      </trkpt>
      <trkpt lat="49.34495" lon="-0.51524">
        <ele>1.2</ele>
        <time>2016-05-29T10:20:32.000Z</time>
      </trkpt>
      <trkpt lat="49.34494" lon="-0.5151">
        <ele>0.8</ele>
        <time>2016-05-29T10:21:43.000Z</time>
      </trkpt>
      <trkpt lat="49.3449" lon="-0.51497">
        <ele>1.1</ele>
        <time>2016-05-29T10:24:01.000Z</time>
      </trkpt>
      <trkpt lat="49.34491" lon="-0.51511">
        <ele>0.8</ele>
        <time>2016-05-29T10:25:50.000Z</time>
      </trkpt>
      <trkpt lat="49.34491" lon="-0.51525">
        <ele>0.7</ele>
        <time>2016-05-29T10:26:12.000Z</time>
      </trkpt>
      <trkpt lat="49.34489" lon="-0.51512">
        <ele>1.2</ele>
        <time>2016-05-29T10:27:07.000Z</time>
      </trkpt>
      <trkpt lat="49.34491" lon="-0.51527">
        <ele>1</ele>
        <time>2016-05-29T10:28:44.000Z</time>
      </trkpt>
      <trkpt lat="49.34491" lon="-0.51512">
        <ele>1.1</ele>
        <time>2016-05-29T10:29:16.000Z</time>
      </trkpt>
      <trkpt lat="49.34497" lon="-0.51502">
        <ele>1.1</ele>
        <time>2016-05-29T10:29:34.000Z</time>
      </trkpt>
      <trkpt lat="49.34492" lon="-0.51514">
        <ele>-0.6</ele>
        <time>2016-05-29T10:32:47.000Z</time>
      </trkpt>
      <trkpt lat="49.34491" lon="-0.515">
        <ele>-0.2</ele>
        <time>2016-05-29T10:34:08.000Z</time>
      </trkpt>
      <trkpt lat="49.34489" lon="-0.51513">
        <ele>-0.1</ele>
        <time>2016-05-29T10:42:45.000Z</time>
      </trkpt>
      <trkpt lat="49.34495" lon="-0.51503">
        <ele>0.3</ele>
        <time>2016-05-29T10:47:03.000Z</time>
      </trkpt>
      <trkpt lat="49.3449" lon="-0.51515">
        <ele>1</ele>
        <time>2016-05-29T11:01:05.000Z</time>
      </trkpt>
      <trkpt lat="49.34497" lon="-0.51525">
        <ele>0.7</ele>
        <time>2016-05-29T11:02:32.000Z</time>
      </trkpt>
      <trkpt lat="49.345" lon="-0.51538">
        <ele>1</ele>
        <time>2016-05-29T11:03:32.000Z</time>
      </trkpt>
      <trkpt lat="49.34503" lon="-0.51551">
        <ele>0.9</ele>
        <time>2016-05-29T11:03:52.000Z</time>
      </trkpt>
      <trkpt lat="49.345" lon="-0.51565">
        <ele>0.9</ele>
        <time>2016-05-29T11:04:15.000Z</time>
      </trkpt>
      <trkpt lat="49.34503" lon="-0.5158">
        <ele>1.1</ele>
        <time>2016-05-29T11:04:31.000Z</time>
      </trkpt>
      <trkpt lat="49.34506" lon="-0.51593">
        <ele>1</ele>
        <time>2016-05-29T11:04:43.000Z</time>
      </trkpt>
      <trkpt lat="49.34508" lon="-0.51607">
        <ele>1.1</ele>
        <time>2016-05-29T11:04:51.000Z</time>
      </trkpt>
      <trkpt lat="49.34509" lon="-0.51622">
        <ele>0.9</ele>
        <time>2016-05-29T11:04:59.000Z</time>
      </trkpt>
      <trkpt lat="49.34511" lon="-0.51637">
        <ele>0.8</ele>
        <time>2016-05-29T11:05:07.000Z</time>
      </trkpt>
      <trkpt lat="49.34513" lon="-0.51652">
        <ele>0.7</ele>
        <time>2016-05-29T11:05:17.000Z</time>
      </trkpt>
      <trkpt lat="49.34511" lon="-0.51666">
        <ele>0.8</ele>
        <time>2016-05-29T11:05:24.000Z</time>
      </trkpt>
      <trkpt lat="49.34512" lon="-0.5168">
        <ele>0.7</ele>
        <time>2016-05-29T11:05:33.000Z</time>
      </trkpt>
      <trkpt lat="49.34513" lon="-0.51694">
        <ele>0.6</ele>
        <time>2016-05-29T11:05:41.000Z</time>
      </trkpt>
      <trkpt lat="49.34513" lon="-0.51709">
        <ele>0.5</ele>
        <time>2016-05-29T11:05:53.000Z</time>
      </trkpt>
      <trkpt lat="49.34516" lon="-0.51724">
        <ele>0.5</ele>
        <time>2016-05-29T11:06:02.000Z</time>
      </trkpt>
      <trkpt lat="49.34519" lon="-0.51739">
        <ele>0.4</ele>
        <time>2016-05-29T11:06:10.000Z</time>
      </trkpt>
      <trkpt lat="49.34517" lon="-0.51753">
        <ele>0.4</ele>
        <time>2016-05-29T11:06:18.000Z</time>
      </trkpt>
      <trkpt lat="49.34517" lon="-0.51767">
        <ele>0.4</ele>
        <time>2016-05-29T11:06:26.000Z</time>
      </trkpt>
      <trkpt lat="49.34517" lon="-0.51781">
        <ele>0.2</ele>
        <time>2016-05-29T11:06:37.000Z</time>
      </trkpt>
      <trkpt lat="49.34522" lon="-0.51793">
        <ele>0.1</ele>
        <time>2016-05-29T11:06:46.000Z</time>
      </trkpt>
      <trkpt lat="49.34522" lon="-0.51807">
        <ele>0.2</ele>
        <time>2016-05-29T11:06:57.000Z</time>
      </trkpt>
      <trkpt lat="49.34523" lon="-0.51821">
        <ele>0.3</ele>
        <time>2016-05-29T11:07:07.000Z</time>
      </trkpt>
      <trkpt lat="49.34523" lon="-0.51835">
        <ele>0.3</ele>
        <time>2016-05-29T11:07:13.000Z</time>
      </trkpt>
      <trkpt lat="49.34521" lon="-0.51849">
        <ele>0.4</ele>
        <time>2016-05-29T11:07:19.000Z</time>
      </trkpt>
      <trkpt lat="49.34519" lon="-0.51862">
        <ele>0.6</ele>
        <time>2016-05-29T11:07:27.000Z</time>
      </trkpt>
      <trkpt lat="49.34519" lon="-0.51877">
        <ele>0.6</ele>
        <time>2016-05-29T11:07:37.000Z</time>
      </trkpt>
      <trkpt lat="49.34514" lon="-0.51891">
        <ele>0.4</ele>
        <time>2016-05-29T11:07:45.000Z</time>
      </trkpt>
      <trkpt lat="49.34515" lon="-0.51906">
        <ele>0.3</ele>
        <time>2016-05-29T11:07:56.000Z</time>
      </trkpt>
      <trkpt lat="49.34516" lon="-0.5192">
        <ele>0.4</ele>
        <time>2016-05-29T11:08:06.000Z</time>
      </trkpt>
      <trkpt lat="49.34518" lon="-0.51935">
        <ele>0.4</ele>
        <time>2016-05-29T11:08:18.000Z</time>
      </trkpt>
      <trkpt lat="49.34517" lon="-0.5195">
        <ele>0.6</ele>
        <time>2016-05-29T11:08:25.000Z</time>
      </trkpt>
      <trkpt lat="49.34521" lon="-0.51963">
        <ele>0.5</ele>
        <time>2016-05-29T11:08:34.000Z</time>
      </trkpt>
      <trkpt lat="49.34521" lon="-0.51977">
        <ele>0.4</ele>
        <time>2016-05-29T11:08:45.000Z</time>
      </trkpt>
      <trkpt lat="49.34522" lon="-0.51991">
        <ele>0.4</ele>
        <time>2016-05-29T11:08:55.000Z</time>
      </trkpt>
      <trkpt lat="49.34523" lon="-0.52006">
        <ele>0.3</ele>
        <time>2016-05-29T11:09:02.000Z</time>
      </trkpt>
      <trkpt lat="49.34524" lon="-0.52021">
        <ele>0.3</ele>
        <time>2016-05-29T11:09:10.000Z</time>
      </trkpt>
      <trkpt lat="49.34524" lon="-0.52036">
        <ele>0.2</ele>
        <time>2016-05-29T11:09:21.000Z</time>
      </trkpt>
      <trkpt lat="49.34524" lon="-0.5205">
        <ele>0.1</ele>
        <time>2016-05-29T11:09:28.000Z</time>
      </trkpt>
      <trkpt lat="49.34525" lon="-0.52064">
        <ele>0.1</ele>
        <time>2016-05-29T11:09:36.000Z</time>
      </trkpt>
      <trkpt lat="49.34526" lon="-0.52079">
        <ele>0.1</ele>
        <time>2016-05-29T11:09:45.000Z</time>
      </trkpt>
      <trkpt lat="49.34529" lon="-0.52094">
        <ele>0.1</ele>
        <time>2016-05-29T11:09:56.000Z</time>
      </trkpt>
      <trkpt lat="49.34529" lon="-0.52109">
        <ele>0.1</ele>
        <time>2016-05-29T11:10:05.000Z</time>
      </trkpt>
      <trkpt lat="49.34529" lon="-0.52123">
        <ele>0.3</ele>
        <time>2016-05-29T11:10:13.000Z</time>
      </trkpt>
      <trkpt lat="49.34529" lon="-0.52138">
        <ele>0.4</ele>
        <time>2016-05-29T11:10:20.000Z</time>
      </trkpt>
      <trkpt lat="49.34531" lon="-0.52152">
        <ele>0.3</ele>
        <time>2016-05-29T11:10:29.000Z</time>
      </trkpt>
      <trkpt lat="49.34532" lon="-0.52166">
        <ele>0.1</ele>
        <time>2016-05-29T11:10:39.000Z</time>
      </trkpt>
      <trkpt lat="49.34531" lon="-0.5218">
        <ele>0.1</ele>
        <time>2016-05-29T11:10:47.000Z</time>
      </trkpt>
      <trkpt lat="49.34531" lon="-0.52195">
        <ele>0.1</ele>
        <time>2016-05-29T11:10:55.000Z</time>
      </trkpt>
      <trkpt lat="49.34534" lon="-0.52209">
        <ele>0.2</ele>
        <time>2016-05-29T11:11:05.000Z</time>
      </trkpt>
      <trkpt lat="49.34533" lon="-0.52224">
        <ele>0.3</ele>
        <time>2016-05-29T11:11:13.000Z</time>
      </trkpt>
      <trkpt lat="49.34535" lon="-0.52238">
        <ele>0.2</ele>
        <time>2016-05-29T11:11:23.000Z</time>
      </trkpt>
      <trkpt lat="49.34534" lon="-0.52253">
        <ele>4.4</ele>
        <time>2016-05-29T11:11:32.000Z</time>
      </trkpt>
      <trkpt lat="49.34535" lon="-0.52267">
        <ele>0.3</ele>
        <time>2016-05-29T11:11:41.000Z</time>
      </trkpt>
      <trkpt lat="49.34538" lon="-0.5228">
        <ele>0.4</ele>
        <time>2016-05-29T11:11:49.000Z</time>
      </trkpt>
      <trkpt lat="49.34539" lon="-0.52296">
        <ele>0.5</ele>
        <time>2016-05-29T11:11:57.000Z</time>
      </trkpt>
      <trkpt lat="49.3454" lon="-0.5231">
        <ele>0.4</ele>
        <time>2016-05-29T11:12:06.000Z</time>
      </trkpt>
      <trkpt lat="49.34539" lon="-0.52324">
        <ele>0.6</ele>
        <time>2016-05-29T11:12:15.000Z</time>
      </trkpt>
      <trkpt lat="49.34538" lon="-0.52338">
        <ele>0.2</ele>
        <time>2016-05-29T11:12:26.000Z</time>
      </trkpt>
      <trkpt lat="49.34537" lon="-0.52353">
        <ele>4</ele>
        <time>2016-05-29T11:12:35.000Z</time>
      </trkpt>
      <trkpt lat="49.34535" lon="-0.52367">
        <ele>0.1</ele>
        <time>2016-05-29T11:12:49.000Z</time>
      </trkpt>
      <trkpt lat="49.34536" lon="-0.52382">
        <ele>4.1</ele>
        <time>2016-05-29T11:12:57.000Z</time>
      </trkpt>
      <trkpt lat="49.34538" lon="-0.52397">
        <ele>-0.1</ele>
        <time>2016-05-29T11:13:05.000Z</time>
      </trkpt>
      <trkpt lat="49.3454" lon="-0.52412">
        <ele>3.7</ele>
        <time>2016-05-29T11:13:13.000Z</time>
      </trkpt>
      <trkpt lat="49.3454" lon="-0.52427">
        <ele>3.7</ele>
        <time>2016-05-29T11:13:20.000Z</time>
      </trkpt>
      <trkpt lat="49.3454" lon="-0.52442">
        <ele>0.1</ele>
        <time>2016-05-29T11:13:30.000Z</time>
      </trkpt>
      <trkpt lat="49.3454" lon="-0.52456">
        <ele>0.1</ele>
        <time>2016-05-29T11:13:39.000Z</time>
      </trkpt>
      <trkpt lat="49.34541" lon="-0.52471">
        <ele>0.2</ele>
        <time>2016-05-29T11:13:50.000Z</time>
      </trkpt>
      <trkpt lat="49.34544" lon="-0.52485">
        <ele>0.2</ele>
        <time>2016-05-29T11:14:00.000Z</time>
      </trkpt>
      <trkpt lat="49.34542" lon="-0.52499">
        <ele>3.5</ele>
        <time>2016-05-29T11:14:07.000Z</time>
      </trkpt>
      <trkpt lat="49.34545" lon="-0.52513">
        <ele>3.1</ele>
        <time>2016-05-29T11:14:18.000Z</time>
      </trkpt>
      <trkpt lat="49.34545" lon="-0.52527">
        <ele>-0.3</ele>
        <time>2016-05-29T11:14:27.000Z</time>
      </trkpt>
      <trkpt lat="49.34544" lon="-0.52541">
        <ele>-0.4</ele>
        <time>2016-05-29T11:14:36.000Z</time>
      </trkpt>
      <trkpt lat="49.34545" lon="-0.52555">
        <ele>-0.2</ele>
        <time>2016-05-29T11:14:44.000Z</time>
      </trkpt>
      <trkpt lat="49.34543" lon="-0.52569">
        <ele>-0.2</ele>
        <time>2016-05-29T11:14:52.000Z</time>
      </trkpt>
      <trkpt lat="49.34544" lon="-0.52584">
        <ele>-0.1</ele>
        <time>2016-05-29T11:15:01.000Z</time>
      </trkpt>
      <trkpt lat="49.34544" lon="-0.52598">
        <ele>-0.1</ele>
        <time>2016-05-29T11:15:09.000Z</time>
      </trkpt>
      <trkpt lat="49.34545" lon="-0.52612">
        <ele>-0.1</ele>
        <time>2016-05-29T11:15:18.000Z</time>
      </trkpt>
      <trkpt lat="49.34546" lon="-0.52626">
        <ele>-0.3</ele>
        <time>2016-05-29T11:15:27.000Z</time>
      </trkpt>
      <trkpt lat="49.34547" lon="-0.52641">
        <ele>-0.4</ele>
        <time>2016-05-29T11:15:36.000Z</time>
      </trkpt>
      <trkpt lat="49.34549" lon="-0.52655">
        <ele>-0.4</ele>
        <time>2016-05-29T11:15:46.000Z</time>
      </trkpt>
      <trkpt lat="49.34551" lon="-0.52669">
        <ele>-0.2</ele>
        <time>2016-05-29T11:15:54.000Z</time>
      </trkpt>
      <trkpt lat="49.34553" lon="-0.52683">
        <ele>-0.1</ele>
        <time>2016-05-29T11:16:03.000Z</time>
      </trkpt>
      <trkpt lat="49.34556" lon="-0.52698">
        <ele>-0.4</ele>
        <time>2016-05-29T11:16:11.000Z</time>
      </trkpt>
      <trkpt lat="49.34557" lon="-0.52713">
        <ele>-0.6</ele>
        <time>2016-05-29T11:16:20.000Z</time>
      </trkpt>
      <trkpt lat="49.34558" lon="-0.52727">
        <ele>-0.7</ele>
        <time>2016-05-29T11:16:28.000Z</time>
      </trkpt>
      <trkpt lat="49.34558" lon="-0.52741">
        <ele>-0.8</ele>
        <time>2016-05-29T11:16:36.000Z</time>
      </trkpt>
      <trkpt lat="49.3456" lon="-0.52756">
        <ele>-0.9</ele>
        <time>2016-05-29T11:16:46.000Z</time>
      </trkpt>
      <trkpt lat="49.34561" lon="-0.5277">
        <ele>-1</ele>
        <time>2016-05-29T11:16:55.000Z</time>
      </trkpt>
      <trkpt lat="49.34562" lon="-0.52784">
        <ele>-1.2</ele>
        <time>2016-05-29T11:17:05.000Z</time>
      </trkpt>
      <trkpt lat="49.3456" lon="-0.52798">
        <ele>-1.3</ele>
        <time>2016-05-29T11:17:26.000Z</time>
      </trkpt>
      <trkpt lat="49.34551" lon="-0.52802">
        <ele>-1.6</ele>
        <time>2016-05-29T11:17:37.000Z</time>
      </trkpt>
      <trkpt lat="49.34541" lon="-0.528">
        <ele>-2</ele>
        <time>2016-05-29T11:17:45.000Z</time>
      </trkpt>
      <trkpt lat="49.34532" lon="-0.52798">
        <ele>-1.8</ele>
        <time>2016-05-29T11:17:55.000Z</time>
      </trkpt>
      <trkpt lat="49.34524" lon="-0.52791">
        <ele>-2.9</ele>
        <time>2016-05-29T11:19:37.000Z</time>
      </trkpt>
      <trkpt lat="49.34526" lon="-0.52805">
        <ele>-2.5</ele>
        <time>2016-05-29T11:20:03.000Z</time>
      </trkpt>
      <trkpt lat="49.34528" lon="-0.52819">
        <ele>-2.5</ele>
        <time>2016-05-29T11:20:11.000Z</time>
      </trkpt>
      <trkpt lat="49.34529" lon="-0.52833">
        <ele>-2.4</ele>
        <time>2016-05-29T11:20:18.000Z</time>
      </trkpt>
      <trkpt lat="49.34529" lon="-0.52848">
        <ele>-2.4</ele>
        <time>2016-05-29T11:20:25.000Z</time>
      </trkpt>
      <trkpt lat="49.3453" lon="-0.52861">
        <ele>-2.4</ele>
        <time>2016-05-29T11:20:33.000Z</time>
      </trkpt>
      <trkpt lat="49.34532" lon="-0.52876">
        <ele>-2.4</ele>
        <time>2016-05-29T11:20:43.000Z</time>
      </trkpt>
      <trkpt lat="49.3453" lon="-0.5289">
        <ele>-2.5</ele>
        <time>2016-05-29T11:20:52.000Z</time>
      </trkpt>
      <trkpt lat="49.34535" lon="-0.52904">
        <ele>-2.5</ele>
        <time>2016-05-29T11:21:02.000Z</time>
      </trkpt>
      <trkpt lat="49.34538" lon="-0.52918">
        <ele>-2.7</ele>
        <time>2016-05-29T11:21:12.000Z</time>
      </trkpt>
      <trkpt lat="49.34542" lon="-0.52933">
        <ele>-2.8</ele>
        <time>2016-05-29T11:21:22.000Z</time>
      </trkpt>
      <trkpt lat="49.34541" lon="-0.52948">
        <ele>-2.5</ele>
        <time>2016-05-29T11:21:31.000Z</time>
      </trkpt>
      <trkpt lat="49.34541" lon="-0.52963">
        <ele>-2.2</ele>
        <time>2016-05-29T11:21:39.000Z</time>
      </trkpt>
      <trkpt lat="49.34541" lon="-0.52978">
        <ele>-2.1</ele>
        <time>2016-05-29T11:21:46.000Z</time>
      </trkpt>
      <trkpt lat="49.3454" lon="-0.52992">
        <ele>-2</ele>
        <time>2016-05-29T11:21:53.000Z</time>
      </trkpt>
      <trkpt lat="49.34538" lon="-0.53007">
        <ele>-2</ele>
        <time>2016-05-29T11:22:01.000Z</time>
      </trkpt>
      <trkpt lat="49.34539" lon="-0.53022">
        <ele>-2</ele>
        <time>2016-05-29T11:22:11.000Z</time>
      </trkpt>
      <trkpt lat="49.34541" lon="-0.53035">
        <ele>-2</ele>
        <time>2016-05-29T11:22:18.000Z</time>
      </trkpt>
      <trkpt lat="49.34544" lon="-0.53049">
        <ele>-2</ele>
        <time>2016-05-29T11:22:27.000Z</time>
      </trkpt>
      <trkpt lat="49.34547" lon="-0.53064">
        <ele>-2.1</ele>
        <time>2016-05-29T11:22:35.000Z</time>
      </trkpt>
      <trkpt lat="49.34548" lon="-0.53079">
        <ele>-2.2</ele>
        <time>2016-05-29T11:22:44.000Z</time>
      </trkpt>
      <trkpt lat="49.3455" lon="-0.53094">
        <ele>-2.2</ele>
        <time>2016-05-29T11:22:53.000Z</time>
      </trkpt>
      <trkpt lat="49.34551" lon="-0.53107">
        <ele>-2.2</ele>
        <time>2016-05-29T11:23:01.000Z</time>
      </trkpt>
      <trkpt lat="49.34553" lon="-0.53122">
        <ele>-1.9</ele>
        <time>2016-05-29T11:23:09.000Z</time>
      </trkpt>
      <trkpt lat="49.34554" lon="-0.53136">
        <ele>-1.4</ele>
        <time>2016-05-29T11:23:16.000Z</time>
      </trkpt>
      <trkpt lat="49.34555" lon="-0.53151">
        <ele>-1</ele>
        <time>2016-05-29T11:23:25.000Z</time>
      </trkpt>
      <trkpt lat="49.34548" lon="-0.53161">
        <ele>-0.9</ele>
        <time>2016-05-29T11:23:33.000Z</time>
      </trkpt>
      <trkpt lat="49.34539" lon="-0.53163">
        <ele>-1</ele>
        <time>2016-05-29T11:23:41.000Z</time>
      </trkpt>
      <trkpt lat="49.3453" lon="-0.53165">
        <ele>-1.5</ele>
        <time>2016-05-29T11:23:49.000Z</time>
      </trkpt>
      <trkpt lat="49.34521" lon="-0.53164">
        <ele>-2.2</ele>
        <time>2016-05-29T11:24:00.000Z</time>
      </trkpt>
      <trkpt lat="49.34512" lon="-0.53171">
        <ele>-2.5</ele>
        <time>2016-05-29T11:24:08.000Z</time>
      </trkpt>
      <trkpt lat="49.34513" lon="-0.53185">
        <ele>-2.9</ele>
        <time>2016-05-29T11:24:16.000Z</time>
      </trkpt>
      <trkpt lat="49.34518" lon="-0.53198">
        <ele>-3.2</ele>
        <time>2016-05-29T11:24:27.000Z</time>
      </trkpt>
      <trkpt lat="49.34521" lon="-0.53211">
        <ele>-3.2</ele>
        <time>2016-05-29T11:24:36.000Z</time>
      </trkpt>
      <trkpt lat="49.34524" lon="-0.53224">
        <ele>-3.2</ele>
        <time>2016-05-29T11:24:43.000Z</time>
      </trkpt>
      <trkpt lat="49.34528" lon="-0.53239">
        <ele>-3.4</ele>
        <time>2016-05-29T11:24:50.000Z</time>
      </trkpt>
      <trkpt lat="49.34534" lon="-0.5325">
        <ele>-3.3</ele>
        <time>2016-05-29T11:24:58.000Z</time>
      </trkpt>
      <trkpt lat="49.34538" lon="-0.53262">
        <ele>-3.3</ele>
        <time>2016-05-29T11:25:06.000Z</time>
      </trkpt>
      <trkpt lat="49.3454" lon="-0.53277">
        <ele>-3.2</ele>
        <time>2016-05-29T11:25:13.000Z</time>
      </trkpt>
      <trkpt lat="49.34543" lon="-0.53292">
        <ele>-2.9</ele>
        <time>2016-05-29T11:25:22.000Z</time>
      </trkpt>
      <trkpt lat="49.34544" lon="-0.53306">
        <ele>-2.6</ele>
        <time>2016-05-29T11:25:30.000Z</time>
      </trkpt>
      <trkpt lat="49.34545" lon="-0.5332">
        <ele>-2.6</ele>
        <time>2016-05-29T11:25:38.000Z</time>
      </trkpt>
      <trkpt lat="49.34545" lon="-0.53336">
        <ele>-2.5</ele>
        <time>2016-05-29T11:25:46.000Z</time>
      </trkpt>
      <trkpt lat="49.34545" lon="-0.5335">
        <ele>-2.3</ele>
        <time>2016-05-29T11:25:53.000Z</time>
      </trkpt>
      <trkpt lat="49.34546" lon="-0.53364">
        <ele>-2.2</ele>
        <time>2016-05-29T11:26:02.000Z</time>
      </trkpt>
      <trkpt lat="49.34544" lon="-0.53379">
        <ele>-2.1</ele>
        <time>2016-05-29T11:26:10.000Z</time>
      </trkpt>
      <trkpt lat="49.34543" lon="-0.53394">
        <ele>-2.3</ele>
        <time>2016-05-29T11:26:18.000Z</time>
      </trkpt>
      <trkpt lat="49.34545" lon="-0.53409">
        <ele>-2.5</ele>
        <time>2016-05-29T11:26:26.000Z</time>
      </trkpt>
      <trkpt lat="49.34543" lon="-0.53423">
        <ele>-2.6</ele>
        <time>2016-05-29T11:26:34.000Z</time>
      </trkpt>
      <trkpt lat="49.34542" lon="-0.53437">
        <ele>-2.4</ele>
        <time>2016-05-29T11:26:41.000Z</time>
      </trkpt>
      <trkpt lat="49.34542" lon="-0.53452">
        <ele>-2.3</ele>
        <time>2016-05-29T11:26:48.000Z</time>
      </trkpt>
      <trkpt lat="49.34542" lon="-0.53466">
        <ele>-2.2</ele>
        <time>2016-05-29T11:26:56.000Z</time>
      </trkpt>
      <trkpt lat="49.34541" lon="-0.5348">
        <ele>-2.1</ele>
        <time>2016-05-29T11:27:03.000Z</time>
      </trkpt>
      <trkpt lat="49.3454" lon="-0.53495">
        <ele>-2.1</ele>
        <time>2016-05-29T11:27:10.000Z</time>
      </trkpt>
      <trkpt lat="49.34542" lon="-0.53508">
        <ele>-2.1</ele>
        <time>2016-05-29T11:27:19.000Z</time>
      </trkpt>
      <trkpt lat="49.34543" lon="-0.53523">
        <ele>-2</ele>
        <time>2016-05-29T11:27:27.000Z</time>
      </trkpt>
      <trkpt lat="49.34541" lon="-0.53538">
        <ele>-2</ele>
        <time>2016-05-29T11:27:34.000Z</time>
      </trkpt>
      <trkpt lat="49.34538" lon="-0.53552">
        <ele>-2.3</ele>
        <time>2016-05-29T11:27:43.000Z</time>
      </trkpt>
      <trkpt lat="49.34537" lon="-0.53567">
        <ele>-2.2</ele>
        <time>2016-05-29T11:27:52.000Z</time>
      </trkpt>
      <trkpt lat="49.34537" lon="-0.53581">
        <ele>-2.6</ele>
        <time>2016-05-29T11:28:01.000Z</time>
      </trkpt>
      <trkpt lat="49.34539" lon="-0.53596">
        <ele>-2.8</ele>
        <time>2016-05-29T11:28:09.000Z</time>
      </trkpt>
      <trkpt lat="49.34544" lon="-0.53607">
        <ele>-2.9</ele>
        <time>2016-05-29T11:28:18.000Z</time>
      </trkpt>
      <trkpt lat="49.34548" lon="-0.53621">
        <ele>-2.9</ele>
        <time>2016-05-29T11:28:25.000Z</time>
      </trkpt>
      <trkpt lat="49.34554" lon="-0.53631">
        <ele>-2.6</ele>
        <time>2016-05-29T11:28:33.000Z</time>
      </trkpt>
      <trkpt lat="49.34558" lon="-0.53644">
        <ele>-2.1</ele>
        <time>2016-05-29T11:28:42.000Z</time>
      </trkpt>
      <trkpt lat="49.3456" lon="-0.53659">
        <ele>-1.9</ele>
        <time>2016-05-29T11:28:54.000Z</time>
      </trkpt>
      <trkpt lat="49.34559" lon="-0.53674">
        <ele>-1.7</ele>
        <time>2016-05-29T11:29:02.000Z</time>
      </trkpt>
      <trkpt lat="49.34558" lon="-0.53687">
        <ele>-1.2</ele>
        <time>2016-05-29T11:29:12.000Z</time>
      </trkpt>
      <trkpt lat="49.34556" lon="-0.53702">
        <ele>-1</ele>
        <time>2016-05-29T11:29:21.000Z</time>
      </trkpt>
      <trkpt lat="49.34554" lon="-0.53716">
        <ele>-0.8</ele>
        <time>2016-05-29T11:29:29.000Z</time>
      </trkpt>
      <trkpt lat="49.34552" lon="-0.53731">
        <ele>-0.9</ele>
        <time>2016-05-29T11:29:36.000Z</time>
      </trkpt>
      <trkpt lat="49.34553" lon="-0.53745">
        <ele>-1.4</ele>
        <time>2016-05-29T11:29:44.000Z</time>
      </trkpt>
      <trkpt lat="49.34555" lon="-0.53759">
        <ele>-1.8</ele>
        <time>2016-05-29T11:29:54.000Z</time>
      </trkpt>
      <trkpt lat="49.34556" lon="-0.53773">
        <ele>-2.1</ele>
        <time>2016-05-29T11:30:02.000Z</time>
      </trkpt>
      <trkpt lat="49.34558" lon="-0.53788">
        <ele>-2.3</ele>
        <time>2016-05-29T11:30:11.000Z</time>
      </trkpt>
      <trkpt lat="49.34559" lon="-0.53803">
        <ele>-2.2</ele>
        <time>2016-05-29T11:30:19.000Z</time>
      </trkpt>
      <trkpt lat="49.34559" lon="-0.53818">
        <ele>-2.2</ele>
        <time>2016-05-29T11:30:27.000Z</time>
      </trkpt>
      <trkpt lat="49.34558" lon="-0.53833">
        <ele>-2.1</ele>
        <time>2016-05-29T11:30:35.000Z</time>
      </trkpt>
      <trkpt lat="49.34557" lon="-0.53848">
        <ele>-2</ele>
        <time>2016-05-29T11:30:43.000Z</time>
      </trkpt>
      <trkpt lat="49.34557" lon="-0.53863">
        <ele>-1.9</ele>
        <time>2016-05-29T11:30:51.000Z</time>
      </trkpt>
      <trkpt lat="49.34557" lon="-0.53878">
        <ele>-1.8</ele>
        <time>2016-05-29T11:30:59.000Z</time>
      </trkpt>
      <trkpt lat="49.34557" lon="-0.53893">
        <ele>-1.8</ele>
        <time>2016-05-29T11:31:07.000Z</time>
      </trkpt>
      <trkpt lat="49.34557" lon="-0.53909">
        <ele>-1.9</ele>
        <time>2016-05-29T11:31:15.000Z</time>
      </trkpt>
      <trkpt lat="49.34557" lon="-0.53923">
        <ele>-2</ele>
        <time>2016-05-29T11:31:23.000Z</time>
      </trkpt>
      <trkpt lat="49.34557" lon="-0.53937">
        <ele>-2</ele>
        <time>2016-05-29T11:31:31.000Z</time>
      </trkpt>
      <trkpt lat="49.34555" lon="-0.53951">
        <ele>-2.1</ele>
        <time>2016-05-29T11:31:39.000Z</time>
      </trkpt>
      <trkpt lat="49.34552" lon="-0.53965">
        <ele>-2.1</ele>
        <time>2016-05-29T11:31:48.000Z</time>
      </trkpt>
      <trkpt lat="49.34549" lon="-0.5398">
        <ele>-2.3</ele>
        <time>2016-05-29T11:31:56.000Z</time>
      </trkpt>
      <trkpt lat="49.34548" lon="-0.53994">
        <ele>-2.7</ele>
        <time>2016-05-29T11:32:04.000Z</time>
      </trkpt>
      <trkpt lat="49.34547" lon="-0.54008">
        <ele>-2.9</ele>
        <time>2016-05-29T11:32:12.000Z</time>
      </trkpt>
      <trkpt lat="49.34547" lon="-0.54022">
        <ele>-3.3</ele>
        <time>2016-05-29T11:32:19.000Z</time>
      </trkpt>
      <trkpt lat="49.34547" lon="-0.54037">
        <ele>-3.5</ele>
        <time>2016-05-29T11:32:27.000Z</time>
      </trkpt>
      <trkpt lat="49.34548" lon="-0.54051">
        <ele>-3.5</ele>
        <time>2016-05-29T11:32:35.000Z</time>
      </trkpt>
      <trkpt lat="49.34548" lon="-0.54066">
        <ele>-3.4</ele>
        <time>2016-05-29T11:32:43.000Z</time>
      </trkpt>
      <trkpt lat="49.34549" lon="-0.54081">
        <ele>-3.4</ele>
        <time>2016-05-29T11:32:51.000Z</time>
      </trkpt>
      <trkpt lat="49.34548" lon="-0.54096">
        <ele>-3.7</ele>
        <time>2016-05-29T11:32:59.000Z</time>
      </trkpt>
      <trkpt lat="49.34546" lon="-0.54111">
        <ele>-3.6</ele>
        <time>2016-05-29T11:33:07.000Z</time>
      </trkpt>
      <trkpt lat="49.34545" lon="-0.54126">
        <ele>-3.2</ele>
        <time>2016-05-29T11:33:15.000Z</time>
      </trkpt>
      <trkpt lat="49.34544" lon="-0.54141">
        <ele>-3.1</ele>
        <time>2016-05-29T11:33:23.000Z</time>
      </trkpt>
      <trkpt lat="49.34544" lon="-0.54155">
        <ele>-3.2</ele>
        <time>2016-05-29T11:33:30.000Z</time>
      </trkpt>
      <trkpt lat="49.34544" lon="-0.54169">
        <ele>-3.3</ele>
        <time>2016-05-29T11:33:37.000Z</time>
      </trkpt>
      <trkpt lat="49.34544" lon="-0.54184">
        <ele>-3.4</ele>
        <time>2016-05-29T11:33:45.000Z</time>
      </trkpt>
      <trkpt lat="49.34543" lon="-0.54199">
        <ele>-3.5</ele>
        <time>2016-05-29T11:33:53.000Z</time>
      </trkpt>
      <trkpt lat="49.34543" lon="-0.54213">
        <ele>-3.6</ele>
        <time>2016-05-29T11:34:01.000Z</time>
      </trkpt>
      <trkpt lat="49.34543" lon="-0.54227">
        <ele>-3.7</ele>
        <time>2016-05-29T11:34:09.000Z</time>
      </trkpt>
      <trkpt lat="49.34543" lon="-0.54242">
        <ele>-3.6</ele>
        <time>2016-05-29T11:34:17.000Z</time>
      </trkpt>
      <trkpt lat="49.34544" lon="-0.54257">
        <ele>-3.6</ele>
        <time>2016-05-29T11:34:25.000Z</time>
      </trkpt>
      <trkpt lat="49.34543" lon="-0.54271">
        <ele>-3.6</ele>
        <time>2016-05-29T11:34:33.000Z</time>
      </trkpt>
      <trkpt lat="49.34544" lon="-0.54286">
        <ele>-3.7</ele>
        <time>2016-05-29T11:34:41.000Z</time>
      </trkpt>
      <trkpt lat="49.34544" lon="-0.543">
        <ele>-3.7</ele>
        <time>2016-05-29T11:34:49.000Z</time>
      </trkpt>
      <trkpt lat="49.34542" lon="-0.54315">
        <ele>-3.7</ele>
        <time>2016-05-29T11:34:56.000Z</time>
      </trkpt>
      <trkpt lat="49.34542" lon="-0.5433">
        <ele>-3.5</ele>
        <time>2016-05-29T11:35:04.000Z</time>
      </trkpt>
      <trkpt lat="49.34539" lon="-0.54344">
        <ele>-3.5</ele>
        <time>2016-05-29T11:35:13.000Z</time>
      </trkpt>
      <trkpt lat="49.34533" lon="-0.54354">
        <ele>-3.2</ele>
        <time>2016-05-29T11:35:28.000Z</time>
      </trkpt>
      <trkpt lat="49.34535" lon="-0.54367">
        <ele>-3.3</ele>
        <time>2016-05-29T11:39:51.000Z</time>
      </trkpt>
      <trkpt lat="49.34535" lon="-0.54382">
        <ele>-3.3</ele>
        <time>2016-05-29T11:40:00.000Z</time>
      </trkpt>
      <trkpt lat="49.34535" lon="-0.54396">
        <ele>-3.4</ele>
        <time>2016-05-29T11:40:08.000Z</time>
      </trkpt>
      <trkpt lat="49.34534" lon="-0.54411">
        <ele>-3.6</ele>
        <time>2016-05-29T11:40:16.000Z</time>
      </trkpt>
      <trkpt lat="49.34535" lon="-0.54425">
        <ele>-3.7</ele>
        <time>2016-05-29T11:40:25.000Z</time>
      </trkpt>
      <trkpt lat="49.34535" lon="-0.54439">
        <ele>-3.8</ele>
        <time>2016-05-29T11:40:33.000Z</time>
      </trkpt>
      <trkpt lat="49.34535" lon="-0.54453">
        <ele>-3.8</ele>
        <time>2016-05-29T11:40:40.000Z</time>
      </trkpt>
      <trkpt lat="49.34535" lon="-0.54468">
        <ele>-3.9</ele>
        <time>2016-05-29T11:40:48.000Z</time>
      </trkpt>
      <trkpt lat="49.34536" lon="-0.54483">
        <ele>-3.6</ele>
        <time>2016-05-29T11:40:56.000Z</time>
      </trkpt>
      <trkpt lat="49.34536" lon="-0.54498">
        <ele>-3.5</ele>
        <time>2016-05-29T11:41:04.000Z</time>
      </trkpt>
      <trkpt lat="49.34536" lon="-0.54513">
        <ele>-3.4</ele>
        <time>2016-05-29T11:41:12.000Z</time>
      </trkpt>
      <trkpt lat="49.34536" lon="-0.54527">
        <ele>-4</ele>
        <time>2016-05-29T11:41:20.000Z</time>
      </trkpt>
      <trkpt lat="49.34534" lon="-0.54541">
        <ele>-4.2</ele>
        <time>2016-05-29T11:41:27.000Z</time>
      </trkpt>
      <trkpt lat="49.34534" lon="-0.54556">
        <ele>-4.3</ele>
        <time>2016-05-29T11:41:35.000Z</time>
      </trkpt>
      <trkpt lat="49.34534" lon="-0.5457">
        <ele>-4.2</ele>
        <time>2016-05-29T11:41:43.000Z</time>
      </trkpt>
      <trkpt lat="49.34535" lon="-0.54585">
        <ele>-4.1</ele>
        <time>2016-05-29T11:41:52.000Z</time>
      </trkpt>
      <trkpt lat="49.34534" lon="-0.546">
        <ele>-4.2</ele>
        <time>2016-05-29T11:42:00.000Z</time>
      </trkpt>
      <trkpt lat="49.34534" lon="-0.54614">
        <ele>-4.2</ele>
        <time>2016-05-29T11:42:09.000Z</time>
      </trkpt>
      <trkpt lat="49.34532" lon="-0.54629">
        <ele>-4.3</ele>
        <time>2016-05-29T11:42:16.000Z</time>
      </trkpt>
      <trkpt lat="49.34531" lon="-0.54644">
        <ele>-4.4</ele>
        <time>2016-05-29T11:42:24.000Z</time>
      </trkpt>
      <trkpt lat="49.34531" lon="-0.54659">
        <ele>-4.6</ele>
        <time>2016-05-29T11:42:31.000Z</time>
      </trkpt>
      <trkpt lat="49.3453" lon="-0.54672">
        <ele>-4.6</ele>
        <time>2016-05-29T11:42:39.000Z</time>
      </trkpt>
      <trkpt lat="49.34529" lon="-0.54687">
        <ele>-4.3</ele>
        <time>2016-05-29T11:42:47.000Z</time>
      </trkpt>
      <trkpt lat="49.34529" lon="-0.54702">
        <ele>-4.2</ele>
        <time>2016-05-29T11:42:56.000Z</time>
      </trkpt>
      <trkpt lat="49.34529" lon="-0.54718">
        <ele>-4.2</ele>
        <time>2016-05-29T11:43:06.000Z</time>
      </trkpt>
      <trkpt lat="49.3453" lon="-0.54732">
        <ele>-4.2</ele>
        <time>2016-05-29T11:43:15.000Z</time>
      </trkpt>
      <trkpt lat="49.34529" lon="-0.54747">
        <ele>-4.2</ele>
        <time>2016-05-29T11:43:23.000Z</time>
      </trkpt>
      <trkpt lat="49.3453" lon="-0.54762">
        <ele>-4.2</ele>
        <time>2016-05-29T11:43:31.000Z</time>
      </trkpt>
      <trkpt lat="49.3453" lon="-0.54778">
        <ele>-4.1</ele>
        <time>2016-05-29T11:43:39.000Z</time>
      </trkpt>
      <trkpt lat="49.34531" lon="-0.54793">
        <ele>-4.1</ele>
        <time>2016-05-29T11:43:48.000Z</time>
      </trkpt>
      <trkpt lat="49.3453" lon="-0.54808">
        <ele>-4.1</ele>
        <time>2016-05-29T11:43:55.000Z</time>
      </trkpt>
      <trkpt lat="49.34531" lon="-0.54823">
        <ele>-4.1</ele>
        <time>2016-05-29T11:44:02.000Z</time>
      </trkpt>
      <trkpt lat="49.34531" lon="-0.54837">
        <ele>-4.1</ele>
        <time>2016-05-29T11:44:09.000Z</time>
      </trkpt>
      <trkpt lat="49.3453" lon="-0.54852">
        <ele>-4.1</ele>
        <time>2016-05-29T11:44:16.000Z</time>
      </trkpt>
      <trkpt lat="49.34528" lon="-0.54867">
        <ele>-4.3</ele>
        <time>2016-05-29T11:44:24.000Z</time>
      </trkpt>
      <trkpt lat="49.34527" lon="-0.54881">
        <ele>-3.9</ele>
        <time>2016-05-29T11:44:31.000Z</time>
      </trkpt>
      <trkpt lat="49.34526" lon="-0.54896">
        <ele>-3.9</ele>
        <time>2016-05-29T11:44:38.000Z</time>
      </trkpt>
      <trkpt lat="49.34526" lon="-0.54911">
        <ele>-3.9</ele>
        <time>2016-05-29T11:44:47.000Z</time>
      </trkpt>
      <trkpt lat="49.34527" lon="-0.54925">
        <ele>-4</ele>
        <time>2016-05-29T11:44:55.000Z</time>
      </trkpt>
      <trkpt lat="49.34527" lon="-0.54939">
        <ele>-4</ele>
        <time>2016-05-29T11:45:03.000Z</time>
      </trkpt>
      <trkpt lat="49.34527" lon="-0.54954">
        <ele>-4.1</ele>
        <time>2016-05-29T11:45:11.000Z</time>
      </trkpt>
      <trkpt lat="49.34527" lon="-0.54969">
        <ele>-4.1</ele>
        <time>2016-05-29T11:45:19.000Z</time>
      </trkpt>
      <trkpt lat="49.34525" lon="-0.54983">
        <ele>-4.1</ele>
        <time>2016-05-29T11:45:25.000Z</time>
      </trkpt>
      <trkpt lat="49.34524" lon="-0.54998">
        <ele>-4.1</ele>
        <time>2016-05-29T11:45:33.000Z</time>
      </trkpt>
      <trkpt lat="49.34523" lon="-0.55013">
        <ele>-4.1</ele>
        <time>2016-05-29T11:45:40.000Z</time>
      </trkpt>
      <trkpt lat="49.34522" lon="-0.55027">
        <ele>-4.1</ele>
        <time>2016-05-29T11:45:48.000Z</time>
      </trkpt>
      <trkpt lat="49.34523" lon="-0.55042">
        <ele>-4.1</ele>
        <time>2016-05-29T11:45:58.000Z</time>
      </trkpt>
      <trkpt lat="49.34523" lon="-0.55056">
        <ele>-4</ele>
        <time>2016-05-29T11:46:08.000Z</time>
      </trkpt>
      <trkpt lat="49.34523" lon="-0.55071">
        <ele>-4</ele>
        <time>2016-05-29T11:46:16.000Z</time>
      </trkpt>
      <trkpt lat="49.34531" lon="-0.55076">
        <ele>-3.8</ele>
        <time>2016-05-29T11:46:27.000Z</time>
      </trkpt>
      <trkpt lat="49.3454" lon="-0.55078">
        <ele>-3.6</ele>
        <time>2016-05-29T11:46:35.000Z</time>
      </trkpt>
      <trkpt lat="49.3455" lon="-0.55083">
        <ele>-3.7</ele>
        <time>2016-05-29T11:46:44.000Z</time>
      </trkpt>
      <trkpt lat="49.34558" lon="-0.5509">
        <ele>-3.8</ele>
        <time>2016-05-29T11:46:52.000Z</time>
      </trkpt>
      <trkpt lat="49.34566" lon="-0.551">
        <ele>-4</ele>
        <time>2016-05-29T11:47:02.000Z</time>
      </trkpt>
      <trkpt lat="49.34568" lon="-0.55114">
        <ele>-4.2</ele>
        <time>2016-05-29T11:47:25.000Z</time>
      </trkpt>
      <trkpt lat="49.34573" lon="-0.55127">
        <ele>-4.1</ele>
        <time>2016-05-29T11:47:33.000Z</time>
      </trkpt>
      <trkpt lat="49.34581" lon="-0.55137">
        <ele>-4</ele>
        <time>2016-05-29T11:47:41.000Z</time>
      </trkpt>
      <trkpt lat="49.34589" lon="-0.55143">
        <ele>-3.9</ele>
        <time>2016-05-29T11:47:49.000Z</time>
      </trkpt>
      <trkpt lat="49.34597" lon="-0.55151">
        <ele>-3.5</ele>
        <time>2016-05-29T11:48:00.000Z</time>
      </trkpt>
      <trkpt lat="49.34598" lon="-0.55165">
        <ele>-2.7</ele>
        <time>2016-05-29T11:48:12.000Z</time>
      </trkpt>
      <trkpt lat="49.346" lon="-0.5518">
        <ele>-2.2</ele>
        <time>2016-05-29T11:48:25.000Z</time>
      </trkpt>
      <trkpt lat="49.34601" lon="-0.55195">
        <ele>-2.3</ele>
        <time>2016-05-29T11:48:34.000Z</time>
      </trkpt>
      <trkpt lat="49.34603" lon="-0.55209">
        <ele>-2.3</ele>
        <time>2016-05-29T11:48:42.000Z</time>
      </trkpt>
      <trkpt lat="49.34605" lon="-0.55223">
        <ele>-2.4</ele>
        <time>2016-05-29T11:48:52.000Z</time>
      </trkpt>
      <trkpt lat="49.34604" lon="-0.55236">
        <ele>-2.5</ele>
        <time>2016-05-29T11:49:01.000Z</time>
      </trkpt>
      <trkpt lat="49.34603" lon="-0.55251">
        <ele>-2.5</ele>
        <time>2016-05-29T11:49:09.000Z</time>
      </trkpt>
      <trkpt lat="49.34603" lon="-0.55265">
        <ele>-2.5</ele>
        <time>2016-05-29T11:49:18.000Z</time>
      </trkpt>
      <trkpt lat="49.34602" lon="-0.5528">
        <ele>-2.6</ele>
        <time>2016-05-29T11:49:26.000Z</time>
      </trkpt>
      <trkpt lat="49.346" lon="-0.55294">
        <ele>-2.8</ele>
        <time>2016-05-29T11:49:34.000Z</time>
      </trkpt>
      <trkpt lat="49.346" lon="-0.55308">
        <ele>-2.9</ele>
        <time>2016-05-29T11:49:42.000Z</time>
      </trkpt>
      <trkpt lat="49.346" lon="-0.55323">
        <ele>-3.1</ele>
        <time>2016-05-29T11:49:53.000Z</time>
      </trkpt>
      <trkpt lat="49.346" lon="-0.55338">
        <ele>-3.2</ele>
        <time>2016-05-29T11:50:01.000Z</time>
      </trkpt>
      <trkpt lat="49.346" lon="-0.55352">
        <ele>-3.2</ele>
        <time>2016-05-29T11:50:08.000Z</time>
      </trkpt>
      <trkpt lat="49.346" lon="-0.55366">
        <ele>-3.4</ele>
        <time>2016-05-29T11:50:15.000Z</time>
      </trkpt>
      <trkpt lat="49.34598" lon="-0.55379">
        <ele>-3.5</ele>
        <time>2016-05-29T11:50:22.000Z</time>
      </trkpt>
      <trkpt lat="49.34599" lon="-0.55394">
        <ele>-3.5</ele>
        <time>2016-05-29T11:50:30.000Z</time>
      </trkpt>
      <trkpt lat="49.34598" lon="-0.55408">
        <ele>-3.6</ele>
        <time>2016-05-29T11:50:38.000Z</time>
      </trkpt>
      <trkpt lat="49.34597" lon="-0.55422">
        <ele>-4</ele>
        <time>2016-05-29T11:50:45.000Z</time>
      </trkpt>
      <trkpt lat="49.34596" lon="-0.55436">
        <ele>-4.2</ele>
        <time>2016-05-29T11:50:53.000Z</time>
      </trkpt>
      <trkpt lat="49.34597" lon="-0.5545">
        <ele>-4.3</ele>
        <time>2016-05-29T11:51:01.000Z</time>
      </trkpt>
      <trkpt lat="49.34599" lon="-0.55464">
        <ele>-4.4</ele>
        <time>2016-05-29T11:51:10.000Z</time>
      </trkpt>
      <trkpt lat="49.34603" lon="-0.55477">
        <ele>-4.2</ele>
        <time>2016-05-29T11:51:18.000Z</time>
      </trkpt>
      <trkpt lat="49.34604" lon="-0.55491">
        <ele>-4.1</ele>
        <time>2016-05-29T11:51:26.000Z</time>
      </trkpt>
      <trkpt lat="49.34604" lon="-0.55506">
        <ele>-3.9</ele>
        <time>2016-05-29T11:51:34.000Z</time>
      </trkpt>
      <trkpt lat="49.34603" lon="-0.5552">
        <ele>-3.9</ele>
        <time>2016-05-29T11:51:42.000Z</time>
      </trkpt>
      <trkpt lat="49.34602" lon="-0.55536">
        <ele>-3.8</ele>
        <time>2016-05-29T11:51:50.000Z</time>
      </trkpt>
      <trkpt lat="49.34601" lon="-0.55551">
        <ele>-3.7</ele>
        <time>2016-05-29T11:51:58.000Z</time>
      </trkpt>
      <trkpt lat="49.346" lon="-0.55567">
        <ele>-3.5</ele>
        <time>2016-05-29T11:52:06.000Z</time>
      </trkpt>
      <trkpt lat="49.34601" lon="-0.55581">
        <ele>-3.4</ele>
        <time>2016-05-29T11:52:14.000Z</time>
      </trkpt>
      <trkpt lat="49.34601" lon="-0.55595">
        <ele>-3.1</ele>
        <time>2016-05-29T11:52:23.000Z</time>
      </trkpt>
      <trkpt lat="49.34601" lon="-0.5561">
        <ele>-3</ele>
        <time>2016-05-29T11:52:32.000Z</time>
      </trkpt>
      <trkpt lat="49.346" lon="-0.55625">
        <ele>-3</ele>
        <time>2016-05-29T11:52:40.000Z</time>
      </trkpt>
      <trkpt lat="49.34599" lon="-0.55639">
        <ele>-3</ele>
        <time>2016-05-29T11:52:49.000Z</time>
      </trkpt>
      <trkpt lat="49.34599" lon="-0.55654">
        <ele>-3.1</ele>
        <time>2016-05-29T11:52:57.000Z</time>
      </trkpt>
      <trkpt lat="49.346" lon="-0.55669">
        <ele>-3.2</ele>
        <time>2016-05-29T11:53:06.000Z</time>
      </trkpt>
      <trkpt lat="49.34599" lon="-0.55683">
        <ele>-3.3</ele>
        <time>2016-05-29T11:53:14.000Z</time>
      </trkpt>
      <trkpt lat="49.34597" lon="-0.55697">
        <ele>-3.3</ele>
        <time>2016-05-29T11:53:22.000Z</time>
      </trkpt>
      <trkpt lat="49.34595" lon="-0.55711">
        <ele>-3.3</ele>
        <time>2016-05-29T11:53:30.000Z</time>
      </trkpt>
      <trkpt lat="49.34594" lon="-0.55726">
        <ele>-3.7</ele>
        <time>2016-05-29T11:53:38.000Z</time>
      </trkpt>
      <trkpt lat="49.34593" lon="-0.5574">
        <ele>-4</ele>
        <time>2016-05-29T11:53:46.000Z</time>
      </trkpt>
      <trkpt lat="49.34592" lon="-0.55755">
        <ele>-4.1</ele>
        <time>2016-05-29T11:53:54.000Z</time>
      </trkpt>
      <trkpt lat="49.34591" lon="-0.5577">
        <ele>-4.1</ele>
        <time>2016-05-29T11:54:02.000Z</time>
      </trkpt>
      <trkpt lat="49.34591" lon="-0.55785">
        <ele>-4.1</ele>
        <time>2016-05-29T11:54:11.000Z</time>
      </trkpt>
      <trkpt lat="49.34589" lon="-0.55799">
        <ele>-4.2</ele>
        <time>2016-05-29T11:54:19.000Z</time>
      </trkpt>
      <trkpt lat="49.34588" lon="-0.55814">
        <ele>-4.3</ele>
        <time>2016-05-29T11:54:27.000Z</time>
      </trkpt>
      <trkpt lat="49.34587" lon="-0.55829">
        <ele>-4.2</ele>
        <time>2016-05-29T11:54:35.000Z</time>
      </trkpt>
      <trkpt lat="49.34585" lon="-0.55844">
        <ele>-4.2</ele>
        <time>2016-05-29T11:54:43.000Z</time>
      </trkpt>
      <trkpt lat="49.34583" lon="-0.55858">
        <ele>-4.2</ele>
        <time>2016-05-29T11:54:51.000Z</time>
      </trkpt>
      <trkpt lat="49.34581" lon="-0.55873">
        <ele>-4.1</ele>
        <time>2016-05-29T11:54:59.000Z</time>
      </trkpt>
      <trkpt lat="49.34579" lon="-0.55887">
        <ele>-4.3</ele>
        <time>2016-05-29T11:55:07.000Z</time>
      </trkpt>
      <trkpt lat="49.34577" lon="-0.55901">
        <ele>-4.6</ele>
        <time>2016-05-29T11:55:15.000Z</time>
      </trkpt>
      <trkpt lat="49.34575" lon="-0.55915">
        <ele>-4.7</ele>
        <time>2016-05-29T11:55:23.000Z</time>
      </trkpt>
      <trkpt lat="49.34573" lon="-0.55929">
        <ele>-4.3</ele>
        <time>2016-05-29T11:55:31.000Z</time>
      </trkpt>
      <trkpt lat="49.34572" lon="-0.55943">
        <ele>-4</ele>
        <time>2016-05-29T11:55:39.000Z</time>
      </trkpt>
      <trkpt lat="49.3457" lon="-0.55958">
        <ele>-3.7</ele>
        <time>2016-05-29T11:55:48.000Z</time>
      </trkpt>
      <trkpt lat="49.34567" lon="-0.55972">
        <ele>-3.6</ele>
        <time>2016-05-29T11:55:56.000Z</time>
      </trkpt>
      <trkpt lat="49.34566" lon="-0.55986">
        <ele>-3.2</ele>
        <time>2016-05-29T11:56:04.000Z</time>
      </trkpt>
      <trkpt lat="49.34565" lon="-0.56001">
        <ele>-3</ele>
        <time>2016-05-29T11:56:13.000Z</time>
      </trkpt>
      <trkpt lat="49.34564" lon="-0.56014">
        <ele>-2.9</ele>
        <time>2016-05-29T11:56:22.000Z</time>
      </trkpt>
      <trkpt lat="49.34563" lon="-0.56028">
        <ele>-2.8</ele>
        <time>2016-05-29T11:56:30.000Z</time>
      </trkpt>
      <trkpt lat="49.34559" lon="-0.56043">
        <ele>-2.8</ele>
        <time>2016-05-29T11:56:38.000Z</time>
      </trkpt>
      <trkpt lat="49.34558" lon="-0.56058">
        <ele>-2.7</ele>
        <time>2016-05-29T11:56:46.000Z</time>
      </trkpt>
      <trkpt lat="49.34555" lon="-0.56072">
        <ele>-2.6</ele>
        <time>2016-05-29T11:56:54.000Z</time>
      </trkpt>
      <trkpt lat="49.34552" lon="-0.56086">
        <ele>-2.7</ele>
        <time>2016-05-29T11:57:02.000Z</time>
      </trkpt>
      <trkpt lat="49.34549" lon="-0.561">
        <ele>-2.9</ele>
        <time>2016-05-29T11:57:11.000Z</time>
      </trkpt>
      <trkpt lat="49.34545" lon="-0.56114">
        <ele>-2.9</ele>
        <time>2016-05-29T11:57:18.000Z</time>
      </trkpt>
      <trkpt lat="49.34542" lon="-0.56129">
        <ele>-2.9</ele>
        <time>2016-05-29T11:57:27.000Z</time>
      </trkpt>
      <trkpt lat="49.3454" lon="-0.56145">
        <ele>-3.1</ele>
        <time>2016-05-29T11:57:36.000Z</time>
      </trkpt>
      <trkpt lat="49.34538" lon="-0.56159">
        <ele>-3.1</ele>
        <time>2016-05-29T11:57:43.000Z</time>
      </trkpt>
      <trkpt lat="49.34536" lon="-0.56173">
        <ele>-2.7</ele>
        <time>2016-05-29T11:57:52.000Z</time>
      </trkpt>
      <trkpt lat="49.34534" lon="-0.56187">
        <ele>-2.6</ele>
        <time>2016-05-29T11:58:01.000Z</time>
      </trkpt>
      <trkpt lat="49.3453" lon="-0.56201">
        <ele>-2.6</ele>
        <time>2016-05-29T11:58:09.000Z</time>
      </trkpt>
      <trkpt lat="49.34526" lon="-0.56216">
        <ele>-2.5</ele>
        <time>2016-05-29T11:58:16.000Z</time>
      </trkpt>
      <trkpt lat="49.34524" lon="-0.5623">
        <ele>-2.3</ele>
        <time>2016-05-29T11:58:23.000Z</time>
      </trkpt>
      <trkpt lat="49.34522" lon="-0.56245">
        <ele>-2</ele>
        <time>2016-05-29T11:58:33.000Z</time>
      </trkpt>
      <trkpt lat="49.34519" lon="-0.56258">
        <ele>-1.8</ele>
        <time>2016-05-29T11:58:42.000Z</time>
      </trkpt>
      <trkpt lat="49.34517" lon="-0.56274">
        <ele>-1.8</ele>
        <time>2016-05-29T11:58:51.000Z</time>
      </trkpt>
      <trkpt lat="49.34514" lon="-0.56288">
        <ele>-1.8</ele>
        <time>2016-05-29T11:58:59.000Z</time>
      </trkpt>
      <trkpt lat="49.34511" lon="-0.56301">
        <ele>-1.9</ele>
        <time>2016-05-29T11:59:06.000Z</time>
      </trkpt>
      <trkpt lat="49.34509" lon="-0.56315">
        <ele>-1.9</ele>
        <time>2016-05-29T11:59:13.000Z</time>
      </trkpt>
      <trkpt lat="49.34509" lon="-0.56329">
        <ele>-1.8</ele>
        <time>2016-05-29T11:59:20.000Z</time>
      </trkpt>
      <trkpt lat="49.34507" lon="-0.56344">
        <ele>-1.8</ele>
        <time>2016-05-29T11:59:28.000Z</time>
      </trkpt>
      <trkpt lat="49.34505" lon="-0.5636">
        <ele>-1.6</ele>
        <time>2016-05-29T11:59:36.000Z</time>
      </trkpt>
      <trkpt lat="49.34504" lon="-0.56373">
        <ele>-1.5</ele>
        <time>2016-05-29T11:59:43.000Z</time>
      </trkpt>
      <trkpt lat="49.34503" lon="-0.56387">
        <ele>-1.3</ele>
        <time>2016-05-29T11:59:50.000Z</time>
      </trkpt>
      <trkpt lat="49.345" lon="-0.56402">
        <ele>-1.2</ele>
        <time>2016-05-29T11:59:58.000Z</time>
      </trkpt>
      <trkpt lat="49.34496" lon="-0.56415">
        <ele>-1.1</ele>
        <time>2016-05-29T12:00:05.000Z</time>
      </trkpt>
      <trkpt lat="49.34493" lon="-0.56429">
        <ele>-1</ele>
        <time>2016-05-29T12:00:13.000Z</time>
      </trkpt>
      <trkpt lat="49.3449" lon="-0.56443">
        <ele>-0.8</ele>
        <time>2016-05-29T12:00:21.000Z</time>
      </trkpt>
      <trkpt lat="49.34486" lon="-0.56456">
        <ele>-0.8</ele>
        <time>2016-05-29T12:00:28.000Z</time>
      </trkpt>
      <trkpt lat="49.34483" lon="-0.5647">
        <ele>-0.7</ele>
        <time>2016-05-29T12:00:35.000Z</time>
      </trkpt>
      <trkpt lat="49.34481" lon="-0.56484">
        <ele>-0.6</ele>
        <time>2016-05-29T12:00:42.000Z</time>
      </trkpt>
      <trkpt lat="49.34478" lon="-0.56498">
        <ele>-0.6</ele>
        <time>2016-05-29T12:00:49.000Z</time>
      </trkpt>
      <trkpt lat="49.34476" lon="-0.56512">
        <ele>-0.8</ele>
        <time>2016-05-29T12:00:57.000Z</time>
      </trkpt>
      <trkpt lat="49.34473" lon="-0.56526">
        <ele>-0.8</ele>
        <time>2016-05-29T12:01:05.000Z</time>
      </trkpt>
      <trkpt lat="49.34471" lon="-0.56541">
        <ele>-0.7</ele>
        <time>2016-05-29T12:01:13.000Z</time>
      </trkpt>
      <trkpt lat="49.34468" lon="-0.56555">
        <ele>-0.5</ele>
        <time>2016-05-29T12:01:21.000Z</time>
      </trkpt>
      <trkpt lat="49.34465" lon="-0.5657">
        <ele>-0.3</ele>
        <time>2016-05-29T12:01:29.000Z</time>
      </trkpt>
      <trkpt lat="49.34462" lon="-0.56584">
        <ele>-0.3</ele>
        <time>2016-05-29T12:01:37.000Z</time>
      </trkpt>
      <trkpt lat="49.34459" lon="-0.56598">
        <ele>-0.3</ele>
        <time>2016-05-29T12:01:45.000Z</time>
      </trkpt>
      <trkpt lat="49.34455" lon="-0.56612">
        <ele>-0.2</ele>
        <time>2016-05-29T12:01:53.000Z</time>
      </trkpt>
      <trkpt lat="49.34451" lon="-0.56626">
        <ele>-0.1</ele>
        <time>2016-05-29T12:02:01.000Z</time>
      </trkpt>
      <trkpt lat="49.34447" lon="-0.56639">
        <ele>0.2</ele>
        <time>2016-05-29T12:02:10.000Z</time>
      </trkpt>
      <trkpt lat="49.34445" lon="-0.56654">
        <ele>0.3</ele>
        <time>2016-05-29T12:02:18.000Z</time>
      </trkpt>
      <trkpt lat="49.34442" lon="-0.56668">
        <ele>0.3</ele>
        <time>2016-05-29T12:02:26.000Z</time>
      </trkpt>
      <trkpt lat="49.34437" lon="-0.5668">
        <ele>0.4</ele>
        <time>2016-05-29T12:02:33.000Z</time>
      </trkpt>
      <trkpt lat="49.34434" lon="-0.56694">
        <ele>0.4</ele>
        <time>2016-05-29T12:02:41.000Z</time>
      </trkpt>
      <trkpt lat="49.34432" lon="-0.56708">
        <ele>0.5</ele>
        <time>2016-05-29T12:02:49.000Z</time>
      </trkpt>
      <trkpt lat="49.34428" lon="-0.56721">
        <ele>0.6</ele>
        <time>2016-05-29T12:02:57.000Z</time>
      </trkpt>
      <trkpt lat="49.34424" lon="-0.56734">
        <ele>0.8</ele>
        <time>2016-05-29T12:03:04.000Z</time>
      </trkpt>
      <trkpt lat="49.34419" lon="-0.56747">
        <ele>0.5</ele>
        <time>2016-05-29T12:03:11.000Z</time>
      </trkpt>
      <trkpt lat="49.34414" lon="-0.5676">
        <ele>0.4</ele>
        <time>2016-05-29T12:03:19.000Z</time>
      </trkpt>
      <trkpt lat="49.34411" lon="-0.56773">
        <ele>0.4</ele>
        <time>2016-05-29T12:03:26.000Z</time>
      </trkpt>
      <trkpt lat="49.34407" lon="-0.56787">
        <ele>0.4</ele>
        <time>2016-05-29T12:03:34.000Z</time>
      </trkpt>
      <trkpt lat="49.34401" lon="-0.56799">
        <ele>0.3</ele>
        <time>2016-05-29T12:03:42.000Z</time>
      </trkpt>
      <trkpt lat="49.34396" lon="-0.56811">
        <ele>0.4</ele>
        <time>2016-05-29T12:03:49.000Z</time>
      </trkpt>
      <trkpt lat="49.34391" lon="-0.56824">
        <ele>0.4</ele>
        <time>2016-05-29T12:03:57.000Z</time>
      </trkpt>
      <trkpt lat="49.34387" lon="-0.56838">
        <ele>0.4</ele>
        <time>2016-05-29T12:04:05.000Z</time>
      </trkpt>
      <trkpt lat="49.34383" lon="-0.56851">
        <ele>0.4</ele>
        <time>2016-05-29T12:04:13.000Z</time>
      </trkpt>
      <trkpt lat="49.34378" lon="-0.56864">
        <ele>0.5</ele>
        <time>2016-05-29T12:04:20.000Z</time>
      </trkpt>
      <trkpt lat="49.34375" lon="-0.56876">
        <ele>0.4</ele>
        <time>2016-05-29T12:04:27.000Z</time>
      </trkpt>
      <trkpt lat="49.34371" lon="-0.56891">
        <ele>0.3</ele>
        <time>2016-05-29T12:04:35.000Z</time>
      </trkpt>
      <trkpt lat="49.34367" lon="-0.56905">
        <ele>0.4</ele>
        <time>2016-05-29T12:04:43.000Z</time>
      </trkpt>
      <trkpt lat="49.34362" lon="-0.56918">
        <ele>0.6</ele>
        <time>2016-05-29T12:04:51.000Z</time>
      </trkpt>
      <trkpt lat="49.34357" lon="-0.56931">
        <ele>0.8</ele>
        <time>2016-05-29T12:04:59.000Z</time>
      </trkpt>
      <trkpt lat="49.34353" lon="-0.56945">
        <ele>1</ele>
        <time>2016-05-29T12:05:07.000Z</time>
      </trkpt>
      <trkpt lat="49.34349" lon="-0.56958">
        <ele>1</ele>
        <time>2016-05-29T12:05:14.000Z</time>
      </trkpt>
      <trkpt lat="49.34346" lon="-0.56972">
        <ele>0.8</ele>
        <time>2016-05-29T12:05:22.000Z</time>
      </trkpt>
      <trkpt lat="49.34344" lon="-0.56987">
        <ele>0.8</ele>
        <time>2016-05-29T12:05:30.000Z</time>
      </trkpt>
      <trkpt lat="49.34342" lon="-0.57001">
        <ele>0.9</ele>
        <time>2016-05-29T12:05:37.000Z</time>
      </trkpt>
      <trkpt lat="49.34341" lon="-0.57015">
        <ele>1</ele>
        <time>2016-05-29T12:05:45.000Z</time>
      </trkpt>
      <trkpt lat="49.3434" lon="-0.5703">
        <ele>1.2</ele>
        <time>2016-05-29T12:05:53.000Z</time>
      </trkpt>
      <trkpt lat="49.34338" lon="-0.57044">
        <ele>1.3</ele>
        <time>2016-05-29T12:06:01.000Z</time>
      </trkpt>
      <trkpt lat="49.34338" lon="-0.57058">
        <ele>1.5</ele>
        <time>2016-05-29T12:06:10.000Z</time>
      </trkpt>
      <trkpt lat="49.34336" lon="-0.57072">
        <ele>1.6</ele>
        <time>2016-05-29T12:06:18.000Z</time>
      </trkpt>
      <trkpt lat="49.34332" lon="-0.57085">
        <ele>1.9</ele>
        <time>2016-05-29T12:06:26.000Z</time>
      </trkpt>
      <trkpt lat="49.3433" lon="-0.57099">
        <ele>2.1</ele>
        <time>2016-05-29T12:06:34.000Z</time>
      </trkpt>
      <trkpt lat="49.34329" lon="-0.57114">
        <ele>2.3</ele>
        <time>2016-05-29T12:06:43.000Z</time>
      </trkpt>
      <trkpt lat="49.34329" lon="-0.57129">
        <ele>2.5</ele>
        <time>2016-05-29T12:06:53.000Z</time>
      </trkpt>
      <trkpt lat="49.34329" lon="-0.57144">
        <ele>2.3</ele>
        <time>2016-05-29T12:07:02.000Z</time>
      </trkpt>
      <trkpt lat="49.34329" lon="-0.57158">
        <ele>2.1</ele>
        <time>2016-05-29T12:07:12.000Z</time>
      </trkpt>
      <trkpt lat="49.34328" lon="-0.57172">
        <ele>2.1</ele>
        <time>2016-05-29T12:07:21.000Z</time>
      </trkpt>
      <trkpt lat="49.34331" lon="-0.57185">
        <ele>2.4</ele>
        <time>2016-05-29T12:07:32.000Z</time>
      </trkpt>
      <trkpt lat="49.34338" lon="-0.57197">
        <ele>2.4</ele>
        <time>2016-05-29T12:07:43.000Z</time>
      </trkpt>
      <trkpt lat="49.34339" lon="-0.57211">
        <ele>2.7</ele>
        <time>2016-05-29T12:07:54.000Z</time>
      </trkpt>
      <trkpt lat="49.34336" lon="-0.57225">
        <ele>3</ele>
        <time>2016-05-29T12:08:03.000Z</time>
      </trkpt>
      <trkpt lat="49.34332" lon="-0.57239">
        <ele>3</ele>
        <time>2016-05-29T12:08:13.000Z</time>
      </trkpt>
      <trkpt lat="49.34341" lon="-0.57245">
        <ele>3.4</ele>
        <time>2016-05-29T12:08:38.000Z</time>
      </trkpt>
      <trkpt lat="49.34331" lon="-0.57245">
        <ele>5</ele>
        <time>2016-05-29T12:10:33.000Z</time>
      </trkpt>
      <trkpt lat="49.34322" lon="-0.57236">
        <ele>5</ele>
        <time>2016-05-29T12:11:01.000Z</time>
      </trkpt>
      <trkpt lat="49.34329" lon="-0.57244">
        <ele>5.2</ele>
        <time>2016-05-29T12:11:20.000Z</time>
      </trkpt>
      <trkpt lat="49.34338" lon="-0.57247">
        <ele>5.6</ele>
        <time>2016-05-29T12:11:37.000Z</time>
      </trkpt>
      <trkpt lat="49.34341" lon="-0.5726">
        <ele>8.1</ele>
        <time>2016-05-29T12:14:16.000Z</time>
      </trkpt>
      <trkpt lat="49.34342" lon="-0.57275">
        <ele>8.4</ele>
        <time>2016-05-29T12:14:27.000Z</time>
      </trkpt>
      <trkpt lat="49.34342" lon="-0.57289">
        <ele>8.4</ele>
        <time>2016-05-29T12:14:37.000Z</time>
      </trkpt>
      <trkpt lat="49.3434" lon="-0.57303">
        <ele>8.4</ele>
        <time>2016-05-29T12:14:46.000Z</time>
      </trkpt>
      <trkpt lat="49.34338" lon="-0.57318">
        <ele>8.5</ele>
        <time>2016-05-29T12:14:54.000Z</time>
      </trkpt>
      <trkpt lat="49.34337" lon="-0.57333">
        <ele>8.5</ele>
        <time>2016-05-29T12:15:02.000Z</time>
      </trkpt>
      <trkpt lat="49.34335" lon="-0.57347">
        <ele>8.5</ele>
        <time>2016-05-29T12:15:11.000Z</time>
      </trkpt>
      <trkpt lat="49.34334" lon="-0.57362">
        <ele>8.2</ele>
        <time>2016-05-29T12:15:20.000Z</time>
      </trkpt>
      <trkpt lat="49.34333" lon="-0.57376">
        <ele>8.1</ele>
        <time>2016-05-29T12:15:28.000Z</time>
      </trkpt>
      <trkpt lat="49.3433" lon="-0.57391">
        <ele>8.1</ele>
        <time>2016-05-29T12:15:36.000Z</time>
      </trkpt>
      <trkpt lat="49.34327" lon="-0.57404">
        <ele>8.1</ele>
        <time>2016-05-29T12:15:44.000Z</time>
      </trkpt>
      <trkpt lat="49.34324" lon="-0.57418">
        <ele>8.2</ele>
        <time>2016-05-29T12:15:52.000Z</time>
      </trkpt>
      <trkpt lat="49.34321" lon="-0.57432">
        <ele>8.5</ele>
        <time>2016-05-29T12:16:00.000Z</time>
      </trkpt>
      <trkpt lat="49.34319" lon="-0.57446">
        <ele>8.6</ele>
        <time>2016-05-29T12:16:08.000Z</time>
      </trkpt>
      <trkpt lat="49.34316" lon="-0.5746">
        <ele>9</ele>
        <time>2016-05-29T12:16:16.000Z</time>
      </trkpt>
      <trkpt lat="49.34314" lon="-0.57473">
        <ele>9.3</ele>
        <time>2016-05-29T12:16:24.000Z</time>
      </trkpt>
      <trkpt lat="49.34311" lon="-0.57488">
        <ele>9.4</ele>
        <time>2016-05-29T12:16:33.000Z</time>
      </trkpt>
      <trkpt lat="49.3431" lon="-0.57502">
        <ele>9.5</ele>
        <time>2016-05-29T12:16:41.000Z</time>
      </trkpt>
      <trkpt lat="49.34308" lon="-0.57516">
        <ele>9.6</ele>
        <time>2016-05-29T12:16:49.000Z</time>
      </trkpt>
      <trkpt lat="49.34306" lon="-0.57529">
        <ele>9.5</ele>
        <time>2016-05-29T12:16:57.000Z</time>
      </trkpt>
      <trkpt lat="49.34305" lon="-0.57544">
        <ele>9.5</ele>
        <time>2016-05-29T12:17:05.000Z</time>
      </trkpt>
      <trkpt lat="49.34303" lon="-0.57559">
        <ele>9.6</ele>
        <time>2016-05-29T12:17:13.000Z</time>
      </trkpt>
      <trkpt lat="49.34301" lon="-0.57574">
        <ele>9.9</ele>
        <time>2016-05-29T12:17:22.000Z</time>
      </trkpt>
      <trkpt lat="49.34299" lon="-0.57588">
        <ele>10</ele>
        <time>2016-05-29T12:17:31.000Z</time>
      </trkpt>
      <trkpt lat="49.34298" lon="-0.57602">
        <ele>10</ele>
        <time>2016-05-29T12:17:39.000Z</time>
      </trkpt>
      <trkpt lat="49.34296" lon="-0.57616">
        <ele>10.2</ele>
        <time>2016-05-29T12:17:47.000Z</time>
      </trkpt>
      <trkpt lat="49.34294" lon="-0.57631">
        <ele>10.3</ele>
        <time>2016-05-29T12:17:56.000Z</time>
      </trkpt>
      <trkpt lat="49.34291" lon="-0.57645">
        <ele>10.1</ele>
        <time>2016-05-29T12:18:06.000Z</time>
      </trkpt>
      <trkpt lat="49.34289" lon="-0.57659">
        <ele>9.9</ele>
        <time>2016-05-29T12:18:16.000Z</time>
      </trkpt>
      <trkpt lat="49.34286" lon="-0.57673">
        <ele>9.8</ele>
        <time>2016-05-29T12:18:26.000Z</time>
      </trkpt>
      <trkpt lat="49.34285" lon="-0.57689">
        <ele>9.9</ele>
        <time>2016-05-29T12:18:36.000Z</time>
      </trkpt>
      <trkpt lat="49.34284" lon="-0.57704">
        <ele>10.2</ele>
        <time>2016-05-29T12:18:45.000Z</time>
      </trkpt>
      <trkpt lat="49.34283" lon="-0.57719">
        <ele>10.8</ele>
        <time>2016-05-29T12:18:56.000Z</time>
      </trkpt>
      <trkpt lat="49.34281" lon="-0.57733">
        <ele>10.8</ele>
        <time>2016-05-29T12:19:05.000Z</time>
      </trkpt>
      <trkpt lat="49.34279" lon="-0.57748">
        <ele>10.8</ele>
        <time>2016-05-29T12:19:13.000Z</time>
      </trkpt>
      <trkpt lat="49.34277" lon="-0.57761">
        <ele>10.9</ele>
        <time>2016-05-29T12:19:20.000Z</time>
      </trkpt>
      <trkpt lat="49.34274" lon="-0.57775">
        <ele>11.1</ele>
        <time>2016-05-29T12:19:28.000Z</time>
      </trkpt>
      <trkpt lat="49.34271" lon="-0.57789">
        <ele>11.2</ele>
        <time>2016-05-29T12:19:36.000Z</time>
      </trkpt>
      <trkpt lat="49.34268" lon="-0.57802">
        <ele>11.2</ele>
        <time>2016-05-29T12:19:44.000Z</time>
      </trkpt>
      <trkpt lat="49.34266" lon="-0.57816">
        <ele>11.1</ele>
        <time>2016-05-29T12:19:52.000Z</time>
      </trkpt>
      <trkpt lat="49.34264" lon="-0.57831">
        <ele>11.2</ele>
        <time>2016-05-29T12:20:00.000Z</time>
      </trkpt>
      <trkpt lat="49.34262" lon="-0.57846">
        <ele>11.3</ele>
        <time>2016-05-29T12:20:09.000Z</time>
      </trkpt>
      <trkpt lat="49.3426" lon="-0.5786">
        <ele>11.4</ele>
        <time>2016-05-29T12:20:17.000Z</time>
      </trkpt>
      <trkpt lat="49.34258" lon="-0.57875">
        <ele>11.6</ele>
        <time>2016-05-29T12:20:25.000Z</time>
      </trkpt>
      <trkpt lat="49.34255" lon="-0.5789">
        <ele>11.6</ele>
        <time>2016-05-29T12:20:34.000Z</time>
      </trkpt>
      <trkpt lat="49.34253" lon="-0.57904">
        <ele>11.7</ele>
        <time>2016-05-29T12:20:42.000Z</time>
      </trkpt>
      <trkpt lat="49.3425" lon="-0.57917">
        <ele>11.4</ele>
        <time>2016-05-29T12:20:50.000Z</time>
      </trkpt>
      <trkpt lat="49.34248" lon="-0.57931">
        <ele>11.3</ele>
        <time>2016-05-29T12:20:59.000Z</time>
      </trkpt>
      <trkpt lat="49.34246" lon="-0.57945">
        <ele>11.4</ele>
        <time>2016-05-29T12:21:07.000Z</time>
      </trkpt>
      <trkpt lat="49.34244" lon="-0.5796">
        <ele>11.4</ele>
        <time>2016-05-29T12:21:16.000Z</time>
      </trkpt>
      <trkpt lat="49.34243" lon="-0.57974">
        <ele>11.6</ele>
        <time>2016-05-29T12:21:32.000Z</time>
      </trkpt>
      <trkpt lat="49.34253" lon="-0.57975">
        <ele>11.6</ele>
        <time>2016-05-29T12:21:52.000Z</time>
      </trkpt>
      <trkpt lat="49.3426" lon="-0.57984">
        <ele>10</ele>
        <time>2016-05-29T12:22:18.000Z</time>
      </trkpt>
      <trkpt lat="49.3426" lon="-0.58">
        <ele>10</ele>
        <time>2016-05-29T12:22:26.000Z</time>
      </trkpt>
      <trkpt lat="49.34262" lon="-0.58014">
        <ele>10</ele>
        <time>2016-05-29T12:22:34.000Z</time>
      </trkpt>
      <trkpt lat="49.34261" lon="-0.5803">
        <ele>9.9</ele>
        <time>2016-05-29T12:22:43.000Z</time>
      </trkpt>
      <trkpt lat="49.3426" lon="-0.58044">
        <ele>9.6</ele>
        <time>2016-05-29T12:22:52.000Z</time>
      </trkpt>
      <trkpt lat="49.34258" lon="-0.58058">
        <ele>9.5</ele>
        <time>2016-05-29T12:23:00.000Z</time>
      </trkpt>
      <trkpt lat="49.34255" lon="-0.58071">
        <ele>9.5</ele>
        <time>2016-05-29T12:23:07.000Z</time>
      </trkpt>
      <trkpt lat="49.34252" lon="-0.58085">
        <ele>9.6</ele>
        <time>2016-05-29T12:23:14.000Z</time>
      </trkpt>
      <trkpt lat="49.34247" lon="-0.58098">
        <ele>10</ele>
        <time>2016-05-29T12:23:22.000Z</time>
      </trkpt>
      <trkpt lat="49.34243" lon="-0.5811">
        <ele>10.3</ele>
        <time>2016-05-29T12:23:30.000Z</time>
      </trkpt>
      <trkpt lat="49.34238" lon="-0.58122">
        <ele>10.5</ele>
        <time>2016-05-29T12:23:38.000Z</time>
      </trkpt>
      <trkpt lat="49.34234" lon="-0.58136">
        <ele>10.6</ele>
        <time>2016-05-29T12:23:46.000Z</time>
      </trkpt>
      <trkpt lat="49.34231" lon="-0.5815">
        <ele>10.7</ele>
        <time>2016-05-29T12:23:54.000Z</time>
      </trkpt>
      <trkpt lat="49.34228" lon="-0.58165">
        <ele>10.9</ele>
        <time>2016-05-29T12:24:03.000Z</time>
      </trkpt>
      <trkpt lat="49.34225" lon="-0.58179">
        <ele>11.1</ele>
        <time>2016-05-29T12:24:11.000Z</time>
      </trkpt>
      <trkpt lat="49.34222" lon="-0.58193">
        <ele>11.2</ele>
        <time>2016-05-29T12:24:19.000Z</time>
      </trkpt>
      <trkpt lat="49.3422" lon="-0.58208">
        <ele>11.3</ele>
        <time>2016-05-29T12:24:27.000Z</time>
      </trkpt>
      <trkpt lat="49.34217" lon="-0.58221">
        <ele>11.4</ele>
        <time>2016-05-29T12:24:35.000Z</time>
      </trkpt>
      <trkpt lat="49.34215" lon="-0.58236">
        <ele>11.5</ele>
        <time>2016-05-29T12:24:44.000Z</time>
      </trkpt>
      <trkpt lat="49.34212" lon="-0.5825">
        <ele>11.5</ele>
        <time>2016-05-29T12:24:52.000Z</time>
      </trkpt>
      <trkpt lat="49.3421" lon="-0.58264">
        <ele>11.6</ele>
        <time>2016-05-29T12:25:00.000Z</time>
      </trkpt>
      <trkpt lat="49.3421" lon="-0.58278">
        <ele>11.8</ele>
        <time>2016-05-29T12:25:08.000Z</time>
      </trkpt>
      <trkpt lat="49.3421" lon="-0.58292">
        <ele>12.2</ele>
        <time>2016-05-29T12:25:24.000Z</time>
      </trkpt>
      <trkpt lat="49.34207" lon="-0.58306">
        <ele>12</ele>
        <time>2016-05-29T12:25:33.000Z</time>
      </trkpt>
      <trkpt lat="49.34202" lon="-0.58319">
        <ele>11.9</ele>
        <time>2016-05-29T12:25:43.000Z</time>
      </trkpt>
      <trkpt lat="49.34195" lon="-0.5833">
        <ele>11.8</ele>
        <time>2016-05-29T12:25:55.000Z</time>
      </trkpt>
      <trkpt lat="49.34188" lon="-0.58338">
        <ele>12</ele>
        <time>2016-05-29T12:26:06.000Z</time>
      </trkpt>
      <trkpt lat="49.34187" lon="-0.58353">
        <ele>12.3</ele>
        <time>2016-05-29T12:30:00.000Z</time>
      </trkpt>
      <trkpt lat="49.3419" lon="-0.58366">
        <ele>12.4</ele>
        <time>2016-05-29T12:30:12.000Z</time>
      </trkpt>
      <trkpt lat="49.34189" lon="-0.58381">
        <ele>12.6</ele>
        <time>2016-05-29T12:30:21.000Z</time>
      </trkpt>
      <trkpt lat="49.3419" lon="-0.58396">
        <ele>12.7</ele>
        <time>2016-05-29T12:30:31.000Z</time>
      </trkpt>
      <trkpt lat="49.34194" lon="-0.58411">
        <ele>13</ele>
        <time>2016-05-29T12:30:39.000Z</time>
      </trkpt>
      <trkpt lat="49.34196" lon="-0.58426">
        <ele>13.3</ele>
        <time>2016-05-29T12:30:49.000Z</time>
      </trkpt>
      <trkpt lat="49.34202" lon="-0.58437">
        <ele>13.2</ele>
        <time>2016-05-29T12:31:07.000Z</time>
      </trkpt>
      <trkpt lat="49.34205" lon="-0.58451">
        <ele>13.3</ele>
        <time>2016-05-29T12:31:15.000Z</time>
      </trkpt>
      <trkpt lat="49.34209" lon="-0.58465">
        <ele>13.2</ele>
        <time>2016-05-29T12:31:23.000Z</time>
      </trkpt>
      <trkpt lat="49.34208" lon="-0.58481">
        <ele>13.2</ele>
        <time>2016-05-29T12:31:31.000Z</time>
      </trkpt>
      <trkpt lat="49.34208" lon="-0.58495">
        <ele>13.2</ele>
        <time>2016-05-29T12:31:39.000Z</time>
      </trkpt>
      <trkpt lat="49.3421" lon="-0.5851">
        <ele>13.3</ele>
        <time>2016-05-29T12:31:49.000Z</time>
      </trkpt>
      <trkpt lat="49.3421" lon="-0.58525">
        <ele>13.4</ele>
        <time>2016-05-29T12:32:04.000Z</time>
      </trkpt>
      <trkpt lat="49.34212" lon="-0.5854">
        <ele>13.7</ele>
        <time>2016-05-29T12:32:13.000Z</time>
      </trkpt>
      <trkpt lat="49.34212" lon="-0.58554">
        <ele>13.5</ele>
        <time>2016-05-29T12:32:21.000Z</time>
      </trkpt>
      <trkpt lat="49.3421" lon="-0.58569">
        <ele>13.6</ele>
        <time>2016-05-29T12:32:30.000Z</time>
      </trkpt>
      <trkpt lat="49.34209" lon="-0.58583">
        <ele>13.7</ele>
        <time>2016-05-29T12:32:38.000Z</time>
      </trkpt>
      <trkpt lat="49.34207" lon="-0.58596">
        <ele>13.7</ele>
        <time>2016-05-29T12:32:46.000Z</time>
      </trkpt>
      <trkpt lat="49.34205" lon="-0.5861">
        <ele>13.6</ele>
        <time>2016-05-29T12:32:54.000Z</time>
      </trkpt>
      <trkpt lat="49.34203" lon="-0.58624">
        <ele>13.4</ele>
        <time>2016-05-29T12:33:02.000Z</time>
      </trkpt>
      <trkpt lat="49.342" lon="-0.58638">
        <ele>13.4</ele>
        <time>2016-05-29T12:33:10.000Z</time>
      </trkpt>
      <trkpt lat="49.34198" lon="-0.58652">
        <ele>13.4</ele>
        <time>2016-05-29T12:33:18.000Z</time>
      </trkpt>
      <trkpt lat="49.34195" lon="-0.58666">
        <ele>13.4</ele>
        <time>2016-05-29T12:33:26.000Z</time>
      </trkpt>
      <trkpt lat="49.34193" lon="-0.5868">
        <ele>13.4</ele>
        <time>2016-05-29T12:33:34.000Z</time>
      </trkpt>
      <trkpt lat="49.3419" lon="-0.58694">
        <ele>13</ele>
        <time>2016-05-29T12:33:42.000Z</time>
      </trkpt>
      <trkpt lat="49.34188" lon="-0.58708">
        <ele>13</ele>
        <time>2016-05-29T12:33:50.000Z</time>
      </trkpt>
      <trkpt lat="49.34185" lon="-0.58723">
        <ele>13.2</ele>
        <time>2016-05-29T12:33:58.000Z</time>
      </trkpt>
      <trkpt lat="49.34182" lon="-0.58737">
        <ele>12.9</ele>
        <time>2016-05-29T12:34:07.000Z</time>
      </trkpt>
      <trkpt lat="49.34179" lon="-0.58751">
        <ele>12.8</ele>
        <time>2016-05-29T12:34:15.000Z</time>
      </trkpt>
      <trkpt lat="49.34177" lon="-0.58765">
        <ele>12.9</ele>
        <time>2016-05-29T12:34:23.000Z</time>
      </trkpt>
      <trkpt lat="49.34175" lon="-0.58779">
        <ele>13</ele>
        <time>2016-05-29T12:34:31.000Z</time>
      </trkpt>
      <trkpt lat="49.34172" lon="-0.58793">
        <ele>13</ele>
        <time>2016-05-29T12:34:39.000Z</time>
      </trkpt>
      <trkpt lat="49.3417" lon="-0.58807">
        <ele>12.9</ele>
        <time>2016-05-29T12:34:47.000Z</time>
      </trkpt>
      <trkpt lat="49.34168" lon="-0.58822">
        <ele>13.2</ele>
        <time>2016-05-29T12:34:56.000Z</time>
      </trkpt>
      <trkpt lat="49.34165" lon="-0.58837">
        <ele>13</ele>
        <time>2016-05-29T12:35:05.000Z</time>
      </trkpt>
      <trkpt lat="49.34162" lon="-0.5885">
        <ele>12.9</ele>
        <time>2016-05-29T12:35:13.000Z</time>
      </trkpt>
      <trkpt lat="49.34157" lon="-0.58863">
        <ele>12.9</ele>
        <time>2016-05-29T12:35:21.000Z</time>
      </trkpt>
      <trkpt lat="49.34153" lon="-0.58876">
        <ele>12.6</ele>
        <time>2016-05-29T12:35:29.000Z</time>
      </trkpt>
      <trkpt lat="49.34149" lon="-0.5889">
        <ele>12.6</ele>
        <time>2016-05-29T12:35:38.000Z</time>
      </trkpt>
      <trkpt lat="49.34145" lon="-0.58903">
        <ele>12.9</ele>
        <time>2016-05-29T12:35:47.000Z</time>
      </trkpt>
      <trkpt lat="49.34141" lon="-0.58916">
        <ele>13.2</ele>
        <time>2016-05-29T12:35:56.000Z</time>
      </trkpt>
      <trkpt lat="49.34136" lon="-0.58927">
        <ele>13.4</ele>
        <time>2016-05-29T12:36:04.000Z</time>
      </trkpt>
      <trkpt lat="49.34129" lon="-0.58938">
        <ele>13.4</ele>
        <time>2016-05-29T12:36:12.000Z</time>
      </trkpt>
      <trkpt lat="49.34123" lon="-0.58948">
        <ele>13.4</ele>
        <time>2016-05-29T12:36:20.000Z</time>
      </trkpt>
      <trkpt lat="49.34115" lon="-0.58955">
        <ele>13.4</ele>
        <time>2016-05-29T12:36:29.000Z</time>
      </trkpt>
      <trkpt lat="49.34112" lon="-0.58962">
        <ele>12.9</ele>
        <time>2016-05-29T12:36:53.000Z</time>
      </trkpt>
    </trkseg>
  </trk>
</gpx>